<?xml version="1.0" encoding="UTF-8" standalone="no" ?>
<gpx xmlns="http://www.topografix.com/GPX/1/1" xmlns:xsi="http://www.w3.org/2001/XMLSchema-instance" xsi:schemaLocation="http://www.topografix.com/GPX/1/1 http://www.topografix.com/GPX/1/1/gpx.xsd" version="1.1" creator="VisuGPX - https://www.visugpx.com">
  <metadata>
    <name>cascade de Cubserviès</name>
    <desc><![CDATA[Boucle pédestre depuis le village de Roquefère (11) jusqu'à la cascade de Cubserviès, retour par Labastide-Esparbairenque ]]></desc>
  </metadata>
  <trk>
    <name><![CDATA[2016-08-06 roquefère-cubservies]]></name>
    <trkseg>
      <trkpt lat="43.37128" lon="2.37741">
        <ele>311.12</ele>
        <time>2016-08-06T09:07:02Z</time>
      </trkpt>
      <trkpt lat="43.37125" lon="2.37737">
        <ele>310.64</ele>
        <time>2016-08-06T09:07:08Z</time>
      </trkpt>
      <trkpt lat="43.37117" lon="2.37726">
        <ele>310.64</ele>
        <time>2016-08-06T09:07:22Z</time>
      </trkpt>
      <trkpt lat="43.37113" lon="2.37721">
        <ele>310.16</ele>
        <time>2016-08-06T09:07:34Z</time>
      </trkpt>
      <trkpt lat="43.37115" lon="2.37722">
        <ele>310.16</ele>
        <time>2016-08-06T09:07:41Z</time>
      </trkpt>
      <trkpt lat="43.37109" lon="2.37703">
        <ele>311.12</ele>
        <time>2016-08-06T09:07:54Z</time>
      </trkpt>
      <trkpt lat="43.37094" lon="2.37692">
        <ele>310.64</ele>
        <time>2016-08-06T09:08:09Z</time>
      </trkpt>
      <trkpt lat="43.37105" lon="2.37687">
        <ele>314.01</ele>
        <time>2016-08-06T09:09:25Z</time>
      </trkpt>
      <trkpt lat="43.37108" lon="2.37682">
        <ele>315.93</ele>
        <time>2016-08-06T09:09:39Z</time>
      </trkpt>
      <trkpt lat="43.37114" lon="2.37667">
        <ele>318.33</ele>
        <time>2016-08-06T09:09:57Z</time>
      </trkpt>
      <trkpt lat="43.37124" lon="2.37653">
        <ele>321.22</ele>
        <time>2016-08-06T09:10:13Z</time>
      </trkpt>
      <trkpt lat="43.37119" lon="2.37659">
        <ele>323.14</ele>
        <time>2016-08-06T09:10:26Z</time>
      </trkpt>
      <trkpt lat="43.37117" lon="2.37668">
        <ele>324.1</ele>
        <time>2016-08-06T09:10:39Z</time>
      </trkpt>
      <trkpt lat="43.37128" lon="2.37688">
        <ele>325.06</ele>
        <time>2016-08-06T09:10:54Z</time>
      </trkpt>
      <trkpt lat="43.37137" lon="2.377">
        <ele>326.99</ele>
        <time>2016-08-06T09:11:03Z</time>
      </trkpt>
      <trkpt lat="43.3715" lon="2.37715">
        <ele>329.39</ele>
        <time>2016-08-06T09:11:19Z</time>
      </trkpt>
      <trkpt lat="43.37158" lon="2.37732">
        <ele>330.83</ele>
        <time>2016-08-06T09:11:33Z</time>
      </trkpt>
      <trkpt lat="43.37166" lon="2.3775">
        <ele>331.79</ele>
        <time>2016-08-06T09:11:47Z</time>
      </trkpt>
      <trkpt lat="43.37176" lon="2.37752">
        <ele>333.71</ele>
        <time>2016-08-06T09:12:00Z</time>
      </trkpt>
      <trkpt lat="43.37187" lon="2.37758">
        <ele>335.64</ele>
        <time>2016-08-06T09:12:14Z</time>
      </trkpt>
      <trkpt lat="43.372" lon="2.37764">
        <ele>335.64</ele>
        <time>2016-08-06T09:12:29Z</time>
      </trkpt>
      <trkpt lat="43.37214" lon="2.37765">
        <ele>336.6</ele>
        <time>2016-08-06T09:12:43Z</time>
      </trkpt>
      <trkpt lat="43.37226" lon="2.37775">
        <ele>337.56</ele>
        <time>2016-08-06T09:12:59Z</time>
      </trkpt>
      <trkpt lat="43.37235" lon="2.37774">
        <ele>337.56</ele>
        <time>2016-08-06T09:13:16Z</time>
      </trkpt>
      <trkpt lat="43.37236" lon="2.37772">
        <ele>336.6</ele>
        <time>2016-08-06T09:13:44Z</time>
      </trkpt>
      <trkpt lat="43.37237" lon="2.37777">
        <ele>335.16</ele>
        <time>2016-08-06T09:14:02Z</time>
      </trkpt>
      <trkpt lat="43.37239" lon="2.37779">
        <ele>335.16</ele>
        <time>2016-08-06T09:14:22Z</time>
      </trkpt>
      <trkpt lat="43.37242" lon="2.3778">
        <ele>335.16</ele>
        <time>2016-08-06T09:14:39Z</time>
      </trkpt>
      <trkpt lat="43.37247" lon="2.37783">
        <ele>337.08</ele>
        <time>2016-08-06T09:14:52Z</time>
      </trkpt>
      <trkpt lat="43.37253" lon="2.37784">
        <ele>339.48</ele>
        <time>2016-08-06T09:15:04Z</time>
      </trkpt>
      <trkpt lat="43.37257" lon="2.37779">
        <ele>341.41</ele>
        <time>2016-08-06T09:15:11Z</time>
      </trkpt>
      <trkpt lat="43.37253" lon="2.37762">
        <ele>344.29</ele>
        <time>2016-08-06T09:15:27Z</time>
      </trkpt>
      <trkpt lat="43.37252" lon="2.37755">
        <ele>347.65</ele>
        <time>2016-08-06T09:15:40Z</time>
      </trkpt>
      <trkpt lat="43.37244" lon="2.37746">
        <ele>349.1</ele>
        <time>2016-08-06T09:15:54Z</time>
      </trkpt>
      <trkpt lat="43.37242" lon="2.37733">
        <ele>351.02</ele>
        <time>2016-08-06T09:16:13Z</time>
      </trkpt>
      <trkpt lat="43.37236" lon="2.37724">
        <ele>353.42</ele>
        <time>2016-08-06T09:16:28Z</time>
      </trkpt>
      <trkpt lat="43.3723" lon="2.37717">
        <ele>355.34</ele>
        <time>2016-08-06T09:16:42Z</time>
      </trkpt>
      <trkpt lat="43.37227" lon="2.37711">
        <ele>357.75</ele>
        <time>2016-08-06T09:16:55Z</time>
      </trkpt>
      <trkpt lat="43.37221" lon="2.37706">
        <ele>358.71</ele>
        <time>2016-08-06T09:17:09Z</time>
      </trkpt>
      <trkpt lat="43.37219" lon="2.377">
        <ele>361.11</ele>
        <time>2016-08-06T09:17:21Z</time>
      </trkpt>
      <trkpt lat="43.37215" lon="2.37691">
        <ele>363.52</ele>
        <time>2016-08-06T09:17:35Z</time>
      </trkpt>
      <trkpt lat="43.37209" lon="2.37685">
        <ele>364.96</ele>
        <time>2016-08-06T09:17:51Z</time>
      </trkpt>
      <trkpt lat="43.37208" lon="2.37685">
        <ele>364.96</ele>
        <time>2016-08-06T09:18:09Z</time>
      </trkpt>
      <trkpt lat="43.37209" lon="2.37683">
        <ele>364.48</ele>
        <time>2016-08-06T09:18:35Z</time>
      </trkpt>
      <trkpt lat="43.37207" lon="2.37678">
        <ele>364.96</ele>
        <time>2016-08-06T09:18:54Z</time>
      </trkpt>
      <trkpt lat="43.37207" lon="2.37668">
        <ele>368.32</ele>
        <time>2016-08-06T09:19:07Z</time>
      </trkpt>
      <trkpt lat="43.37207" lon="2.37657">
        <ele>370.73</ele>
        <time>2016-08-06T09:19:23Z</time>
      </trkpt>
      <trkpt lat="43.37211" lon="2.37655">
        <ele>373.61</ele>
        <time>2016-08-06T09:19:36Z</time>
      </trkpt>
      <trkpt lat="43.37213" lon="2.37651">
        <ele>374.57</ele>
        <time>2016-08-06T09:19:51Z</time>
      </trkpt>
      <trkpt lat="43.37213" lon="2.37643">
        <ele>377.94</ele>
        <time>2016-08-06T09:20:03Z</time>
      </trkpt>
      <trkpt lat="43.37217" lon="2.37635">
        <ele>378.42</ele>
        <time>2016-08-06T09:20:17Z</time>
      </trkpt>
      <trkpt lat="43.37221" lon="2.37625">
        <ele>379.86</ele>
        <time>2016-08-06T09:20:31Z</time>
      </trkpt>
      <trkpt lat="43.37223" lon="2.37616">
        <ele>383.22</ele>
        <time>2016-08-06T09:20:44Z</time>
      </trkpt>
      <trkpt lat="43.37226" lon="2.37606">
        <ele>386.59</ele>
        <time>2016-08-06T09:21:00Z</time>
      </trkpt>
      <trkpt lat="43.37233" lon="2.37599">
        <ele>388.51</ele>
        <time>2016-08-06T09:21:13Z</time>
      </trkpt>
      <trkpt lat="43.37236" lon="2.37586">
        <ele>391.87</ele>
        <time>2016-08-06T09:21:30Z</time>
      </trkpt>
      <trkpt lat="43.37238" lon="2.37578">
        <ele>392.84</ele>
        <time>2016-08-06T09:21:45Z</time>
      </trkpt>
      <trkpt lat="43.37242" lon="2.3756">
        <ele>394.76</ele>
        <time>2016-08-06T09:22:02Z</time>
      </trkpt>
      <trkpt lat="43.37243" lon="2.37536">
        <ele>397.16</ele>
        <time>2016-08-06T09:22:23Z</time>
      </trkpt>
      <trkpt lat="43.37247" lon="2.37524">
        <ele>399.08</ele>
        <time>2016-08-06T09:22:40Z</time>
      </trkpt>
      <trkpt lat="43.37256" lon="2.37519">
        <ele>401.97</ele>
        <time>2016-08-06T09:22:57Z</time>
      </trkpt>
      <trkpt lat="43.37266" lon="2.37508">
        <ele>401.97</ele>
        <time>2016-08-06T09:23:15Z</time>
      </trkpt>
      <trkpt lat="43.37279" lon="2.37499">
        <ele>401.01</ele>
        <time>2016-08-06T09:23:32Z</time>
      </trkpt>
      <trkpt lat="43.37285" lon="2.37492">
        <ele>401.01</ele>
        <time>2016-08-06T09:23:50Z</time>
      </trkpt>
      <trkpt lat="43.37295" lon="2.37488">
        <ele>401.01</ele>
        <time>2016-08-06T09:24:04Z</time>
      </trkpt>
      <trkpt lat="43.37307" lon="2.3748">
        <ele>399.57</ele>
        <time>2016-08-06T09:24:22Z</time>
      </trkpt>
      <trkpt lat="43.37312" lon="2.37469">
        <ele>400.05</ele>
        <time>2016-08-06T09:24:38Z</time>
      </trkpt>
      <trkpt lat="43.37317" lon="2.37462">
        <ele>401.01</ele>
        <time>2016-08-06T09:25:02Z</time>
      </trkpt>
      <trkpt lat="43.37326" lon="2.37459">
        <ele>401.49</ele>
        <time>2016-08-06T09:25:26Z</time>
      </trkpt>
      <trkpt lat="43.37338" lon="2.3745">
        <ele>402.45</ele>
        <time>2016-08-06T09:25:44Z</time>
      </trkpt>
      <trkpt lat="43.37351" lon="2.37439">
        <ele>403.41</ele>
        <time>2016-08-06T09:26:01Z</time>
      </trkpt>
      <trkpt lat="43.3736" lon="2.37432">
        <ele>405.33</ele>
        <time>2016-08-06T09:26:16Z</time>
      </trkpt>
      <trkpt lat="43.37371" lon="2.3742">
        <ele>408.22</ele>
        <time>2016-08-06T09:26:34Z</time>
      </trkpt>
      <trkpt lat="43.37378" lon="2.37413">
        <ele>410.14</ele>
        <time>2016-08-06T09:26:49Z</time>
      </trkpt>
      <trkpt lat="43.37383" lon="2.37402">
        <ele>412.54</ele>
        <time>2016-08-06T09:27:04Z</time>
      </trkpt>
      <trkpt lat="43.37391" lon="2.37396">
        <ele>413.98</ele>
        <time>2016-08-06T09:27:21Z</time>
      </trkpt>
      <trkpt lat="43.37398" lon="2.37387">
        <ele>415.43</ele>
        <time>2016-08-06T09:27:39Z</time>
      </trkpt>
      <trkpt lat="43.37406" lon="2.37377">
        <ele>417.83</ele>
        <time>2016-08-06T09:27:54Z</time>
      </trkpt>
      <trkpt lat="43.37411" lon="2.37371">
        <ele>419.27</ele>
        <time>2016-08-06T09:28:12Z</time>
      </trkpt>
      <trkpt lat="43.37418" lon="2.37358">
        <ele>420.71</ele>
        <time>2016-08-06T09:28:28Z</time>
      </trkpt>
      <trkpt lat="43.37426" lon="2.37348">
        <ele>420.71</ele>
        <time>2016-08-06T09:28:44Z</time>
      </trkpt>
      <trkpt lat="43.37433" lon="2.37336">
        <ele>422.16</ele>
        <time>2016-08-06T09:29:00Z</time>
      </trkpt>
      <trkpt lat="43.37443" lon="2.37328">
        <ele>424.08</ele>
        <time>2016-08-06T09:29:18Z</time>
      </trkpt>
      <trkpt lat="43.37449" lon="2.37317">
        <ele>426</ele>
        <time>2016-08-06T09:29:35Z</time>
      </trkpt>
      <trkpt lat="43.37455" lon="2.37304">
        <ele>426.48</ele>
        <time>2016-08-06T09:29:52Z</time>
      </trkpt>
      <trkpt lat="43.37464" lon="2.37291">
        <ele>428.89</ele>
        <time>2016-08-06T09:30:08Z</time>
      </trkpt>
      <trkpt lat="43.37471" lon="2.3728">
        <ele>431.77</ele>
        <time>2016-08-06T09:30:25Z</time>
      </trkpt>
      <trkpt lat="43.37478" lon="2.37266">
        <ele>432.73</ele>
        <time>2016-08-06T09:30:43Z</time>
      </trkpt>
      <trkpt lat="43.37493" lon="2.37246">
        <ele>433.21</ele>
        <time>2016-08-06T09:31:06Z</time>
      </trkpt>
      <trkpt lat="43.37494" lon="2.37249">
        <ele>435.13</ele>
        <time>2016-08-06T09:31:23Z</time>
      </trkpt>
      <trkpt lat="43.37498" lon="2.37243">
        <ele>438.02</ele>
        <time>2016-08-06T09:31:39Z</time>
      </trkpt>
      <trkpt lat="43.37501" lon="2.37234">
        <ele>440.9</ele>
        <time>2016-08-06T09:31:54Z</time>
      </trkpt>
      <trkpt lat="43.37505" lon="2.37223">
        <ele>442.82</ele>
        <time>2016-08-06T09:32:09Z</time>
      </trkpt>
      <trkpt lat="43.3751" lon="2.37213">
        <ele>445.23</ele>
        <time>2016-08-06T09:32:23Z</time>
      </trkpt>
      <trkpt lat="43.37516" lon="2.37203">
        <ele>447.63</ele>
        <time>2016-08-06T09:32:38Z</time>
      </trkpt>
      <trkpt lat="43.37522" lon="2.37189">
        <ele>449.07</ele>
        <time>2016-08-06T09:32:54Z</time>
      </trkpt>
      <trkpt lat="43.37526" lon="2.37177">
        <ele>451</ele>
        <time>2016-08-06T09:33:11Z</time>
      </trkpt>
      <trkpt lat="43.37531" lon="2.3717">
        <ele>453.4</ele>
        <time>2016-08-06T09:33:25Z</time>
      </trkpt>
      <trkpt lat="43.37536" lon="2.37166">
        <ele>455.32</ele>
        <time>2016-08-06T09:33:39Z</time>
      </trkpt>
      <trkpt lat="43.37545" lon="2.37159">
        <ele>458.21</ele>
        <time>2016-08-06T09:33:56Z</time>
      </trkpt>
      <trkpt lat="43.37554" lon="2.3715">
        <ele>461.09</ele>
        <time>2016-08-06T09:34:13Z</time>
      </trkpt>
      <trkpt lat="43.37562" lon="2.37143">
        <ele>463.97</ele>
        <time>2016-08-06T09:34:29Z</time>
      </trkpt>
      <trkpt lat="43.37567" lon="2.37136">
        <ele>466.38</ele>
        <time>2016-08-06T09:34:45Z</time>
      </trkpt>
      <trkpt lat="43.37575" lon="2.37125">
        <ele>468.78</ele>
        <time>2016-08-06T09:35:05Z</time>
      </trkpt>
      <trkpt lat="43.37579" lon="2.37109">
        <ele>471.66</ele>
        <time>2016-08-06T09:35:24Z</time>
      </trkpt>
      <trkpt lat="43.37585" lon="2.37101">
        <ele>474.55</ele>
        <time>2016-08-06T09:35:42Z</time>
      </trkpt>
      <trkpt lat="43.3759" lon="2.37097">
        <ele>476.95</ele>
        <time>2016-08-06T09:35:58Z</time>
      </trkpt>
      <trkpt lat="43.37598" lon="2.37095">
        <ele>479.84</ele>
        <time>2016-08-06T09:36:15Z</time>
      </trkpt>
      <trkpt lat="43.37601" lon="2.37095">
        <ele>479.84</ele>
        <time>2016-08-06T09:36:32Z</time>
      </trkpt>
      <trkpt lat="43.37604" lon="2.37078">
        <ele>474.07</ele>
        <time>2016-08-06T09:36:47Z</time>
      </trkpt>
      <trkpt lat="43.37605" lon="2.37077">
        <ele>482.24</ele>
        <time>2016-08-06T09:36:48Z</time>
      </trkpt>
      <trkpt lat="43.37605" lon="2.37076">
        <ele>481.76</ele>
        <time>2016-08-06T09:36:49Z</time>
      </trkpt>
      <trkpt lat="43.37612" lon="2.37072">
        <ele>481.28</ele>
        <time>2016-08-06T09:36:59Z</time>
      </trkpt>
      <trkpt lat="43.37613" lon="2.37075">
        <ele>480.8</ele>
        <time>2016-08-06T09:37:21Z</time>
      </trkpt>
      <trkpt lat="43.37613" lon="2.3708">
        <ele>480.8</ele>
        <time>2016-08-06T09:37:48Z</time>
      </trkpt>
      <trkpt lat="43.37617" lon="2.3708">
        <ele>479.84</ele>
        <time>2016-08-06T09:38:16Z</time>
      </trkpt>
      <trkpt lat="43.3762" lon="2.37079">
        <ele>480.32</ele>
        <time>2016-08-06T09:38:24Z</time>
      </trkpt>
      <trkpt lat="43.37626" lon="2.37077">
        <ele>483.68</ele>
        <time>2016-08-06T09:38:37Z</time>
      </trkpt>
      <trkpt lat="43.37634" lon="2.37072">
        <ele>484.16</ele>
        <time>2016-08-06T09:38:51Z</time>
      </trkpt>
      <trkpt lat="43.37637" lon="2.37072">
        <ele>484.64</ele>
        <time>2016-08-06T09:39:02Z</time>
      </trkpt>
      <trkpt lat="43.37643" lon="2.37071">
        <ele>485.6</ele>
        <time>2016-08-06T09:39:09Z</time>
      </trkpt>
      <trkpt lat="43.37651" lon="2.37067">
        <ele>487.05</ele>
        <time>2016-08-06T09:39:21Z</time>
      </trkpt>
      <trkpt lat="43.3766" lon="2.37061">
        <ele>487.53</ele>
        <time>2016-08-06T09:39:36Z</time>
      </trkpt>
      <trkpt lat="43.37662" lon="2.37058">
        <ele>487.05</ele>
        <time>2016-08-06T09:39:40Z</time>
      </trkpt>
      <trkpt lat="43.37667" lon="2.37053">
        <ele>485.6</ele>
        <time>2016-08-06T09:39:52Z</time>
      </trkpt>
      <trkpt lat="43.37676" lon="2.37048">
        <ele>485.6</ele>
        <time>2016-08-06T09:40:09Z</time>
      </trkpt>
      <trkpt lat="43.37677" lon="2.37039">
        <ele>486.08</ele>
        <time>2016-08-06T09:40:27Z</time>
      </trkpt>
      <trkpt lat="43.37682" lon="2.37041">
        <ele>485.12</ele>
        <time>2016-08-06T09:40:43Z</time>
      </trkpt>
      <trkpt lat="43.37682" lon="2.37046">
        <ele>485.12</ele>
        <time>2016-08-06T09:41:09Z</time>
      </trkpt>
      <trkpt lat="43.37682" lon="2.37053">
        <ele>484.64</ele>
        <time>2016-08-06T09:44:05Z</time>
      </trkpt>
      <trkpt lat="43.37691" lon="2.3705">
        <ele>485.6</ele>
        <time>2016-08-06T09:44:21Z</time>
      </trkpt>
      <trkpt lat="43.37699" lon="2.37035">
        <ele>486.08</ele>
        <time>2016-08-06T09:44:40Z</time>
      </trkpt>
      <trkpt lat="43.37701" lon="2.37034">
        <ele>487.05</ele>
        <time>2016-08-06T09:44:58Z</time>
      </trkpt>
      <trkpt lat="43.37715" lon="2.37052">
        <ele>489.93</ele>
        <time>2016-08-06T09:45:15Z</time>
      </trkpt>
      <trkpt lat="43.37724" lon="2.37058">
        <ele>492.81</ele>
        <time>2016-08-06T09:45:31Z</time>
      </trkpt>
      <trkpt lat="43.37737" lon="2.3706">
        <ele>496.18</ele>
        <time>2016-08-06T09:45:48Z</time>
      </trkpt>
      <trkpt lat="43.37748" lon="2.37058">
        <ele>495.7</ele>
        <time>2016-08-06T09:46:00Z</time>
      </trkpt>
      <trkpt lat="43.37758" lon="2.37062">
        <ele>497.62</ele>
        <time>2016-08-06T09:46:16Z</time>
      </trkpt>
      <trkpt lat="43.37766" lon="2.37061">
        <ele>500.5</ele>
        <time>2016-08-06T09:46:31Z</time>
      </trkpt>
      <trkpt lat="43.37777" lon="2.37065">
        <ele>503.39</ele>
        <time>2016-08-06T09:46:46Z</time>
      </trkpt>
      <trkpt lat="43.37788" lon="2.37066">
        <ele>505.79</ele>
        <time>2016-08-06T09:47:02Z</time>
      </trkpt>
      <trkpt lat="43.37797" lon="2.37069">
        <ele>506.75</ele>
        <time>2016-08-06T09:47:16Z</time>
      </trkpt>
      <trkpt lat="43.37802" lon="2.37069">
        <ele>508.19</ele>
        <time>2016-08-06T09:47:28Z</time>
      </trkpt>
      <trkpt lat="43.37809" lon="2.3707">
        <ele>510.6</ele>
        <time>2016-08-06T09:47:44Z</time>
      </trkpt>
      <trkpt lat="43.37814" lon="2.3707">
        <ele>512.52</ele>
        <time>2016-08-06T09:48:01Z</time>
      </trkpt>
      <trkpt lat="43.37826" lon="2.37075">
        <ele>515.4</ele>
        <time>2016-08-06T09:48:19Z</time>
      </trkpt>
      <trkpt lat="43.37833" lon="2.37075">
        <ele>517.81</ele>
        <time>2016-08-06T09:48:36Z</time>
      </trkpt>
      <trkpt lat="43.37842" lon="2.37071">
        <ele>520.21</ele>
        <time>2016-08-06T09:48:50Z</time>
      </trkpt>
      <trkpt lat="43.37851" lon="2.3707">
        <ele>521.65</ele>
        <time>2016-08-06T09:49:05Z</time>
      </trkpt>
      <trkpt lat="43.37849" lon="2.37063">
        <ele>521.65</ele>
        <time>2016-08-06T09:49:27Z</time>
      </trkpt>
      <trkpt lat="43.37848" lon="2.37057">
        <ele>522.13</ele>
        <time>2016-08-06T09:49:57Z</time>
      </trkpt>
      <trkpt lat="43.37849" lon="2.37061">
        <ele>521.65</ele>
        <time>2016-08-06T09:50:31Z</time>
      </trkpt>
      <trkpt lat="43.3785" lon="2.37065">
        <ele>521.65</ele>
        <time>2016-08-06T09:50:54Z</time>
      </trkpt>
      <trkpt lat="43.37852" lon="2.37066">
        <ele>521.17</ele>
        <time>2016-08-06T09:51:22Z</time>
      </trkpt>
      <trkpt lat="43.37856" lon="2.37073">
        <ele>523.58</ele>
        <time>2016-08-06T09:51:36Z</time>
      </trkpt>
      <trkpt lat="43.37861" lon="2.37075">
        <ele>526.94</ele>
        <time>2016-08-06T09:51:51Z</time>
      </trkpt>
      <trkpt lat="43.37863" lon="2.37075">
        <ele>528.86</ele>
        <time>2016-08-06T09:52:02Z</time>
      </trkpt>
      <trkpt lat="43.37866" lon="2.37072">
        <ele>528.86</ele>
        <time>2016-08-06T09:52:22Z</time>
      </trkpt>
      <trkpt lat="43.37867" lon="2.37071">
        <ele>528.38</ele>
        <time>2016-08-06T09:52:44Z</time>
      </trkpt>
      <trkpt lat="43.37873" lon="2.37078">
        <ele>529.82</ele>
        <time>2016-08-06T09:53:00Z</time>
      </trkpt>
      <trkpt lat="43.37875" lon="2.37081">
        <ele>532.71</ele>
        <time>2016-08-06T09:53:16Z</time>
      </trkpt>
      <trkpt lat="43.37882" lon="2.37091">
        <ele>535.59</ele>
        <time>2016-08-06T09:53:35Z</time>
      </trkpt>
      <trkpt lat="43.37889" lon="2.37094">
        <ele>537.03</ele>
        <time>2016-08-06T09:53:50Z</time>
      </trkpt>
      <trkpt lat="43.37894" lon="2.37095">
        <ele>538.96</ele>
        <time>2016-08-06T09:54:03Z</time>
      </trkpt>
      <trkpt lat="43.379" lon="2.37099">
        <ele>541.84</ele>
        <time>2016-08-06T09:54:20Z</time>
      </trkpt>
      <trkpt lat="43.37904" lon="2.37093">
        <ele>545.2</ele>
        <time>2016-08-06T09:57:18Z</time>
      </trkpt>
      <trkpt lat="43.37914" lon="2.37104">
        <ele>548.57</ele>
        <time>2016-08-06T09:57:35Z</time>
      </trkpt>
      <trkpt lat="43.37922" lon="2.37108">
        <ele>550.49</ele>
        <time>2016-08-06T09:57:52Z</time>
      </trkpt>
      <trkpt lat="43.37929" lon="2.37112">
        <ele>552.9</ele>
        <time>2016-08-06T09:58:05Z</time>
      </trkpt>
      <trkpt lat="43.37939" lon="2.37111">
        <ele>554.82</ele>
        <time>2016-08-06T09:58:19Z</time>
      </trkpt>
      <trkpt lat="43.37946" lon="2.37116">
        <ele>557.22</ele>
        <time>2016-08-06T09:58:34Z</time>
      </trkpt>
      <trkpt lat="43.37952" lon="2.37119">
        <ele>559.14</ele>
        <time>2016-08-06T09:58:51Z</time>
      </trkpt>
      <trkpt lat="43.37957" lon="2.37123">
        <ele>561.55</ele>
        <time>2016-08-06T09:59:05Z</time>
      </trkpt>
      <trkpt lat="43.37963" lon="2.37127">
        <ele>564.43</ele>
        <time>2016-08-06T09:59:20Z</time>
      </trkpt>
      <trkpt lat="43.37967" lon="2.37129">
        <ele>567.32</ele>
        <time>2016-08-06T10:03:03Z</time>
      </trkpt>
      <trkpt lat="43.37965" lon="2.37129">
        <ele>568.28</ele>
        <time>2016-08-06T10:03:32Z</time>
      </trkpt>
      <trkpt lat="43.37956" lon="2.37128">
        <ele>567.8</ele>
        <time>2016-08-06T10:03:47Z</time>
      </trkpt>
      <trkpt lat="43.37949" lon="2.37133">
        <ele>567.32</ele>
        <time>2016-08-06T10:04:03Z</time>
      </trkpt>
      <trkpt lat="43.3794" lon="2.37136">
        <ele>567.8</ele>
        <time>2016-08-06T10:04:17Z</time>
      </trkpt>
      <trkpt lat="43.3793" lon="2.37139">
        <ele>567.32</ele>
        <time>2016-08-06T10:04:31Z</time>
      </trkpt>
      <trkpt lat="43.37925" lon="2.37139">
        <ele>566.83</ele>
        <time>2016-08-06T10:04:36Z</time>
      </trkpt>
      <trkpt lat="43.37914" lon="2.37146">
        <ele>569.24</ele>
        <time>2016-08-06T10:04:53Z</time>
      </trkpt>
      <trkpt lat="43.37906" lon="2.37152">
        <ele>570.68</ele>
        <time>2016-08-06T10:05:08Z</time>
      </trkpt>
      <trkpt lat="43.37896" lon="2.3716">
        <ele>571.64</ele>
        <time>2016-08-06T10:05:23Z</time>
      </trkpt>
      <trkpt lat="43.37884" lon="2.37168">
        <ele>571.64</ele>
        <time>2016-08-06T10:05:36Z</time>
      </trkpt>
      <trkpt lat="43.37871" lon="2.37177">
        <ele>570.68</ele>
        <time>2016-08-06T10:05:53Z</time>
      </trkpt>
      <trkpt lat="43.3786" lon="2.37183">
        <ele>572.12</ele>
        <time>2016-08-06T10:06:06Z</time>
      </trkpt>
      <trkpt lat="43.37858" lon="2.37184">
        <ele>572.6</ele>
        <time>2016-08-06T10:06:08Z</time>
      </trkpt>
      <trkpt lat="43.37856" lon="2.37184">
        <ele>573.56</ele>
        <time>2016-08-06T10:06:10Z</time>
      </trkpt>
      <trkpt lat="43.37842" lon="2.37194">
        <ele>573.08</ele>
        <time>2016-08-06T10:06:27Z</time>
      </trkpt>
      <trkpt lat="43.37833" lon="2.372">
        <ele>576.45</ele>
        <time>2016-08-06T10:06:39Z</time>
      </trkpt>
      <trkpt lat="43.37822" lon="2.37205">
        <ele>577.89</ele>
        <time>2016-08-06T10:06:53Z</time>
      </trkpt>
      <trkpt lat="43.37815" lon="2.3721">
        <ele>578.85</ele>
        <time>2016-08-06T10:07:07Z</time>
      </trkpt>
      <trkpt lat="43.37802" lon="2.37214">
        <ele>579.33</ele>
        <time>2016-08-06T10:07:21Z</time>
      </trkpt>
      <trkpt lat="43.37796" lon="2.37214">
        <ele>579.81</ele>
        <time>2016-08-06T10:07:27Z</time>
      </trkpt>
      <trkpt lat="43.37785" lon="2.37219">
        <ele>580.77</ele>
        <time>2016-08-06T10:07:40Z</time>
      </trkpt>
      <trkpt lat="43.37776" lon="2.37227">
        <ele>582.22</ele>
        <time>2016-08-06T10:07:54Z</time>
      </trkpt>
      <trkpt lat="43.3777" lon="2.37236">
        <ele>582.22</ele>
        <time>2016-08-06T10:08:08Z</time>
      </trkpt>
      <trkpt lat="43.37768" lon="2.37245">
        <ele>583.18</ele>
        <time>2016-08-06T10:08:21Z</time>
      </trkpt>
      <trkpt lat="43.37768" lon="2.37246">
        <ele>583.66</ele>
        <time>2016-08-06T10:08:44Z</time>
      </trkpt>
      <trkpt lat="43.37765" lon="2.3726">
        <ele>584.14</ele>
        <time>2016-08-06T10:08:58Z</time>
      </trkpt>
      <trkpt lat="43.37763" lon="2.37272">
        <ele>585.1</ele>
        <time>2016-08-06T10:09:11Z</time>
      </trkpt>
      <trkpt lat="43.37762" lon="2.37283">
        <ele>586.06</ele>
        <time>2016-08-06T10:09:24Z</time>
      </trkpt>
      <trkpt lat="43.37761" lon="2.37304">
        <ele>587.5</ele>
        <time>2016-08-06T10:09:42Z</time>
      </trkpt>
      <trkpt lat="43.37763" lon="2.37317">
        <ele>587.98</ele>
        <time>2016-08-06T10:09:58Z</time>
      </trkpt>
      <trkpt lat="43.37763" lon="2.37314">
        <ele>587.98</ele>
        <time>2016-08-06T10:10:26Z</time>
      </trkpt>
      <trkpt lat="43.37766" lon="2.37334">
        <ele>587.98</ele>
        <time>2016-08-06T10:13:04Z</time>
      </trkpt>
      <trkpt lat="43.37772" lon="2.37346">
        <ele>588.46</ele>
        <time>2016-08-06T10:13:16Z</time>
      </trkpt>
      <trkpt lat="43.37784" lon="2.37357">
        <ele>589.43</ele>
        <time>2016-08-06T10:13:30Z</time>
      </trkpt>
      <trkpt lat="43.37786" lon="2.37358">
        <ele>590.39</ele>
        <time>2016-08-06T10:13:32Z</time>
      </trkpt>
      <trkpt lat="43.37789" lon="2.37359">
        <ele>588.95</ele>
        <time>2016-08-06T10:13:35Z</time>
      </trkpt>
      <trkpt lat="43.378" lon="2.37368">
        <ele>587.98</ele>
        <time>2016-08-06T10:13:53Z</time>
      </trkpt>
      <trkpt lat="43.37808" lon="2.37372">
        <ele>588.95</ele>
        <time>2016-08-06T10:14:06Z</time>
      </trkpt>
      <trkpt lat="43.37817" lon="2.37379">
        <ele>590.39</ele>
        <time>2016-08-06T10:14:18Z</time>
      </trkpt>
      <trkpt lat="43.37826" lon="2.37388">
        <ele>588.95</ele>
        <time>2016-08-06T10:14:32Z</time>
      </trkpt>
      <trkpt lat="43.37836" lon="2.37401">
        <ele>589.91</ele>
        <time>2016-08-06T10:14:46Z</time>
      </trkpt>
      <trkpt lat="43.37848" lon="2.37411">
        <ele>588.95</ele>
        <time>2016-08-06T10:15:01Z</time>
      </trkpt>
      <trkpt lat="43.37857" lon="2.37419">
        <ele>589.43</ele>
        <time>2016-08-06T10:15:15Z</time>
      </trkpt>
      <trkpt lat="43.37868" lon="2.37428">
        <ele>587.98</ele>
        <time>2016-08-06T10:15:31Z</time>
      </trkpt>
      <trkpt lat="43.37879" lon="2.37436">
        <ele>587.02</ele>
        <time>2016-08-06T10:15:45Z</time>
      </trkpt>
      <trkpt lat="43.37884" lon="2.37441">
        <ele>587.5</ele>
        <time>2016-08-06T10:15:52Z</time>
      </trkpt>
      <trkpt lat="43.37895" lon="2.37447">
        <ele>587.5</ele>
        <time>2016-08-06T10:16:07Z</time>
      </trkpt>
      <trkpt lat="43.37907" lon="2.37453">
        <ele>587.98</ele>
        <time>2016-08-06T10:16:22Z</time>
      </trkpt>
      <trkpt lat="43.37918" lon="2.37462">
        <ele>589.43</ele>
        <time>2016-08-06T10:16:38Z</time>
      </trkpt>
      <trkpt lat="43.37929" lon="2.37471">
        <ele>587.98</ele>
        <time>2016-08-06T10:16:52Z</time>
      </trkpt>
      <trkpt lat="43.37942" lon="2.37482">
        <ele>588.95</ele>
        <time>2016-08-06T10:17:08Z</time>
      </trkpt>
      <trkpt lat="43.37953" lon="2.37492">
        <ele>588.95</ele>
        <time>2016-08-06T10:17:24Z</time>
      </trkpt>
      <trkpt lat="43.37963" lon="2.37497">
        <ele>589.91</ele>
        <time>2016-08-06T10:17:37Z</time>
      </trkpt>
      <trkpt lat="43.37972" lon="2.37503">
        <ele>590.87</ele>
        <time>2016-08-06T10:17:49Z</time>
      </trkpt>
      <trkpt lat="43.37978" lon="2.37509">
        <ele>591.35</ele>
        <time>2016-08-06T10:18:00Z</time>
      </trkpt>
      <trkpt lat="43.37987" lon="2.37521">
        <ele>591.83</ele>
        <time>2016-08-06T10:18:15Z</time>
      </trkpt>
      <trkpt lat="43.37996" lon="2.37528">
        <ele>593.27</ele>
        <time>2016-08-06T10:18:28Z</time>
      </trkpt>
      <trkpt lat="43.38007" lon="2.37538">
        <ele>592.31</ele>
        <time>2016-08-06T10:18:43Z</time>
      </trkpt>
      <trkpt lat="43.38016" lon="2.37552">
        <ele>592.31</ele>
        <time>2016-08-06T10:18:57Z</time>
      </trkpt>
      <trkpt lat="43.38026" lon="2.37562">
        <ele>591.83</ele>
        <time>2016-08-06T10:19:12Z</time>
      </trkpt>
      <trkpt lat="43.38038" lon="2.37574">
        <ele>591.83</ele>
        <time>2016-08-06T10:19:27Z</time>
      </trkpt>
      <trkpt lat="43.38045" lon="2.37577">
        <ele>591.83</ele>
        <time>2016-08-06T10:19:34Z</time>
      </trkpt>
      <trkpt lat="43.38053" lon="2.37591">
        <ele>591.83</ele>
        <time>2016-08-06T10:19:48Z</time>
      </trkpt>
      <trkpt lat="43.38064" lon="2.37598">
        <ele>590.87</ele>
        <time>2016-08-06T10:20:04Z</time>
      </trkpt>
      <trkpt lat="43.38076" lon="2.37603">
        <ele>591.83</ele>
        <time>2016-08-06T10:20:17Z</time>
      </trkpt>
      <trkpt lat="43.38079" lon="2.37607">
        <ele>590.87</ele>
        <time>2016-08-06T10:20:34Z</time>
      </trkpt>
      <trkpt lat="43.38078" lon="2.37607">
        <ele>590.39</ele>
        <time>2016-08-06T10:20:39Z</time>
      </trkpt>
      <trkpt lat="43.38073" lon="2.37615">
        <ele>589.91</ele>
        <time>2016-08-06T10:20:54Z</time>
      </trkpt>
      <trkpt lat="43.38066" lon="2.37635">
        <ele>590.39</ele>
        <time>2016-08-06T10:21:11Z</time>
      </trkpt>
      <trkpt lat="43.3806" lon="2.3765">
        <ele>591.35</ele>
        <time>2016-08-06T10:21:27Z</time>
      </trkpt>
      <trkpt lat="43.38057" lon="2.37664">
        <ele>591.83</ele>
        <time>2016-08-06T10:21:42Z</time>
      </trkpt>
      <trkpt lat="43.38052" lon="2.37683">
        <ele>592.31</ele>
        <time>2016-08-06T10:21:59Z</time>
      </trkpt>
      <trkpt lat="43.38044" lon="2.37697">
        <ele>591.35</ele>
        <time>2016-08-06T10:22:14Z</time>
      </trkpt>
      <trkpt lat="43.3804" lon="2.37709">
        <ele>592.31</ele>
        <time>2016-08-06T10:22:29Z</time>
      </trkpt>
      <trkpt lat="43.38031" lon="2.37725">
        <ele>593.27</ele>
        <time>2016-08-06T10:22:46Z</time>
      </trkpt>
      <trkpt lat="43.38026" lon="2.3774">
        <ele>594.71</ele>
        <time>2016-08-06T10:23:00Z</time>
      </trkpt>
      <trkpt lat="43.3802" lon="2.37754">
        <ele>595.19</ele>
        <time>2016-08-06T10:23:16Z</time>
      </trkpt>
      <trkpt lat="43.38016" lon="2.37762">
        <ele>595.19</ele>
        <time>2016-08-06T10:23:30Z</time>
      </trkpt>
      <trkpt lat="43.38008" lon="2.37782">
        <ele>595.67</ele>
        <time>2016-08-06T10:23:47Z</time>
      </trkpt>
      <trkpt lat="43.38002" lon="2.37798">
        <ele>595.67</ele>
        <time>2016-08-06T10:24:01Z</time>
      </trkpt>
      <trkpt lat="43.37997" lon="2.37818">
        <ele>596.15</ele>
        <time>2016-08-06T10:24:20Z</time>
      </trkpt>
      <trkpt lat="43.37997" lon="2.37837">
        <ele>597.12</ele>
        <time>2016-08-06T10:24:37Z</time>
      </trkpt>
      <trkpt lat="43.38001" lon="2.37854">
        <ele>597.6</ele>
        <time>2016-08-06T10:24:52Z</time>
      </trkpt>
      <trkpt lat="43.38011" lon="2.3785">
        <ele>599.52</ele>
        <time>2016-08-06T10:25:11Z</time>
      </trkpt>
      <trkpt lat="43.38016" lon="2.37838">
        <ele>600.48</ele>
        <time>2016-08-06T10:25:29Z</time>
      </trkpt>
      <trkpt lat="43.38018" lon="2.37829">
        <ele>601.92</ele>
        <time>2016-08-06T10:25:52Z</time>
      </trkpt>
      <trkpt lat="43.38025" lon="2.37816">
        <ele>603.36</ele>
        <time>2016-08-06T10:26:08Z</time>
      </trkpt>
      <trkpt lat="43.38034" lon="2.37808">
        <ele>605.29</ele>
        <time>2016-08-06T10:26:26Z</time>
      </trkpt>
      <trkpt lat="43.38041" lon="2.37804">
        <ele>607.21</ele>
        <time>2016-08-06T10:26:41Z</time>
      </trkpt>
      <trkpt lat="43.3805" lon="2.37798">
        <ele>609.61</ele>
        <time>2016-08-06T10:26:59Z</time>
      </trkpt>
      <trkpt lat="43.38057" lon="2.37795">
        <ele>612.02</ele>
        <time>2016-08-06T10:27:13Z</time>
      </trkpt>
      <trkpt lat="43.38065" lon="2.37791">
        <ele>614.42</ele>
        <time>2016-08-06T10:27:28Z</time>
      </trkpt>
      <trkpt lat="43.38073" lon="2.37789">
        <ele>616.82</ele>
        <time>2016-08-06T10:27:44Z</time>
      </trkpt>
      <trkpt lat="43.38079" lon="2.37785">
        <ele>619.23</ele>
        <time>2016-08-06T10:28:04Z</time>
      </trkpt>
      <trkpt lat="43.38088" lon="2.3778">
        <ele>621.63</ele>
        <time>2016-08-06T10:28:22Z</time>
      </trkpt>
      <trkpt lat="43.38097" lon="2.37773">
        <ele>623.07</ele>
        <time>2016-08-06T10:28:39Z</time>
      </trkpt>
      <trkpt lat="43.38104" lon="2.3776">
        <ele>624.99</ele>
        <time>2016-08-06T10:28:57Z</time>
      </trkpt>
      <trkpt lat="43.38112" lon="2.37746">
        <ele>626.92</ele>
        <time>2016-08-06T10:29:12Z</time>
      </trkpt>
      <trkpt lat="43.38122" lon="2.37735">
        <ele>628.36</ele>
        <time>2016-08-06T10:29:26Z</time>
      </trkpt>
      <trkpt lat="43.38129" lon="2.37723">
        <ele>631.24</ele>
        <time>2016-08-06T10:29:41Z</time>
      </trkpt>
      <trkpt lat="43.38137" lon="2.37713">
        <ele>632.2</ele>
        <time>2016-08-06T10:29:56Z</time>
      </trkpt>
      <trkpt lat="43.38143" lon="2.37699">
        <ele>634.13</ele>
        <time>2016-08-06T10:30:13Z</time>
      </trkpt>
      <trkpt lat="43.38152" lon="2.37685">
        <ele>634.61</ele>
        <time>2016-08-06T10:30:30Z</time>
      </trkpt>
      <trkpt lat="43.38156" lon="2.37679">
        <ele>637.49</ele>
        <time>2016-08-06T10:30:41Z</time>
      </trkpt>
      <trkpt lat="43.38164" lon="2.37664">
        <ele>638.45</ele>
        <time>2016-08-06T10:31:00Z</time>
      </trkpt>
      <trkpt lat="43.38174" lon="2.37641">
        <ele>639.41</ele>
        <time>2016-08-06T10:31:22Z</time>
      </trkpt>
      <trkpt lat="43.38174" lon="2.37633">
        <ele>641.34</ele>
        <time>2016-08-06T10:31:30Z</time>
      </trkpt>
      <trkpt lat="43.38174" lon="2.37615">
        <ele>642.78</ele>
        <time>2016-08-06T10:31:49Z</time>
      </trkpt>
      <trkpt lat="43.38173" lon="2.37592">
        <ele>643.26</ele>
        <time>2016-08-06T10:32:09Z</time>
      </trkpt>
      <trkpt lat="43.3817" lon="2.3757">
        <ele>644.7</ele>
        <time>2016-08-06T10:32:29Z</time>
      </trkpt>
      <trkpt lat="43.38168" lon="2.37553">
        <ele>646.14</ele>
        <time>2016-08-06T10:32:46Z</time>
      </trkpt>
      <trkpt lat="43.38167" lon="2.3753">
        <ele>647.1</ele>
        <time>2016-08-06T10:33:05Z</time>
      </trkpt>
      <trkpt lat="43.38163" lon="2.37507">
        <ele>649.03</ele>
        <time>2016-08-06T10:33:26Z</time>
      </trkpt>
      <trkpt lat="43.38161" lon="2.37493">
        <ele>650.95</ele>
        <time>2016-08-06T10:33:42Z</time>
      </trkpt>
      <trkpt lat="43.38159" lon="2.37476">
        <ele>652.87</ele>
        <time>2016-08-06T10:34:00Z</time>
      </trkpt>
      <trkpt lat="43.38152" lon="2.37453">
        <ele>653.83</ele>
        <time>2016-08-06T10:34:20Z</time>
      </trkpt>
      <trkpt lat="43.38142" lon="2.37443">
        <ele>653.83</ele>
        <time>2016-08-06T10:34:41Z</time>
      </trkpt>
      <trkpt lat="43.38133" lon="2.37432">
        <ele>655.28</ele>
        <time>2016-08-06T10:34:58Z</time>
      </trkpt>
      <trkpt lat="43.38122" lon="2.37423">
        <ele>657.2</ele>
        <time>2016-08-06T10:35:14Z</time>
      </trkpt>
      <trkpt lat="43.38116" lon="2.37413">
        <ele>657.68</ele>
        <time>2016-08-06T10:35:30Z</time>
      </trkpt>
      <trkpt lat="43.38108" lon="2.37403">
        <ele>658.64</ele>
        <time>2016-08-06T10:35:46Z</time>
      </trkpt>
      <trkpt lat="43.38101" lon="2.37394">
        <ele>661.04</ele>
        <time>2016-08-06T10:36:02Z</time>
      </trkpt>
      <trkpt lat="43.381" lon="2.37393">
        <ele>660.56</ele>
        <time>2016-08-06T10:36:03Z</time>
      </trkpt>
      <trkpt lat="43.38092" lon="2.37378">
        <ele>662.49</ele>
        <time>2016-08-06T10:36:20Z</time>
      </trkpt>
      <trkpt lat="43.3809" lon="2.37364">
        <ele>665.37</ele>
        <time>2016-08-06T10:36:37Z</time>
      </trkpt>
      <trkpt lat="43.38096" lon="2.37356">
        <ele>665.37</ele>
        <time>2016-08-06T10:36:53Z</time>
      </trkpt>
      <trkpt lat="43.38107" lon="2.37354">
        <ele>665.37</ele>
        <time>2016-08-06T10:37:09Z</time>
      </trkpt>
      <trkpt lat="43.3812" lon="2.37347">
        <ele>666.33</ele>
        <time>2016-08-06T10:37:26Z</time>
      </trkpt>
      <trkpt lat="43.38132" lon="2.37339">
        <ele>666.81</ele>
        <time>2016-08-06T10:37:41Z</time>
      </trkpt>
      <trkpt lat="43.38143" lon="2.37326">
        <ele>665.85</ele>
        <time>2016-08-06T10:37:58Z</time>
      </trkpt>
      <trkpt lat="43.38155" lon="2.37317">
        <ele>667.29</ele>
        <time>2016-08-06T10:38:13Z</time>
      </trkpt>
      <trkpt lat="43.38164" lon="2.37308">
        <ele>668.25</ele>
        <time>2016-08-06T10:38:27Z</time>
      </trkpt>
      <trkpt lat="43.38175" lon="2.37296">
        <ele>667.29</ele>
        <time>2016-08-06T10:38:43Z</time>
      </trkpt>
      <trkpt lat="43.38187" lon="2.37287">
        <ele>667.77</ele>
        <time>2016-08-06T10:38:58Z</time>
      </trkpt>
      <trkpt lat="43.38197" lon="2.37278">
        <ele>668.25</ele>
        <time>2016-08-06T10:39:13Z</time>
      </trkpt>
      <trkpt lat="43.3821" lon="2.37268">
        <ele>668.25</ele>
        <time>2016-08-06T10:39:30Z</time>
      </trkpt>
      <trkpt lat="43.38226" lon="2.37255">
        <ele>669.22</ele>
        <time>2016-08-06T10:39:49Z</time>
      </trkpt>
      <trkpt lat="43.38236" lon="2.37247">
        <ele>669.22</ele>
        <time>2016-08-06T10:40:06Z</time>
      </trkpt>
      <trkpt lat="43.38246" lon="2.37233">
        <ele>671.14</ele>
        <time>2016-08-06T10:40:26Z</time>
      </trkpt>
      <trkpt lat="43.38263" lon="2.37224">
        <ele>670.18</ele>
        <time>2016-08-06T10:40:47Z</time>
      </trkpt>
      <trkpt lat="43.38265" lon="2.37221">
        <ele>672.1</ele>
        <time>2016-08-06T10:40:51Z</time>
      </trkpt>
      <trkpt lat="43.38282" lon="2.37218">
        <ele>672.1</ele>
        <time>2016-08-06T10:41:09Z</time>
      </trkpt>
      <trkpt lat="43.38293" lon="2.37211">
        <ele>674.5</ele>
        <time>2016-08-06T10:41:28Z</time>
      </trkpt>
      <trkpt lat="43.38309" lon="2.37208">
        <ele>674.98</ele>
        <time>2016-08-06T10:41:47Z</time>
      </trkpt>
      <trkpt lat="43.3832" lon="2.37201">
        <ele>673.54</ele>
        <time>2016-08-06T10:42:03Z</time>
      </trkpt>
      <trkpt lat="43.38335" lon="2.37196">
        <ele>674.02</ele>
        <time>2016-08-06T10:42:19Z</time>
      </trkpt>
      <trkpt lat="43.38348" lon="2.37189">
        <ele>674.98</ele>
        <time>2016-08-06T10:42:37Z</time>
      </trkpt>
      <trkpt lat="43.38362" lon="2.37182">
        <ele>675.46</ele>
        <time>2016-08-06T10:42:55Z</time>
      </trkpt>
      <trkpt lat="43.38374" lon="2.37168">
        <ele>674.5</ele>
        <time>2016-08-06T10:43:12Z</time>
      </trkpt>
      <trkpt lat="43.3838" lon="2.37164">
        <ele>675.46</ele>
        <time>2016-08-06T10:43:22Z</time>
      </trkpt>
      <trkpt lat="43.38393" lon="2.37162">
        <ele>678.35</ele>
        <time>2016-08-06T10:43:39Z</time>
      </trkpt>
      <trkpt lat="43.38401" lon="2.37151">
        <ele>677.87</ele>
        <time>2016-08-06T10:43:56Z</time>
      </trkpt>
      <trkpt lat="43.38401" lon="2.37141">
        <ele>677.87</ele>
        <time>2016-08-06T10:44:22Z</time>
      </trkpt>
      <trkpt lat="43.384" lon="2.37128">
        <ele>680.75</ele>
        <time>2016-08-06T10:44:38Z</time>
      </trkpt>
      <trkpt lat="43.38399" lon="2.3712">
        <ele>684.12</ele>
        <time>2016-08-06T10:51:37Z</time>
      </trkpt>
      <trkpt lat="43.38397" lon="2.37118">
        <ele>685.08</ele>
        <time>2016-08-06T10:52:07Z</time>
      </trkpt>
      <trkpt lat="43.38395" lon="2.37118">
        <ele>684.6</ele>
        <time>2016-08-06T10:52:34Z</time>
      </trkpt>
      <trkpt lat="43.38396" lon="2.37114">
        <ele>684.12</ele>
        <time>2016-08-06T10:52:54Z</time>
      </trkpt>
      <trkpt lat="43.38397" lon="2.37112">
        <ele>684.6</ele>
        <time>2016-08-06T10:53:27Z</time>
      </trkpt>
      <trkpt lat="43.38398" lon="2.3711">
        <ele>686.04</ele>
        <time>2016-08-06T10:53:45Z</time>
      </trkpt>
      <trkpt lat="43.38399" lon="2.37097">
        <ele>687.48</ele>
        <time>2016-08-06T10:54:01Z</time>
      </trkpt>
      <trkpt lat="43.38399" lon="2.37091">
        <ele>689.88</ele>
        <time>2016-08-06T10:54:14Z</time>
      </trkpt>
      <trkpt lat="43.384" lon="2.3708">
        <ele>690.84</ele>
        <time>2016-08-06T10:54:28Z</time>
      </trkpt>
      <trkpt lat="43.38394" lon="2.37064">
        <ele>692.29</ele>
        <time>2016-08-06T10:54:46Z</time>
      </trkpt>
      <trkpt lat="43.38388" lon="2.37057">
        <ele>691.81</ele>
        <time>2016-08-06T10:55:00Z</time>
      </trkpt>
      <trkpt lat="43.38384" lon="2.37048">
        <ele>692.77</ele>
        <time>2016-08-06T10:55:15Z</time>
      </trkpt>
      <trkpt lat="43.38381" lon="2.37042">
        <ele>692.77</ele>
        <time>2016-08-06T10:55:32Z</time>
      </trkpt>
      <trkpt lat="43.38377" lon="2.37029">
        <ele>693.25</ele>
        <time>2016-08-06T10:55:48Z</time>
      </trkpt>
      <trkpt lat="43.38371" lon="2.37019">
        <ele>694.69</ele>
        <time>2016-08-06T10:56:04Z</time>
      </trkpt>
      <trkpt lat="43.38368" lon="2.37005">
        <ele>697.57</ele>
        <time>2016-08-06T10:56:23Z</time>
      </trkpt>
      <trkpt lat="43.38367" lon="2.36995">
        <ele>698.05</ele>
        <time>2016-08-06T10:56:41Z</time>
      </trkpt>
      <trkpt lat="43.38366" lon="2.36992">
        <ele>699.5</ele>
        <time>2016-08-06T10:57:01Z</time>
      </trkpt>
      <trkpt lat="43.3836" lon="2.36977">
        <ele>700.94</ele>
        <time>2016-08-06T10:57:17Z</time>
      </trkpt>
      <trkpt lat="43.38358" lon="2.36963">
        <ele>703.34</ele>
        <time>2016-08-06T10:57:35Z</time>
      </trkpt>
      <trkpt lat="43.38354" lon="2.36951">
        <ele>706.71</ele>
        <time>2016-08-06T10:57:50Z</time>
      </trkpt>
      <trkpt lat="43.38345" lon="2.36932">
        <ele>707.19</ele>
        <time>2016-08-06T10:58:06Z</time>
      </trkpt>
      <trkpt lat="43.3834" lon="2.36923">
        <ele>707.67</ele>
        <time>2016-08-06T10:58:19Z</time>
      </trkpt>
      <trkpt lat="43.38329" lon="2.36905">
        <ele>707.19</ele>
        <time>2016-08-06T10:58:37Z</time>
      </trkpt>
      <trkpt lat="43.38326" lon="2.36898">
        <ele>705.75</ele>
        <time>2016-08-06T10:58:43Z</time>
      </trkpt>
      <trkpt lat="43.38325" lon="2.36892">
        <ele>707.67</ele>
        <time>2016-08-06T10:58:57Z</time>
      </trkpt>
      <trkpt lat="43.38326" lon="2.36887">
        <ele>708.15</ele>
        <time>2016-08-06T10:59:09Z</time>
      </trkpt>
      <trkpt lat="43.38325" lon="2.36884">
        <ele>708.63</ele>
        <time>2016-08-06T10:59:23Z</time>
      </trkpt>
      <trkpt lat="43.38333" lon="2.36883">
        <ele>710.55</ele>
        <time>2016-08-06T10:59:36Z</time>
      </trkpt>
      <trkpt lat="43.38333" lon="2.36884">
        <ele>711.99</ele>
        <time>2016-08-06T10:59:38Z</time>
      </trkpt>
      <trkpt lat="43.38339" lon="2.3689">
        <ele>713.92</ele>
        <time>2016-08-06T10:59:52Z</time>
      </trkpt>
      <trkpt lat="43.38342" lon="2.36893">
        <ele>714.88</ele>
        <time>2016-08-06T10:59:58Z</time>
      </trkpt>
      <trkpt lat="43.38343" lon="2.36893">
        <ele>713.92</ele>
        <time>2016-08-06T11:00:00Z</time>
      </trkpt>
      <trkpt lat="43.38352" lon="2.36889">
        <ele>717.28</ele>
        <time>2016-08-06T11:00:12Z</time>
      </trkpt>
      <trkpt lat="43.38353" lon="2.36888">
        <ele>718.72</ele>
        <time>2016-08-06T11:00:15Z</time>
      </trkpt>
      <trkpt lat="43.38354" lon="2.36883">
        <ele>720.16</ele>
        <time>2016-08-06T11:00:24Z</time>
      </trkpt>
      <trkpt lat="43.38354" lon="2.36883">
        <ele>717.76</ele>
        <time>2016-08-06T11:00:29Z</time>
      </trkpt>
      <trkpt lat="43.38354" lon="2.36883">
        <ele>717.76</ele>
        <time>2016-08-06T11:00:39Z</time>
      </trkpt>
      <trkpt lat="43.38354" lon="2.36882">
        <ele>720.16</ele>
        <time>2016-08-06T11:00:42Z</time>
      </trkpt>
      <trkpt lat="43.38354" lon="2.3688">
        <ele>722.57</ele>
        <time>2016-08-06T11:00:58Z</time>
      </trkpt>
      <trkpt lat="43.38354" lon="2.36887">
        <ele>719.68</ele>
        <time>2016-08-06T11:01:08Z</time>
      </trkpt>
      <trkpt lat="43.38357" lon="2.36891">
        <ele>719.68</ele>
        <time>2016-08-06T11:01:17Z</time>
      </trkpt>
      <trkpt lat="43.38366" lon="2.36898">
        <ele>720.65</ele>
        <time>2016-08-06T11:01:31Z</time>
      </trkpt>
      <trkpt lat="43.38376" lon="2.36904">
        <ele>720.16</ele>
        <time>2016-08-06T11:01:45Z</time>
      </trkpt>
      <trkpt lat="43.38377" lon="2.36905">
        <ele>720.16</ele>
        <time>2016-08-06T11:01:47Z</time>
      </trkpt>
      <trkpt lat="43.38385" lon="2.36912">
        <ele>721.61</ele>
        <time>2016-08-06T11:02:00Z</time>
      </trkpt>
      <trkpt lat="43.38393" lon="2.3692">
        <ele>724.01</ele>
        <time>2016-08-06T11:02:14Z</time>
      </trkpt>
      <trkpt lat="43.38396" lon="2.36921">
        <ele>723.53</ele>
        <time>2016-08-06T11:02:27Z</time>
      </trkpt>
      <trkpt lat="43.38396" lon="2.36924">
        <ele>724.01</ele>
        <time>2016-08-06T11:02:49Z</time>
      </trkpt>
      <trkpt lat="43.38398" lon="2.36925">
        <ele>724.49</ele>
        <time>2016-08-06T11:03:06Z</time>
      </trkpt>
      <trkpt lat="43.38403" lon="2.36928">
        <ele>724.97</ele>
        <time>2016-08-06T11:03:24Z</time>
      </trkpt>
      <trkpt lat="43.38407" lon="2.36932">
        <ele>726.41</ele>
        <time>2016-08-06T11:03:39Z</time>
      </trkpt>
      <trkpt lat="43.38412" lon="2.36937">
        <ele>729.78</ele>
        <time>2016-08-06T11:03:47Z</time>
      </trkpt>
      <trkpt lat="43.38413" lon="2.36939">
        <ele>727.86</ele>
        <time>2016-08-06T11:03:50Z</time>
      </trkpt>
      <trkpt lat="43.38419" lon="2.36942">
        <ele>731.22</ele>
        <time>2016-08-06T11:03:57Z</time>
      </trkpt>
      <trkpt lat="43.38422" lon="2.36946">
        <ele>731.7</ele>
        <time>2016-08-06T11:04:11Z</time>
      </trkpt>
      <trkpt lat="43.38425" lon="2.36948">
        <ele>732.18</ele>
        <time>2016-08-06T11:04:32Z</time>
      </trkpt>
      <trkpt lat="43.38427" lon="2.36949">
        <ele>732.66</ele>
        <time>2016-08-06T11:04:38Z</time>
      </trkpt>
      <trkpt lat="43.38432" lon="2.3695">
        <ele>732.18</ele>
        <time>2016-08-06T11:04:53Z</time>
      </trkpt>
      <trkpt lat="43.38439" lon="2.36949">
        <ele>734.58</ele>
        <time>2016-08-06T11:05:02Z</time>
      </trkpt>
      <trkpt lat="43.38445" lon="2.36952">
        <ele>736.51</ele>
        <time>2016-08-06T11:05:10Z</time>
      </trkpt>
      <trkpt lat="43.38456" lon="2.36956">
        <ele>737.95</ele>
        <time>2016-08-06T11:05:23Z</time>
      </trkpt>
      <trkpt lat="43.3846" lon="2.36958">
        <ele>739.39</ele>
        <time>2016-08-06T11:05:29Z</time>
      </trkpt>
      <trkpt lat="43.38471" lon="2.36962">
        <ele>740.35</ele>
        <time>2016-08-06T11:05:43Z</time>
      </trkpt>
      <trkpt lat="43.3848" lon="2.36963">
        <ele>742.76</ele>
        <time>2016-08-06T11:05:56Z</time>
      </trkpt>
      <trkpt lat="43.38487" lon="2.36967">
        <ele>743.72</ele>
        <time>2016-08-06T11:06:08Z</time>
      </trkpt>
      <trkpt lat="43.38492" lon="2.36971">
        <ele>745.64</ele>
        <time>2016-08-06T11:06:20Z</time>
      </trkpt>
      <trkpt lat="43.38497" lon="2.36978">
        <ele>746.6</ele>
        <time>2016-08-06T11:06:32Z</time>
      </trkpt>
      <trkpt lat="43.38504" lon="2.36983">
        <ele>747.56</ele>
        <time>2016-08-06T11:06:44Z</time>
      </trkpt>
      <trkpt lat="43.38508" lon="2.36982">
        <ele>749</ele>
        <time>2016-08-06T11:06:59Z</time>
      </trkpt>
      <trkpt lat="43.38511" lon="2.36983">
        <ele>749.97</ele>
        <time>2016-08-06T11:07:15Z</time>
      </trkpt>
      <trkpt lat="43.38521" lon="2.36983">
        <ele>751.41</ele>
        <time>2016-08-06T11:07:29Z</time>
      </trkpt>
      <trkpt lat="43.38523" lon="2.36982">
        <ele>753.33</ele>
        <time>2016-08-06T11:07:33Z</time>
      </trkpt>
      <trkpt lat="43.38533" lon="2.36978">
        <ele>754.29</ele>
        <time>2016-08-06T11:07:49Z</time>
      </trkpt>
      <trkpt lat="43.38533" lon="2.36979">
        <ele>753.81</ele>
        <time>2016-08-06T11:08:09Z</time>
      </trkpt>
      <trkpt lat="43.3854" lon="2.36975">
        <ele>755.73</ele>
        <time>2016-08-06T11:08:30Z</time>
      </trkpt>
      <trkpt lat="43.38545" lon="2.36974">
        <ele>759.1</ele>
        <time>2016-08-06T11:08:37Z</time>
      </trkpt>
      <trkpt lat="43.38546" lon="2.36974">
        <ele>759.1</ele>
        <time>2016-08-06T11:08:38Z</time>
      </trkpt>
      <trkpt lat="43.38547" lon="2.36968">
        <ele>758.62</ele>
        <time>2016-08-06T11:08:51Z</time>
      </trkpt>
      <trkpt lat="43.38547" lon="2.36967">
        <ele>757.18</ele>
        <time>2016-08-06T11:08:54Z</time>
      </trkpt>
      <trkpt lat="43.38547" lon="2.36966">
        <ele>758.14</ele>
        <time>2016-08-06T11:09:13Z</time>
      </trkpt>
      <trkpt lat="43.38547" lon="2.36965">
        <ele>757.66</ele>
        <time>2016-08-06T11:09:32Z</time>
      </trkpt>
      <trkpt lat="43.38549" lon="2.36969">
        <ele>758.62</ele>
        <time>2016-08-06T11:09:55Z</time>
      </trkpt>
      <trkpt lat="43.38552" lon="2.36973">
        <ele>759.58</ele>
        <time>2016-08-06T11:10:16Z</time>
      </trkpt>
      <trkpt lat="43.38563" lon="2.3698">
        <ele>761.5</ele>
        <time>2016-08-06T11:10:30Z</time>
      </trkpt>
      <trkpt lat="43.38568" lon="2.36989">
        <ele>763.42</ele>
        <time>2016-08-06T11:10:43Z</time>
      </trkpt>
      <trkpt lat="43.38571" lon="2.37001">
        <ele>765.35</ele>
        <time>2016-08-06T11:10:57Z</time>
      </trkpt>
      <trkpt lat="43.38571" lon="2.37002">
        <ele>766.31</ele>
        <time>2016-08-06T11:10:59Z</time>
      </trkpt>
      <trkpt lat="43.38576" lon="2.37014">
        <ele>767.75</ele>
        <time>2016-08-06T11:11:11Z</time>
      </trkpt>
      <trkpt lat="43.38585" lon="2.37022">
        <ele>766.79</ele>
        <time>2016-08-06T11:11:24Z</time>
      </trkpt>
      <trkpt lat="43.38592" lon="2.37027">
        <ele>766.31</ele>
        <time>2016-08-06T11:11:36Z</time>
      </trkpt>
      <trkpt lat="43.38603" lon="2.37035">
        <ele>766.79</ele>
        <time>2016-08-06T11:11:49Z</time>
      </trkpt>
      <trkpt lat="43.38607" lon="2.37039">
        <ele>767.75</ele>
        <time>2016-08-06T11:11:54Z</time>
      </trkpt>
      <trkpt lat="43.38617" lon="2.37053">
        <ele>766.79</ele>
        <time>2016-08-06T11:12:10Z</time>
      </trkpt>
      <trkpt lat="43.38622" lon="2.37058">
        <ele>766.79</ele>
        <time>2016-08-06T11:12:17Z</time>
      </trkpt>
      <trkpt lat="43.38634" lon="2.37073">
        <ele>767.27</ele>
        <time>2016-08-06T11:12:34Z</time>
      </trkpt>
      <trkpt lat="43.38645" lon="2.37086">
        <ele>768.23</ele>
        <time>2016-08-06T11:12:48Z</time>
      </trkpt>
      <trkpt lat="43.3866" lon="2.37092">
        <ele>768.71</ele>
        <time>2016-08-06T11:13:03Z</time>
      </trkpt>
      <trkpt lat="43.38664" lon="2.37093">
        <ele>768.23</ele>
        <time>2016-08-06T11:13:21Z</time>
      </trkpt>
      <trkpt lat="43.38676" lon="2.37087">
        <ele>768.71</ele>
        <time>2016-08-06T11:13:38Z</time>
      </trkpt>
      <trkpt lat="43.38678" lon="2.37086">
        <ele>770.15</ele>
        <time>2016-08-06T11:13:41Z</time>
      </trkpt>
      <trkpt lat="43.38688" lon="2.37087">
        <ele>771.11</ele>
        <time>2016-08-06T11:13:55Z</time>
      </trkpt>
      <trkpt lat="43.38697" lon="2.37092">
        <ele>774</ele>
        <time>2016-08-06T11:14:09Z</time>
      </trkpt>
      <trkpt lat="43.38703" lon="2.37108">
        <ele>775.44</ele>
        <time>2016-08-06T11:14:22Z</time>
      </trkpt>
      <trkpt lat="43.38712" lon="2.37122">
        <ele>776.88</ele>
        <time>2016-08-06T11:14:37Z</time>
      </trkpt>
      <trkpt lat="43.38719" lon="2.37134">
        <ele>778.32</ele>
        <time>2016-08-06T11:14:51Z</time>
      </trkpt>
      <trkpt lat="43.38727" lon="2.37146">
        <ele>779.77</ele>
        <time>2016-08-06T11:15:04Z</time>
      </trkpt>
      <trkpt lat="43.38732" lon="2.37152">
        <ele>780.25</ele>
        <time>2016-08-06T11:15:12Z</time>
      </trkpt>
      <trkpt lat="43.3874" lon="2.37157">
        <ele>783.61</ele>
        <time>2016-08-06T11:15:24Z</time>
      </trkpt>
      <trkpt lat="43.38749" lon="2.37158">
        <ele>784.57</ele>
        <time>2016-08-06T11:15:38Z</time>
      </trkpt>
      <trkpt lat="43.38756" lon="2.37165">
        <ele>785.53</ele>
        <time>2016-08-06T11:15:53Z</time>
      </trkpt>
      <trkpt lat="43.38765" lon="2.37181">
        <ele>788.42</ele>
        <time>2016-08-06T11:16:11Z</time>
      </trkpt>
      <trkpt lat="43.38771" lon="2.37192">
        <ele>789.38</ele>
        <time>2016-08-06T11:16:24Z</time>
      </trkpt>
      <trkpt lat="43.38772" lon="2.37196">
        <ele>789.38</ele>
        <time>2016-08-06T11:16:28Z</time>
      </trkpt>
      <trkpt lat="43.3877" lon="2.37207">
        <ele>788.9</ele>
        <time>2016-08-06T11:16:44Z</time>
      </trkpt>
      <trkpt lat="43.38775" lon="2.37223">
        <ele>787.94</ele>
        <time>2016-08-06T11:17:00Z</time>
      </trkpt>
      <trkpt lat="43.38784" lon="2.37228">
        <ele>787.46</ele>
        <time>2016-08-06T11:17:15Z</time>
      </trkpt>
      <trkpt lat="43.38783" lon="2.37235">
        <ele>786.5</ele>
        <time>2016-08-06T11:17:32Z</time>
      </trkpt>
      <trkpt lat="43.38774" lon="2.37243">
        <ele>784.57</ele>
        <time>2016-08-06T11:17:47Z</time>
      </trkpt>
      <trkpt lat="43.38769" lon="2.37246">
        <ele>784.57</ele>
        <time>2016-08-06T11:17:51Z</time>
      </trkpt>
      <trkpt lat="43.38756" lon="2.37255">
        <ele>783.61</ele>
        <time>2016-08-06T11:18:07Z</time>
      </trkpt>
      <trkpt lat="43.38754" lon="2.37257">
        <ele>784.09</ele>
        <time>2016-08-06T11:18:20Z</time>
      </trkpt>
      <trkpt lat="43.38752" lon="2.37259">
        <ele>784.09</ele>
        <time>2016-08-06T11:18:28Z</time>
      </trkpt>
      <trkpt lat="43.38743" lon="2.37273">
        <ele>785.05</ele>
        <time>2016-08-06T11:18:44Z</time>
      </trkpt>
      <trkpt lat="43.38734" lon="2.37296">
        <ele>784.57</ele>
        <time>2016-08-06T11:19:00Z</time>
      </trkpt>
      <trkpt lat="43.38727" lon="2.37305">
        <ele>785.05</ele>
        <time>2016-08-06T11:19:15Z</time>
      </trkpt>
      <trkpt lat="43.38714" lon="2.37323">
        <ele>784.09</ele>
        <time>2016-08-06T11:19:31Z</time>
      </trkpt>
      <trkpt lat="43.38704" lon="2.37338">
        <ele>784.57</ele>
        <time>2016-08-06T11:19:45Z</time>
      </trkpt>
      <trkpt lat="43.38695" lon="2.37351">
        <ele>783.61</ele>
        <time>2016-08-06T11:19:59Z</time>
      </trkpt>
      <trkpt lat="43.38689" lon="2.37377">
        <ele>784.09</ele>
        <time>2016-08-06T11:20:16Z</time>
      </trkpt>
      <trkpt lat="43.38689" lon="2.37379">
        <ele>784.57</ele>
        <time>2016-08-06T11:20:17Z</time>
      </trkpt>
      <trkpt lat="43.38694" lon="2.37404">
        <ele>784.57</ele>
        <time>2016-08-06T11:20:35Z</time>
      </trkpt>
      <trkpt lat="43.38697" lon="2.3743">
        <ele>785.05</ele>
        <time>2016-08-06T11:20:52Z</time>
      </trkpt>
      <trkpt lat="43.38701" lon="2.37454">
        <ele>785.05</ele>
        <time>2016-08-06T11:21:06Z</time>
      </trkpt>
      <trkpt lat="43.38705" lon="2.37485">
        <ele>785.53</ele>
        <time>2016-08-06T11:21:23Z</time>
      </trkpt>
      <trkpt lat="43.38711" lon="2.37506">
        <ele>785.53</ele>
        <time>2016-08-06T11:21:40Z</time>
      </trkpt>
      <trkpt lat="43.38715" lon="2.37526">
        <ele>786.5</ele>
        <time>2016-08-06T11:21:57Z</time>
      </trkpt>
      <trkpt lat="43.38722" lon="2.37547">
        <ele>786.02</ele>
        <time>2016-08-06T11:22:12Z</time>
      </trkpt>
      <trkpt lat="43.38724" lon="2.37571">
        <ele>786.02</ele>
        <time>2016-08-06T11:22:26Z</time>
      </trkpt>
      <trkpt lat="43.38728" lon="2.37594">
        <ele>785.05</ele>
        <time>2016-08-06T11:22:35Z</time>
      </trkpt>
      <trkpt lat="43.38734" lon="2.37601">
        <ele>785.05</ele>
        <time>2016-08-06T11:22:37Z</time>
      </trkpt>
      <trkpt lat="43.38738" lon="2.37605">
        <ele>785.05</ele>
        <time>2016-08-06T11:22:39Z</time>
      </trkpt>
      <trkpt lat="43.38744" lon="2.37603">
        <ele>784.57</ele>
        <time>2016-08-06T11:22:45Z</time>
      </trkpt>
      <trkpt lat="43.38749" lon="2.37596">
        <ele>786.5</ele>
        <time>2016-08-06T11:22:53Z</time>
      </trkpt>
      <trkpt lat="43.38762" lon="2.37577">
        <ele>788.42</ele>
        <time>2016-08-06T11:23:11Z</time>
      </trkpt>
      <trkpt lat="43.38763" lon="2.37575">
        <ele>788.9</ele>
        <time>2016-08-06T11:23:13Z</time>
      </trkpt>
      <trkpt lat="43.3877" lon="2.37556">
        <ele>790.34</ele>
        <time>2016-08-06T11:23:30Z</time>
      </trkpt>
      <trkpt lat="43.3878" lon="2.37535">
        <ele>792.26</ele>
        <time>2016-08-06T11:23:47Z</time>
      </trkpt>
      <trkpt lat="43.38787" lon="2.37515">
        <ele>792.26</ele>
        <time>2016-08-06T11:24:01Z</time>
      </trkpt>
      <trkpt lat="43.38794" lon="2.37499">
        <ele>792.74</ele>
        <time>2016-08-06T11:24:16Z</time>
      </trkpt>
      <trkpt lat="43.388" lon="2.37487">
        <ele>795.63</ele>
        <time>2016-08-06T11:24:24Z</time>
      </trkpt>
      <trkpt lat="43.38807" lon="2.37466">
        <ele>794.19</ele>
        <time>2016-08-06T11:24:39Z</time>
      </trkpt>
      <trkpt lat="43.38813" lon="2.37442">
        <ele>794.67</ele>
        <time>2016-08-06T11:24:56Z</time>
      </trkpt>
      <trkpt lat="43.38822" lon="2.3742">
        <ele>796.11</ele>
        <time>2016-08-06T11:25:12Z</time>
      </trkpt>
      <trkpt lat="43.38826" lon="2.37408">
        <ele>799.47</ele>
        <time>2016-08-06T11:25:22Z</time>
      </trkpt>
      <trkpt lat="43.38828" lon="2.37404">
        <ele>796.59</ele>
        <time>2016-08-06T11:25:25Z</time>
      </trkpt>
      <trkpt lat="43.38834" lon="2.37393">
        <ele>796.59</ele>
        <time>2016-08-06T11:25:36Z</time>
      </trkpt>
      <trkpt lat="43.38839" lon="2.37386">
        <ele>798.99</ele>
        <time>2016-08-06T11:25:44Z</time>
      </trkpt>
      <trkpt lat="43.38854" lon="2.37373">
        <ele>797.07</ele>
        <time>2016-08-06T11:26:02Z</time>
      </trkpt>
      <trkpt lat="43.38867" lon="2.37357">
        <ele>797.55</ele>
        <time>2016-08-06T11:26:18Z</time>
      </trkpt>
      <trkpt lat="43.38886" lon="2.37341">
        <ele>797.55</ele>
        <time>2016-08-06T11:26:32Z</time>
      </trkpt>
      <trkpt lat="43.3889" lon="2.37331">
        <ele>797.55</ele>
        <time>2016-08-06T11:26:45Z</time>
      </trkpt>
      <trkpt lat="43.38891" lon="2.37322">
        <ele>796.59</ele>
        <time>2016-08-06T11:27:05Z</time>
      </trkpt>
      <trkpt lat="43.38892" lon="2.37315">
        <ele>798.51</ele>
        <time>2016-08-06T11:27:12Z</time>
      </trkpt>
      <trkpt lat="43.38903" lon="2.37294">
        <ele>798.51</ele>
        <time>2016-08-06T11:27:31Z</time>
      </trkpt>
      <trkpt lat="43.38912" lon="2.37282">
        <ele>798.51</ele>
        <time>2016-08-06T11:27:43Z</time>
      </trkpt>
      <trkpt lat="43.38925" lon="2.3727">
        <ele>798.03</ele>
        <time>2016-08-06T11:27:58Z</time>
      </trkpt>
      <trkpt lat="43.38938" lon="2.37254">
        <ele>798.51</ele>
        <time>2016-08-06T11:28:15Z</time>
      </trkpt>
      <trkpt lat="43.38954" lon="2.37239">
        <ele>798.99</ele>
        <time>2016-08-06T11:28:32Z</time>
      </trkpt>
      <trkpt lat="43.38962" lon="2.37224">
        <ele>798.51</ele>
        <time>2016-08-06T11:28:41Z</time>
      </trkpt>
      <trkpt lat="43.38966" lon="2.37219">
        <ele>798.51</ele>
        <time>2016-08-06T11:28:53Z</time>
      </trkpt>
      <trkpt lat="43.38977" lon="2.37211">
        <ele>798.99</ele>
        <time>2016-08-06T11:29:07Z</time>
      </trkpt>
      <trkpt lat="43.38991" lon="2.37195">
        <ele>798.99</ele>
        <time>2016-08-06T11:29:24Z</time>
      </trkpt>
      <trkpt lat="43.39003" lon="2.37185">
        <ele>798.99</ele>
        <time>2016-08-06T11:29:40Z</time>
      </trkpt>
      <trkpt lat="43.39008" lon="2.37182">
        <ele>798.51</ele>
        <time>2016-08-06T11:29:45Z</time>
      </trkpt>
      <trkpt lat="43.39014" lon="2.37176">
        <ele>798.03</ele>
        <time>2016-08-06T11:29:53Z</time>
      </trkpt>
      <trkpt lat="43.39026" lon="2.37169">
        <ele>797.07</ele>
        <time>2016-08-06T11:30:08Z</time>
      </trkpt>
      <trkpt lat="43.39039" lon="2.37161">
        <ele>796.59</ele>
        <time>2016-08-06T11:30:22Z</time>
      </trkpt>
      <trkpt lat="43.39051" lon="2.37153">
        <ele>797.07</ele>
        <time>2016-08-06T11:30:38Z</time>
      </trkpt>
      <trkpt lat="43.39077" lon="2.37136">
        <ele>795.63</ele>
        <time>2016-08-06T11:30:56Z</time>
      </trkpt>
      <trkpt lat="43.39088" lon="2.37126">
        <ele>794.19</ele>
        <time>2016-08-06T11:31:12Z</time>
      </trkpt>
      <trkpt lat="43.39108" lon="2.37116">
        <ele>794.19</ele>
        <time>2016-08-06T11:31:31Z</time>
      </trkpt>
      <trkpt lat="43.39117" lon="2.37112">
        <ele>793.22</ele>
        <time>2016-08-06T11:31:44Z</time>
      </trkpt>
      <trkpt lat="43.39121" lon="2.37111">
        <ele>793.22</ele>
        <time>2016-08-06T11:31:48Z</time>
      </trkpt>
      <trkpt lat="43.3914" lon="2.3709">
        <ele>792.26</ele>
        <time>2016-08-06T11:32:06Z</time>
      </trkpt>
      <trkpt lat="43.39144" lon="2.37087">
        <ele>792.26</ele>
        <time>2016-08-06T11:32:10Z</time>
      </trkpt>
      <trkpt lat="43.39168" lon="2.37069">
        <ele>790.82</ele>
        <time>2016-08-06T11:32:31Z</time>
      </trkpt>
      <trkpt lat="43.39186" lon="2.3706">
        <ele>789.86</ele>
        <time>2016-08-06T11:32:49Z</time>
      </trkpt>
      <trkpt lat="43.39207" lon="2.37045">
        <ele>789.86</ele>
        <time>2016-08-06T11:33:06Z</time>
      </trkpt>
      <trkpt lat="43.39222" lon="2.37033">
        <ele>789.86</ele>
        <time>2016-08-06T11:33:22Z</time>
      </trkpt>
      <trkpt lat="43.39233" lon="2.37026">
        <ele>789.38</ele>
        <time>2016-08-06T11:33:35Z</time>
      </trkpt>
      <trkpt lat="43.39238" lon="2.37024">
        <ele>789.86</ele>
        <time>2016-08-06T11:33:39Z</time>
      </trkpt>
      <trkpt lat="43.39245" lon="2.37021">
        <ele>789.38</ele>
        <time>2016-08-06T11:33:46Z</time>
      </trkpt>
      <trkpt lat="43.39251" lon="2.37018">
        <ele>789.38</ele>
        <time>2016-08-06T11:33:51Z</time>
      </trkpt>
      <trkpt lat="43.3927" lon="2.37006">
        <ele>789.38</ele>
        <time>2016-08-06T11:34:10Z</time>
      </trkpt>
      <trkpt lat="43.39278" lon="2.37002">
        <ele>787.94</ele>
        <time>2016-08-06T11:34:18Z</time>
      </trkpt>
      <trkpt lat="43.39287" lon="2.36996">
        <ele>790.34</ele>
        <time>2016-08-06T11:34:26Z</time>
      </trkpt>
      <trkpt lat="43.39306" lon="2.36986">
        <ele>789.38</ele>
        <time>2016-08-06T11:34:45Z</time>
      </trkpt>
      <trkpt lat="43.39322" lon="2.36975">
        <ele>789.86</ele>
        <time>2016-08-06T11:35:01Z</time>
      </trkpt>
      <trkpt lat="43.3934" lon="2.36965">
        <ele>790.34</ele>
        <time>2016-08-06T11:35:18Z</time>
      </trkpt>
      <trkpt lat="43.39358" lon="2.36955">
        <ele>792.74</ele>
        <time>2016-08-06T11:35:35Z</time>
      </trkpt>
      <trkpt lat="43.39361" lon="2.36953">
        <ele>791.3</ele>
        <time>2016-08-06T11:35:38Z</time>
      </trkpt>
      <trkpt lat="43.39366" lon="2.3695">
        <ele>792.26</ele>
        <time>2016-08-06T11:35:43Z</time>
      </trkpt>
      <trkpt lat="43.39368" lon="2.36949">
        <ele>793.22</ele>
        <time>2016-08-06T11:35:45Z</time>
      </trkpt>
      <trkpt lat="43.39381" lon="2.36945">
        <ele>793.22</ele>
        <time>2016-08-06T11:36:01Z</time>
      </trkpt>
      <trkpt lat="43.39387" lon="2.36947">
        <ele>794.19</ele>
        <time>2016-08-06T11:36:14Z</time>
      </trkpt>
      <trkpt lat="43.39388" lon="2.36953">
        <ele>793.71</ele>
        <time>2016-08-06T11:36:30Z</time>
      </trkpt>
      <trkpt lat="43.39388" lon="2.36955">
        <ele>793.71</ele>
        <time>2016-08-06T11:36:31Z</time>
      </trkpt>
      <trkpt lat="43.39405" lon="2.36971">
        <ele>794.19</ele>
        <time>2016-08-06T11:36:49Z</time>
      </trkpt>
      <trkpt lat="43.39413" lon="2.36976">
        <ele>792.26</ele>
        <time>2016-08-06T11:36:57Z</time>
      </trkpt>
      <trkpt lat="43.39435" lon="2.36989">
        <ele>793.71</ele>
        <time>2016-08-06T11:37:17Z</time>
      </trkpt>
      <trkpt lat="43.39455" lon="2.36999">
        <ele>794.19</ele>
        <time>2016-08-06T11:37:35Z</time>
      </trkpt>
      <trkpt lat="43.39473" lon="2.37008">
        <ele>793.22</ele>
        <time>2016-08-06T11:37:52Z</time>
      </trkpt>
      <trkpt lat="43.3949" lon="2.37019">
        <ele>792.74</ele>
        <time>2016-08-06T11:38:09Z</time>
      </trkpt>
      <trkpt lat="43.3951" lon="2.37031">
        <ele>792.74</ele>
        <time>2016-08-06T11:38:28Z</time>
      </trkpt>
      <trkpt lat="43.39528" lon="2.37043">
        <ele>791.78</ele>
        <time>2016-08-06T11:38:47Z</time>
      </trkpt>
      <trkpt lat="43.39547" lon="2.37052">
        <ele>789.86</ele>
        <time>2016-08-06T11:39:04Z</time>
      </trkpt>
      <trkpt lat="43.39551" lon="2.37053">
        <ele>788.9</ele>
        <time>2016-08-06T11:39:08Z</time>
      </trkpt>
      <trkpt lat="43.39555" lon="2.37054">
        <ele>788.42</ele>
        <time>2016-08-06T11:39:12Z</time>
      </trkpt>
      <trkpt lat="43.39563" lon="2.37056">
        <ele>787.94</ele>
        <time>2016-08-06T11:39:19Z</time>
      </trkpt>
      <trkpt lat="43.39571" lon="2.3706">
        <ele>786.98</ele>
        <time>2016-08-06T11:39:27Z</time>
      </trkpt>
      <trkpt lat="43.39581" lon="2.37063">
        <ele>785.53</ele>
        <time>2016-08-06T11:39:36Z</time>
      </trkpt>
      <trkpt lat="43.39603" lon="2.37068">
        <ele>784.57</ele>
        <time>2016-08-06T11:39:56Z</time>
      </trkpt>
      <trkpt lat="43.39609" lon="2.37066">
        <ele>784.09</ele>
        <time>2016-08-06T11:40:01Z</time>
      </trkpt>
      <trkpt lat="43.39627" lon="2.37056">
        <ele>780.73</ele>
        <time>2016-08-06T11:40:18Z</time>
      </trkpt>
      <trkpt lat="43.3964" lon="2.37049">
        <ele>779.29</ele>
        <time>2016-08-06T11:40:31Z</time>
      </trkpt>
      <trkpt lat="43.39641" lon="2.37048">
        <ele>778.81</ele>
        <time>2016-08-06T11:40:33Z</time>
      </trkpt>
      <trkpt lat="43.39645" lon="2.37046">
        <ele>777.36</ele>
        <time>2016-08-06T11:40:37Z</time>
      </trkpt>
      <trkpt lat="43.39659" lon="2.37036">
        <ele>776.4</ele>
        <time>2016-08-06T11:40:53Z</time>
      </trkpt>
      <trkpt lat="43.3967" lon="2.37029">
        <ele>773.52</ele>
        <time>2016-08-06T11:41:09Z</time>
      </trkpt>
      <trkpt lat="43.3968" lon="2.37019">
        <ele>773.04</ele>
        <time>2016-08-06T11:41:23Z</time>
      </trkpt>
      <trkpt lat="43.39691" lon="2.37001">
        <ele>772.08</ele>
        <time>2016-08-06T11:41:38Z</time>
      </trkpt>
      <trkpt lat="43.39703" lon="2.36988">
        <ele>770.63</ele>
        <time>2016-08-06T11:41:52Z</time>
      </trkpt>
      <trkpt lat="43.39711" lon="2.36978">
        <ele>767.27</ele>
        <time>2016-08-06T11:42:05Z</time>
      </trkpt>
      <trkpt lat="43.39715" lon="2.36975">
        <ele>765.83</ele>
        <time>2016-08-06T11:42:10Z</time>
      </trkpt>
      <trkpt lat="43.39728" lon="2.36964">
        <ele>764.39</ele>
        <time>2016-08-06T11:42:27Z</time>
      </trkpt>
      <trkpt lat="43.39741" lon="2.36955">
        <ele>761.98</ele>
        <time>2016-08-06T11:42:42Z</time>
      </trkpt>
      <trkpt lat="43.39734" lon="2.36968">
        <ele>759.1</ele>
        <time>2016-08-06T11:43:11Z</time>
      </trkpt>
      <trkpt lat="43.39739" lon="2.36979">
        <ele>759.58</ele>
        <time>2016-08-06T11:43:25Z</time>
      </trkpt>
      <trkpt lat="43.39738" lon="2.36974">
        <ele>759.58</ele>
        <time>2016-08-06T11:43:41Z</time>
      </trkpt>
      <trkpt lat="43.39732" lon="2.36983">
        <ele>758.62</ele>
        <time>2016-08-06T11:43:55Z</time>
      </trkpt>
      <trkpt lat="43.39727" lon="2.36998">
        <ele>757.66</ele>
        <time>2016-08-06T11:44:10Z</time>
      </trkpt>
      <trkpt lat="43.39725" lon="2.37011">
        <ele>757.18</ele>
        <time>2016-08-06T11:44:23Z</time>
      </trkpt>
      <trkpt lat="43.39728" lon="2.37022">
        <ele>758.62</ele>
        <time>2016-08-06T11:44:40Z</time>
      </trkpt>
      <trkpt lat="43.39728" lon="2.3702">
        <ele>759.1</ele>
        <time>2016-08-06T11:44:56Z</time>
      </trkpt>
      <trkpt lat="43.39725" lon="2.37017">
        <ele>757.18</ele>
        <time>2016-08-06T11:45:01Z</time>
      </trkpt>
      <trkpt lat="43.39713" lon="2.37028">
        <ele>758.14</ele>
        <time>2016-08-06T11:45:17Z</time>
      </trkpt>
      <trkpt lat="43.39708" lon="2.37035">
        <ele>756.69</ele>
        <time>2016-08-06T11:45:24Z</time>
      </trkpt>
      <trkpt lat="43.397" lon="2.37046">
        <ele>757.18</ele>
        <time>2016-08-06T11:45:40Z</time>
      </trkpt>
      <trkpt lat="43.39694" lon="2.37066">
        <ele>757.18</ele>
        <time>2016-08-06T11:45:59Z</time>
      </trkpt>
      <trkpt lat="43.39687" lon="2.37072">
        <ele>755.25</ele>
        <time>2016-08-06T11:46:15Z</time>
      </trkpt>
      <trkpt lat="43.3969" lon="2.37088">
        <ele>753.33</ele>
        <time>2016-08-06T11:46:31Z</time>
      </trkpt>
      <trkpt lat="43.39703" lon="2.37099">
        <ele>752.37</ele>
        <time>2016-08-06T11:46:47Z</time>
      </trkpt>
      <trkpt lat="43.39709" lon="2.37102">
        <ele>756.21</ele>
        <time>2016-08-06T11:46:53Z</time>
      </trkpt>
      <trkpt lat="43.39713" lon="2.37104">
        <ele>753.33</ele>
        <time>2016-08-06T11:46:57Z</time>
      </trkpt>
      <trkpt lat="43.39716" lon="2.37103">
        <ele>752.85</ele>
        <time>2016-08-06T11:50:39Z</time>
      </trkpt>
      <trkpt lat="43.39716" lon="2.37101">
        <ele>749.97</ele>
        <time>2016-08-06T11:50:41Z</time>
      </trkpt>
      <trkpt lat="43.39716" lon="2.371">
        <ele>749.97</ele>
        <time>2016-08-06T11:50:42Z</time>
      </trkpt>
      <trkpt lat="43.39716" lon="2.37097">
        <ele>752.85</ele>
        <time>2016-08-06T11:50:49Z</time>
      </trkpt>
      <trkpt lat="43.39714" lon="2.37096">
        <ele>753.81</ele>
        <time>2016-08-06T11:51:01Z</time>
      </trkpt>
      <trkpt lat="43.39714" lon="2.37093">
        <ele>750.45</ele>
        <time>2016-08-06T11:51:14Z</time>
      </trkpt>
      <trkpt lat="43.39715" lon="2.37093">
        <ele>750.45</ele>
        <time>2016-08-06T11:51:15Z</time>
      </trkpt>
      <trkpt lat="43.39715" lon="2.37093">
        <ele>753.81</ele>
        <time>2016-08-06T11:51:20Z</time>
      </trkpt>
      <trkpt lat="43.39712" lon="2.37091">
        <ele>752.37</ele>
        <time>2016-08-06T11:51:28Z</time>
      </trkpt>
      <trkpt lat="43.39712" lon="2.37092">
        <ele>751.89</ele>
        <time>2016-08-06T11:51:42Z</time>
      </trkpt>
      <trkpt lat="43.39707" lon="2.3709">
        <ele>752.85</ele>
        <time>2016-08-06T11:51:57Z</time>
      </trkpt>
      <trkpt lat="43.39698" lon="2.37085">
        <ele>753.81</ele>
        <time>2016-08-06T11:52:11Z</time>
      </trkpt>
      <trkpt lat="43.39694" lon="2.37078">
        <ele>755.25</ele>
        <time>2016-08-06T11:52:26Z</time>
      </trkpt>
      <trkpt lat="43.39697" lon="2.3706">
        <ele>756.21</ele>
        <time>2016-08-06T11:52:42Z</time>
      </trkpt>
      <trkpt lat="43.39699" lon="2.37054">
        <ele>755.73</ele>
        <time>2016-08-06T11:52:49Z</time>
      </trkpt>
      <trkpt lat="43.39704" lon="2.3705">
        <ele>756.69</ele>
        <time>2016-08-06T11:52:55Z</time>
      </trkpt>
      <trkpt lat="43.39715" lon="2.37036">
        <ele>756.69</ele>
        <time>2016-08-06T11:53:10Z</time>
      </trkpt>
      <trkpt lat="43.39719" lon="2.37029">
        <ele>756.21</ele>
        <time>2016-08-06T11:53:17Z</time>
      </trkpt>
      <trkpt lat="43.39732" lon="2.37003">
        <ele>757.66</ele>
        <time>2016-08-06T11:53:37Z</time>
      </trkpt>
      <trkpt lat="43.39739" lon="2.36984">
        <ele>758.14</ele>
        <time>2016-08-06T11:53:53Z</time>
      </trkpt>
      <trkpt lat="43.39747" lon="2.3697">
        <ele>757.18</ele>
        <time>2016-08-06T11:54:07Z</time>
      </trkpt>
      <trkpt lat="43.39754" lon="2.36959">
        <ele>754.77</ele>
        <time>2016-08-06T11:54:18Z</time>
      </trkpt>
      <trkpt lat="43.39766" lon="2.36947">
        <ele>753.33</ele>
        <time>2016-08-06T11:54:33Z</time>
      </trkpt>
      <trkpt lat="43.39773" lon="2.36938">
        <ele>751.41</ele>
        <time>2016-08-06T11:54:44Z</time>
      </trkpt>
      <trkpt lat="43.39785" lon="2.36928">
        <ele>749.97</ele>
        <time>2016-08-06T11:55:00Z</time>
      </trkpt>
      <trkpt lat="43.3979" lon="2.36922">
        <ele>749</ele>
        <time>2016-08-06T11:55:05Z</time>
      </trkpt>
      <trkpt lat="43.39802" lon="2.36908">
        <ele>747.08</ele>
        <time>2016-08-06T11:55:18Z</time>
      </trkpt>
      <trkpt lat="43.39811" lon="2.36892">
        <ele>746.12</ele>
        <time>2016-08-06T11:55:33Z</time>
      </trkpt>
      <trkpt lat="43.39819" lon="2.36876">
        <ele>745.16</ele>
        <time>2016-08-06T11:55:47Z</time>
      </trkpt>
      <trkpt lat="43.39826" lon="2.3686">
        <ele>742.76</ele>
        <time>2016-08-06T11:56:01Z</time>
      </trkpt>
      <trkpt lat="43.39832" lon="2.36847">
        <ele>742.28</ele>
        <time>2016-08-06T11:56:14Z</time>
      </trkpt>
      <trkpt lat="43.3984" lon="2.36831">
        <ele>740.83</ele>
        <time>2016-08-06T11:56:28Z</time>
      </trkpt>
      <trkpt lat="43.39851" lon="2.36832">
        <ele>740.35</ele>
        <time>2016-08-06T11:56:45Z</time>
      </trkpt>
      <trkpt lat="43.39854" lon="2.36827">
        <ele>739.87</ele>
        <time>2016-08-06T11:57:00Z</time>
      </trkpt>
      <trkpt lat="43.39851" lon="2.36823">
        <ele>738.91</ele>
        <time>2016-08-06T11:57:17Z</time>
      </trkpt>
      <trkpt lat="43.39847" lon="2.3683">
        <ele>737.95</ele>
        <time>2016-08-06T11:57:29Z</time>
      </trkpt>
      <trkpt lat="43.39838" lon="2.36851">
        <ele>736.99</ele>
        <time>2016-08-06T11:57:42Z</time>
      </trkpt>
      <trkpt lat="43.39832" lon="2.36865">
        <ele>736.99</ele>
        <time>2016-08-06T11:57:56Z</time>
      </trkpt>
      <trkpt lat="43.39829" lon="2.36869">
        <ele>736.51</ele>
        <time>2016-08-06T11:58:01Z</time>
      </trkpt>
      <trkpt lat="43.39825" lon="2.36881">
        <ele>736.51</ele>
        <time>2016-08-06T11:58:14Z</time>
      </trkpt>
      <trkpt lat="43.39822" lon="2.36887">
        <ele>736.51</ele>
        <time>2016-08-06T11:58:25Z</time>
      </trkpt>
      <trkpt lat="43.39819" lon="2.3689">
        <ele>736.03</ele>
        <time>2016-08-06T11:58:32Z</time>
      </trkpt>
      <trkpt lat="43.39811" lon="2.369">
        <ele>736.51</ele>
        <time>2016-08-06T11:58:46Z</time>
      </trkpt>
      <trkpt lat="43.39812" lon="2.36916">
        <ele>736.51</ele>
        <time>2016-08-06T11:59:00Z</time>
      </trkpt>
      <trkpt lat="43.39821" lon="2.3693">
        <ele>736.99</ele>
        <time>2016-08-06T11:59:23Z</time>
      </trkpt>
      <trkpt lat="43.3982" lon="2.36934">
        <ele>736.03</ele>
        <time>2016-08-06T11:59:42Z</time>
      </trkpt>
      <trkpt lat="43.39819" lon="2.36931">
        <ele>731.7</ele>
        <time>2016-08-06T11:59:48Z</time>
      </trkpt>
      <trkpt lat="43.39819" lon="2.36931">
        <ele>739.39</ele>
        <time>2016-08-06T11:59:49Z</time>
      </trkpt>
      <trkpt lat="43.39814" lon="2.36927">
        <ele>735.55</ele>
        <time>2016-08-06T12:00:03Z</time>
      </trkpt>
      <trkpt lat="43.39818" lon="2.3693">
        <ele>737.47</ele>
        <time>2016-08-06T12:00:28Z</time>
      </trkpt>
      <trkpt lat="43.39822" lon="2.36929">
        <ele>741.79</ele>
        <time>2016-08-06T12:00:34Z</time>
      </trkpt>
      <trkpt lat="43.39819" lon="2.36929">
        <ele>737.95</ele>
        <time>2016-08-06T12:00:35Z</time>
      </trkpt>
      <trkpt lat="43.39807" lon="2.36944">
        <ele>740.83</ele>
        <time>2016-08-06T12:55:13Z</time>
      </trkpt>
      <trkpt lat="43.39806" lon="2.36934">
        <ele>741.79</ele>
        <time>2016-08-06T12:55:28Z</time>
      </trkpt>
      <trkpt lat="43.39809" lon="2.36936">
        <ele>741.31</ele>
        <time>2016-08-06T12:55:42Z</time>
      </trkpt>
      <trkpt lat="43.39814" lon="2.36925">
        <ele>740.83</ele>
        <time>2016-08-06T12:55:56Z</time>
      </trkpt>
      <trkpt lat="43.39822" lon="2.36917">
        <ele>741.79</ele>
        <time>2016-08-06T12:56:11Z</time>
      </trkpt>
      <trkpt lat="43.39826" lon="2.36903">
        <ele>741.31</ele>
        <time>2016-08-06T12:56:22Z</time>
      </trkpt>
      <trkpt lat="43.39834" lon="2.36883">
        <ele>741.31</ele>
        <time>2016-08-06T12:56:38Z</time>
      </trkpt>
      <trkpt lat="43.39842" lon="2.36867">
        <ele>742.28</ele>
        <time>2016-08-06T12:56:54Z</time>
      </trkpt>
      <trkpt lat="43.39849" lon="2.36855">
        <ele>743.72</ele>
        <time>2016-08-06T12:57:10Z</time>
      </trkpt>
      <trkpt lat="43.39857" lon="2.36843">
        <ele>745.64</ele>
        <time>2016-08-06T12:57:25Z</time>
      </trkpt>
      <trkpt lat="43.39856" lon="2.36848">
        <ele>746.6</ele>
        <time>2016-08-06T12:57:41Z</time>
      </trkpt>
      <trkpt lat="43.39857" lon="2.36858">
        <ele>748.52</ele>
        <time>2016-08-06T12:57:58Z</time>
      </trkpt>
      <trkpt lat="43.3986" lon="2.36864">
        <ele>748.04</ele>
        <time>2016-08-06T12:58:19Z</time>
      </trkpt>
      <trkpt lat="43.39856" lon="2.36878">
        <ele>749.97</ele>
        <time>2016-08-06T12:58:33Z</time>
      </trkpt>
      <trkpt lat="43.39852" lon="2.36895">
        <ele>751.41</ele>
        <time>2016-08-06T12:58:48Z</time>
      </trkpt>
      <trkpt lat="43.39848" lon="2.36904">
        <ele>753.33</ele>
        <time>2016-08-06T12:59:03Z</time>
      </trkpt>
      <trkpt lat="43.39847" lon="2.36919">
        <ele>755.73</ele>
        <time>2016-08-06T12:59:18Z</time>
      </trkpt>
      <trkpt lat="43.39849" lon="2.36926">
        <ele>757.18</ele>
        <time>2016-08-06T12:59:33Z</time>
      </trkpt>
      <trkpt lat="43.39849" lon="2.36942">
        <ele>759.58</ele>
        <time>2016-08-06T12:59:50Z</time>
      </trkpt>
      <trkpt lat="43.39846" lon="2.36954">
        <ele>760.54</ele>
        <time>2016-08-06T13:00:05Z</time>
      </trkpt>
      <trkpt lat="43.39848" lon="2.36969">
        <ele>761.5</ele>
        <time>2016-08-06T13:00:21Z</time>
      </trkpt>
      <trkpt lat="43.39847" lon="2.36983">
        <ele>764.39</ele>
        <time>2016-08-06T13:00:36Z</time>
      </trkpt>
      <trkpt lat="43.39847" lon="2.36998">
        <ele>766.79</ele>
        <time>2016-08-06T13:00:52Z</time>
      </trkpt>
      <trkpt lat="43.39847" lon="2.37012">
        <ele>767.27</ele>
        <time>2016-08-06T13:01:07Z</time>
      </trkpt>
      <trkpt lat="43.3985" lon="2.37024">
        <ele>768.71</ele>
        <time>2016-08-06T13:01:23Z</time>
      </trkpt>
      <trkpt lat="43.39851" lon="2.37031">
        <ele>769.19</ele>
        <time>2016-08-06T13:01:37Z</time>
      </trkpt>
      <trkpt lat="43.39853" lon="2.37044">
        <ele>770.63</ele>
        <time>2016-08-06T13:01:51Z</time>
      </trkpt>
      <trkpt lat="43.39858" lon="2.37057">
        <ele>772.08</ele>
        <time>2016-08-06T13:02:06Z</time>
      </trkpt>
      <trkpt lat="43.39863" lon="2.37066">
        <ele>773.04</ele>
        <time>2016-08-06T13:02:19Z</time>
      </trkpt>
      <trkpt lat="43.39868" lon="2.37073">
        <ele>774.48</ele>
        <time>2016-08-06T13:02:34Z</time>
      </trkpt>
      <trkpt lat="43.39871" lon="2.37075">
        <ele>774.48</ele>
        <time>2016-08-06T13:02:50Z</time>
      </trkpt>
      <trkpt lat="43.3987" lon="2.37076">
        <ele>773.04</ele>
        <time>2016-08-06T13:03:09Z</time>
      </trkpt>
      <trkpt lat="43.39877" lon="2.37082">
        <ele>774.96</ele>
        <time>2016-08-06T13:03:23Z</time>
      </trkpt>
      <trkpt lat="43.39879" lon="2.37084">
        <ele>773.04</ele>
        <time>2016-08-06T13:03:40Z</time>
      </trkpt>
      <trkpt lat="43.39881" lon="2.37084">
        <ele>774.48</ele>
        <time>2016-08-06T13:03:56Z</time>
      </trkpt>
      <trkpt lat="43.39885" lon="2.37086">
        <ele>774</ele>
        <time>2016-08-06T13:04:12Z</time>
      </trkpt>
      <trkpt lat="43.39893" lon="2.3709">
        <ele>774</ele>
        <time>2016-08-06T13:04:26Z</time>
      </trkpt>
      <trkpt lat="43.39905" lon="2.37101">
        <ele>773.52</ele>
        <time>2016-08-06T13:04:43Z</time>
      </trkpt>
      <trkpt lat="43.39913" lon="2.37111">
        <ele>773.52</ele>
        <time>2016-08-06T13:04:57Z</time>
      </trkpt>
      <trkpt lat="43.3992" lon="2.37125">
        <ele>771.6</ele>
        <time>2016-08-06T13:05:12Z</time>
      </trkpt>
      <trkpt lat="43.39925" lon="2.37137">
        <ele>772.56</ele>
        <time>2016-08-06T13:05:26Z</time>
      </trkpt>
      <trkpt lat="43.39933" lon="2.3715">
        <ele>770.63</ele>
        <time>2016-08-06T13:05:40Z</time>
      </trkpt>
      <trkpt lat="43.39939" lon="2.37158">
        <ele>769.67</ele>
        <time>2016-08-06T13:05:51Z</time>
      </trkpt>
      <trkpt lat="43.39955" lon="2.3717">
        <ele>769.67</ele>
        <time>2016-08-06T13:06:10Z</time>
      </trkpt>
      <trkpt lat="43.39969" lon="2.37173">
        <ele>769.19</ele>
        <time>2016-08-06T13:06:26Z</time>
      </trkpt>
      <trkpt lat="43.39972" lon="2.37172">
        <ele>768.71</ele>
        <time>2016-08-06T13:06:29Z</time>
      </trkpt>
      <trkpt lat="43.39974" lon="2.37171">
        <ele>768.23</ele>
        <time>2016-08-06T13:06:31Z</time>
      </trkpt>
      <trkpt lat="43.39984" lon="2.37175">
        <ele>766.79</ele>
        <time>2016-08-06T13:06:46Z</time>
      </trkpt>
      <trkpt lat="43.39994" lon="2.37186">
        <ele>764.87</ele>
        <time>2016-08-06T13:07:02Z</time>
      </trkpt>
      <trkpt lat="43.40009" lon="2.37191">
        <ele>764.39</ele>
        <time>2016-08-06T13:07:20Z</time>
      </trkpt>
      <trkpt lat="43.40012" lon="2.37193">
        <ele>762.46</ele>
        <time>2016-08-06T13:07:23Z</time>
      </trkpt>
      <trkpt lat="43.40024" lon="2.37199">
        <ele>760.06</ele>
        <time>2016-08-06T13:07:39Z</time>
      </trkpt>
      <trkpt lat="43.40031" lon="2.37199">
        <ele>759.58</ele>
        <time>2016-08-06T13:07:58Z</time>
      </trkpt>
      <trkpt lat="43.40031" lon="2.37208">
        <ele>759.58</ele>
        <time>2016-08-06T13:08:12Z</time>
      </trkpt>
      <trkpt lat="43.40035" lon="2.37218">
        <ele>758.14</ele>
        <time>2016-08-06T13:08:27Z</time>
      </trkpt>
      <trkpt lat="43.40043" lon="2.37226">
        <ele>757.66</ele>
        <time>2016-08-06T13:08:42Z</time>
      </trkpt>
      <trkpt lat="43.4005" lon="2.37243">
        <ele>756.21</ele>
        <time>2016-08-06T13:08:57Z</time>
      </trkpt>
      <trkpt lat="43.40057" lon="2.3726">
        <ele>754.29</ele>
        <time>2016-08-06T13:09:14Z</time>
      </trkpt>
      <trkpt lat="43.40067" lon="2.37274">
        <ele>754.29</ele>
        <time>2016-08-06T13:09:29Z</time>
      </trkpt>
      <trkpt lat="43.40079" lon="2.37282">
        <ele>753.33</ele>
        <time>2016-08-06T13:09:45Z</time>
      </trkpt>
      <trkpt lat="43.4008" lon="2.3729">
        <ele>753.33</ele>
        <time>2016-08-06T13:10:01Z</time>
      </trkpt>
      <trkpt lat="43.40079" lon="2.37292">
        <ele>753.81</ele>
        <time>2016-08-06T13:11:09Z</time>
      </trkpt>
      <trkpt lat="43.40077" lon="2.37308">
        <ele>754.29</ele>
        <time>2016-08-06T13:11:19Z</time>
      </trkpt>
      <trkpt lat="43.40071" lon="2.37331">
        <ele>755.73</ele>
        <time>2016-08-06T13:11:34Z</time>
      </trkpt>
      <trkpt lat="43.40064" lon="2.37348">
        <ele>757.18</ele>
        <time>2016-08-06T13:11:48Z</time>
      </trkpt>
      <trkpt lat="43.40059" lon="2.37369">
        <ele>758.14</ele>
        <time>2016-08-06T13:12:04Z</time>
      </trkpt>
      <trkpt lat="43.40056" lon="2.37393">
        <ele>759.58</ele>
        <time>2016-08-06T13:12:20Z</time>
      </trkpt>
      <trkpt lat="43.40054" lon="2.3741">
        <ele>759.1</ele>
        <time>2016-08-06T13:12:32Z</time>
      </trkpt>
      <trkpt lat="43.40052" lon="2.37421">
        <ele>760.54</ele>
        <time>2016-08-06T13:12:39Z</time>
      </trkpt>
      <trkpt lat="43.40048" lon="2.37442">
        <ele>760.54</ele>
        <time>2016-08-06T13:12:55Z</time>
      </trkpt>
      <trkpt lat="43.40045" lon="2.37462">
        <ele>759.58</ele>
        <time>2016-08-06T13:13:11Z</time>
      </trkpt>
      <trkpt lat="43.40044" lon="2.37485">
        <ele>759.1</ele>
        <time>2016-08-06T13:13:26Z</time>
      </trkpt>
      <trkpt lat="43.40044" lon="2.37498">
        <ele>759.1</ele>
        <time>2016-08-06T13:13:35Z</time>
      </trkpt>
      <trkpt lat="43.40044" lon="2.37523">
        <ele>760.06</ele>
        <time>2016-08-06T13:13:51Z</time>
      </trkpt>
      <trkpt lat="43.40044" lon="2.37527">
        <ele>760.06</ele>
        <time>2016-08-06T13:13:53Z</time>
      </trkpt>
      <trkpt lat="43.40045" lon="2.37551">
        <ele>760.54</ele>
        <time>2016-08-06T13:14:10Z</time>
      </trkpt>
      <trkpt lat="43.40047" lon="2.37556">
        <ele>761.02</ele>
        <time>2016-08-06T13:14:24Z</time>
      </trkpt>
      <trkpt lat="43.40049" lon="2.37581">
        <ele>761.98</ele>
        <time>2016-08-06T13:14:39Z</time>
      </trkpt>
      <trkpt lat="43.4005" lon="2.37598">
        <ele>763.9</ele>
        <time>2016-08-06T13:14:52Z</time>
      </trkpt>
      <trkpt lat="43.40051" lon="2.37619">
        <ele>765.35</ele>
        <time>2016-08-06T13:15:07Z</time>
      </trkpt>
      <trkpt lat="43.40051" lon="2.37636">
        <ele>765.83</ele>
        <time>2016-08-06T13:15:19Z</time>
      </trkpt>
      <trkpt lat="43.4005" lon="2.37644">
        <ele>766.31</ele>
        <time>2016-08-06T13:15:24Z</time>
      </trkpt>
      <trkpt lat="43.40051" lon="2.37647">
        <ele>766.31</ele>
        <time>2016-08-06T13:15:26Z</time>
      </trkpt>
      <trkpt lat="43.40051" lon="2.3767">
        <ele>767.27</ele>
        <time>2016-08-06T13:15:42Z</time>
      </trkpt>
      <trkpt lat="43.40052" lon="2.37687">
        <ele>767.75</ele>
        <time>2016-08-06T13:15:55Z</time>
      </trkpt>
      <trkpt lat="43.40051" lon="2.37698">
        <ele>769.19</ele>
        <time>2016-08-06T13:16:09Z</time>
      </trkpt>
      <trkpt lat="43.40051" lon="2.37713">
        <ele>770.15</ele>
        <time>2016-08-06T13:16:25Z</time>
      </trkpt>
      <trkpt lat="43.40057" lon="2.37735">
        <ele>771.6</ele>
        <time>2016-08-06T13:16:38Z</time>
      </trkpt>
      <trkpt lat="43.40064" lon="2.37752">
        <ele>773.52</ele>
        <time>2016-08-06T13:16:53Z</time>
      </trkpt>
      <trkpt lat="43.40076" lon="2.3777">
        <ele>774</ele>
        <time>2016-08-06T13:17:07Z</time>
      </trkpt>
      <trkpt lat="43.40089" lon="2.37792">
        <ele>774.48</ele>
        <time>2016-08-06T13:17:23Z</time>
      </trkpt>
      <trkpt lat="43.40091" lon="2.37792">
        <ele>774.96</ele>
        <time>2016-08-06T13:17:30Z</time>
      </trkpt>
      <trkpt lat="43.40101" lon="2.37801">
        <ele>774</ele>
        <time>2016-08-06T13:17:43Z</time>
      </trkpt>
      <trkpt lat="43.40119" lon="2.37809">
        <ele>774</ele>
        <time>2016-08-06T13:17:59Z</time>
      </trkpt>
      <trkpt lat="43.4013" lon="2.37814">
        <ele>772.08</ele>
        <time>2016-08-06T13:18:32Z</time>
      </trkpt>
      <trkpt lat="43.40129" lon="2.37816">
        <ele>774.96</ele>
        <time>2016-08-06T13:18:38Z</time>
      </trkpt>
      <trkpt lat="43.40122" lon="2.37828">
        <ele>774</ele>
        <time>2016-08-06T13:18:52Z</time>
      </trkpt>
      <trkpt lat="43.40122" lon="2.37841">
        <ele>773.04</ele>
        <time>2016-08-06T13:19:09Z</time>
      </trkpt>
      <trkpt lat="43.40128" lon="2.37844">
        <ele>774</ele>
        <time>2016-08-06T13:19:21Z</time>
      </trkpt>
      <trkpt lat="43.40128" lon="2.37835">
        <ele>773.52</ele>
        <time>2016-08-06T13:19:35Z</time>
      </trkpt>
      <trkpt lat="43.40131" lon="2.37827">
        <ele>773.52</ele>
        <time>2016-08-06T13:19:51Z</time>
      </trkpt>
      <trkpt lat="43.40132" lon="2.37819">
        <ele>773.52</ele>
        <time>2016-08-06T13:20:05Z</time>
      </trkpt>
      <trkpt lat="43.40136" lon="2.37812">
        <ele>772.08</ele>
        <time>2016-08-06T13:20:19Z</time>
      </trkpt>
      <trkpt lat="43.40138" lon="2.37812">
        <ele>772.56</ele>
        <time>2016-08-06T13:20:33Z</time>
      </trkpt>
      <trkpt lat="43.40143" lon="2.37814">
        <ele>773.52</ele>
        <time>2016-08-06T13:20:47Z</time>
      </trkpt>
      <trkpt lat="43.4014" lon="2.37807">
        <ele>773.52</ele>
        <time>2016-08-06T13:21:01Z</time>
      </trkpt>
      <trkpt lat="43.40136" lon="2.37807">
        <ele>772.56</ele>
        <time>2016-08-06T13:21:24Z</time>
      </trkpt>
      <trkpt lat="43.40135" lon="2.37805">
        <ele>772.08</ele>
        <time>2016-08-06T13:21:49Z</time>
      </trkpt>
      <trkpt lat="43.40128" lon="2.37801">
        <ele>774</ele>
        <time>2016-08-06T13:22:02Z</time>
      </trkpt>
      <trkpt lat="43.40119" lon="2.37793">
        <ele>774</ele>
        <time>2016-08-06T13:22:43Z</time>
      </trkpt>
      <trkpt lat="43.40116" lon="2.37794">
        <ele>774.48</ele>
        <time>2016-08-06T13:22:51Z</time>
      </trkpt>
      <trkpt lat="43.40114" lon="2.37793">
        <ele>774.48</ele>
        <time>2016-08-06T13:22:54Z</time>
      </trkpt>
      <trkpt lat="43.40101" lon="2.37785">
        <ele>774</ele>
        <time>2016-08-06T13:23:11Z</time>
      </trkpt>
      <trkpt lat="43.40097" lon="2.37788">
        <ele>774.48</ele>
        <time>2016-08-06T13:23:27Z</time>
      </trkpt>
      <trkpt lat="43.40091" lon="2.37771">
        <ele>774</ele>
        <time>2016-08-06T13:23:40Z</time>
      </trkpt>
      <trkpt lat="43.40083" lon="2.37749">
        <ele>771.6</ele>
        <time>2016-08-06T13:23:59Z</time>
      </trkpt>
      <trkpt lat="43.40074" lon="2.37732">
        <ele>769.67</ele>
        <time>2016-08-06T13:24:17Z</time>
      </trkpt>
      <trkpt lat="43.40071" lon="2.37711">
        <ele>769.67</ele>
        <time>2016-08-06T13:24:35Z</time>
      </trkpt>
      <trkpt lat="43.40067" lon="2.37691">
        <ele>767.75</ele>
        <time>2016-08-06T13:24:51Z</time>
      </trkpt>
      <trkpt lat="43.40057" lon="2.37676">
        <ele>766.31</ele>
        <time>2016-08-06T13:25:05Z</time>
      </trkpt>
      <trkpt lat="43.4006" lon="2.37674">
        <ele>766.31</ele>
        <time>2016-08-06T13:25:20Z</time>
      </trkpt>
      <trkpt lat="43.4006" lon="2.3765">
        <ele>766.31</ele>
        <time>2016-08-06T13:25:38Z</time>
      </trkpt>
      <trkpt lat="43.40059" lon="2.37633">
        <ele>765.35</ele>
        <time>2016-08-06T13:25:54Z</time>
      </trkpt>
      <trkpt lat="43.40057" lon="2.37609">
        <ele>764.39</ele>
        <time>2016-08-06T13:26:13Z</time>
      </trkpt>
      <trkpt lat="43.40054" lon="2.37588">
        <ele>762.94</ele>
        <time>2016-08-06T13:26:29Z</time>
      </trkpt>
      <trkpt lat="43.40052" lon="2.37567">
        <ele>761.5</ele>
        <time>2016-08-06T13:26:46Z</time>
      </trkpt>
      <trkpt lat="43.40052" lon="2.37546">
        <ele>760.54</ele>
        <time>2016-08-06T13:27:00Z</time>
      </trkpt>
      <trkpt lat="43.40053" lon="2.37525">
        <ele>759.58</ele>
        <time>2016-08-06T13:27:16Z</time>
      </trkpt>
      <trkpt lat="43.40054" lon="2.375">
        <ele>759.58</ele>
        <time>2016-08-06T13:27:32Z</time>
      </trkpt>
      <trkpt lat="43.40056" lon="2.37475">
        <ele>761.5</ele>
        <time>2016-08-06T13:27:48Z</time>
      </trkpt>
      <trkpt lat="43.40055" lon="2.37452">
        <ele>761.02</ele>
        <time>2016-08-06T13:28:05Z</time>
      </trkpt>
      <trkpt lat="43.40057" lon="2.37446">
        <ele>760.54</ele>
        <time>2016-08-06T13:28:10Z</time>
      </trkpt>
      <trkpt lat="43.40062" lon="2.37423">
        <ele>761.02</ele>
        <time>2016-08-06T13:28:29Z</time>
      </trkpt>
      <trkpt lat="43.40065" lon="2.37396">
        <ele>760.54</ele>
        <time>2016-08-06T13:28:48Z</time>
      </trkpt>
      <trkpt lat="43.40071" lon="2.37373">
        <ele>757.66</ele>
        <time>2016-08-06T13:29:05Z</time>
      </trkpt>
      <trkpt lat="43.40071" lon="2.37361">
        <ele>756.69</ele>
        <time>2016-08-06T13:29:15Z</time>
      </trkpt>
      <trkpt lat="43.40075" lon="2.37341">
        <ele>756.21</ele>
        <time>2016-08-06T13:29:32Z</time>
      </trkpt>
      <trkpt lat="43.40081" lon="2.37324">
        <ele>755.73</ele>
        <time>2016-08-06T13:29:47Z</time>
      </trkpt>
      <trkpt lat="43.40087" lon="2.37308">
        <ele>756.69</ele>
        <time>2016-08-06T13:30:01Z</time>
      </trkpt>
      <trkpt lat="43.40081" lon="2.37309">
        <ele>753.33</ele>
        <time>2016-08-06T13:30:11Z</time>
      </trkpt>
      <trkpt lat="43.40072" lon="2.37319">
        <ele>752.85</ele>
        <time>2016-08-06T13:30:27Z</time>
      </trkpt>
      <trkpt lat="43.40061" lon="2.37326">
        <ele>752.37</ele>
        <time>2016-08-06T13:30:42Z</time>
      </trkpt>
      <trkpt lat="43.4005" lon="2.37338">
        <ele>750.93</ele>
        <time>2016-08-06T13:30:58Z</time>
      </trkpt>
      <trkpt lat="43.40041" lon="2.37347">
        <ele>747.56</ele>
        <time>2016-08-06T13:31:11Z</time>
      </trkpt>
      <trkpt lat="43.4003" lon="2.37362">
        <ele>746.12</ele>
        <time>2016-08-06T13:31:26Z</time>
      </trkpt>
      <trkpt lat="43.40022" lon="2.37374">
        <ele>744.2</ele>
        <time>2016-08-06T13:31:41Z</time>
      </trkpt>
      <trkpt lat="43.40015" lon="2.37388">
        <ele>742.76</ele>
        <time>2016-08-06T13:31:55Z</time>
      </trkpt>
      <trkpt lat="43.40007" lon="2.37401">
        <ele>741.31</ele>
        <time>2016-08-06T13:32:09Z</time>
      </trkpt>
      <trkpt lat="43.40001" lon="2.37419">
        <ele>739.39</ele>
        <time>2016-08-06T13:32:23Z</time>
      </trkpt>
      <trkpt lat="43.39993" lon="2.3743">
        <ele>737.47</ele>
        <time>2016-08-06T13:32:36Z</time>
      </trkpt>
      <trkpt lat="43.39986" lon="2.37449">
        <ele>736.51</ele>
        <time>2016-08-06T13:32:51Z</time>
      </trkpt>
      <trkpt lat="43.3998" lon="2.37466">
        <ele>735.55</ele>
        <time>2016-08-06T13:33:05Z</time>
      </trkpt>
      <trkpt lat="43.39973" lon="2.37485">
        <ele>734.58</ele>
        <time>2016-08-06T13:33:20Z</time>
      </trkpt>
      <trkpt lat="43.39966" lon="2.37505">
        <ele>731.7</ele>
        <time>2016-08-06T13:33:36Z</time>
      </trkpt>
      <trkpt lat="43.39957" lon="2.37517">
        <ele>730.74</ele>
        <time>2016-08-06T13:33:50Z</time>
      </trkpt>
      <trkpt lat="43.39948" lon="2.37533">
        <ele>727.86</ele>
        <time>2016-08-06T13:34:23Z</time>
      </trkpt>
      <trkpt lat="43.39948" lon="2.3751">
        <ele>725.93</ele>
        <time>2016-08-06T13:34:41Z</time>
      </trkpt>
      <trkpt lat="43.3995" lon="2.37497">
        <ele>724.49</ele>
        <time>2016-08-06T13:34:55Z</time>
      </trkpt>
      <trkpt lat="43.39951" lon="2.3748">
        <ele>723.53</ele>
        <time>2016-08-06T13:35:11Z</time>
      </trkpt>
      <trkpt lat="43.39947" lon="2.37473">
        <ele>722.09</ele>
        <time>2016-08-06T13:35:31Z</time>
      </trkpt>
      <trkpt lat="43.39941" lon="2.3748">
        <ele>722.09</ele>
        <time>2016-08-06T13:35:51Z</time>
      </trkpt>
      <trkpt lat="43.39929" lon="2.37492">
        <ele>720.16</ele>
        <time>2016-08-06T13:36:04Z</time>
      </trkpt>
      <trkpt lat="43.39923" lon="2.37509">
        <ele>719.2</ele>
        <time>2016-08-06T13:36:19Z</time>
      </trkpt>
      <trkpt lat="43.39917" lon="2.37534">
        <ele>718.72</ele>
        <time>2016-08-06T13:36:37Z</time>
      </trkpt>
      <trkpt lat="43.39909" lon="2.37557">
        <ele>718.24</ele>
        <time>2016-08-06T13:36:54Z</time>
      </trkpt>
      <trkpt lat="43.39907" lon="2.37586">
        <ele>716.8</ele>
        <time>2016-08-06T13:37:10Z</time>
      </trkpt>
      <trkpt lat="43.39906" lon="2.37604">
        <ele>715.36</ele>
        <time>2016-08-06T13:37:23Z</time>
      </trkpt>
      <trkpt lat="43.39903" lon="2.37621">
        <ele>714.4</ele>
        <time>2016-08-06T13:37:35Z</time>
      </trkpt>
      <trkpt lat="43.39902" lon="2.3764">
        <ele>713.92</ele>
        <time>2016-08-06T13:37:49Z</time>
      </trkpt>
      <trkpt lat="43.39903" lon="2.37646">
        <ele>712.95</ele>
        <time>2016-08-06T13:37:53Z</time>
      </trkpt>
      <trkpt lat="43.39905" lon="2.37664">
        <ele>712.47</ele>
        <time>2016-08-06T13:38:07Z</time>
      </trkpt>
      <trkpt lat="43.39907" lon="2.37683">
        <ele>710.55</ele>
        <time>2016-08-06T13:38:24Z</time>
      </trkpt>
      <trkpt lat="43.39905" lon="2.37696">
        <ele>709.11</ele>
        <time>2016-08-06T13:38:37Z</time>
      </trkpt>
      <trkpt lat="43.39902" lon="2.37712">
        <ele>709.59</ele>
        <time>2016-08-06T13:38:51Z</time>
      </trkpt>
      <trkpt lat="43.39899" lon="2.3773">
        <ele>709.59</ele>
        <time>2016-08-06T13:39:05Z</time>
      </trkpt>
      <trkpt lat="43.39898" lon="2.37748">
        <ele>709.11</ele>
        <time>2016-08-06T13:39:18Z</time>
      </trkpt>
      <trkpt lat="43.39891" lon="2.37769">
        <ele>708.15</ele>
        <time>2016-08-06T13:39:32Z</time>
      </trkpt>
      <trkpt lat="43.39878" lon="2.37791">
        <ele>708.63</ele>
        <time>2016-08-06T13:39:49Z</time>
      </trkpt>
      <trkpt lat="43.3987" lon="2.37798">
        <ele>707.67</ele>
        <time>2016-08-06T13:39:59Z</time>
      </trkpt>
      <trkpt lat="43.39859" lon="2.37818">
        <ele>708.15</ele>
        <time>2016-08-06T13:40:14Z</time>
      </trkpt>
      <trkpt lat="43.39845" lon="2.37836">
        <ele>709.11</ele>
        <time>2016-08-06T13:40:30Z</time>
      </trkpt>
      <trkpt lat="43.39836" lon="2.3786">
        <ele>709.59</ele>
        <time>2016-08-06T13:40:45Z</time>
      </trkpt>
      <trkpt lat="43.39831" lon="2.37878">
        <ele>710.55</ele>
        <time>2016-08-06T13:40:57Z</time>
      </trkpt>
      <trkpt lat="43.39821" lon="2.37897">
        <ele>711.51</ele>
        <time>2016-08-06T13:41:11Z</time>
      </trkpt>
      <trkpt lat="43.39816" lon="2.37919">
        <ele>711.51</ele>
        <time>2016-08-06T13:41:25Z</time>
      </trkpt>
      <trkpt lat="43.39807" lon="2.3794">
        <ele>712.47</ele>
        <time>2016-08-06T13:41:41Z</time>
      </trkpt>
      <trkpt lat="43.39803" lon="2.37968">
        <ele>711.99</ele>
        <time>2016-08-06T13:41:59Z</time>
      </trkpt>
      <trkpt lat="43.39802" lon="2.37988">
        <ele>710.07</ele>
        <time>2016-08-06T13:42:14Z</time>
      </trkpt>
      <trkpt lat="43.39802" lon="2.38004">
        <ele>707.67</ele>
        <time>2016-08-06T13:42:26Z</time>
      </trkpt>
      <trkpt lat="43.39803" lon="2.38021">
        <ele>706.71</ele>
        <time>2016-08-06T13:42:38Z</time>
      </trkpt>
      <trkpt lat="43.39812" lon="2.3804">
        <ele>705.75</ele>
        <time>2016-08-06T13:42:52Z</time>
      </trkpt>
      <trkpt lat="43.39818" lon="2.38054">
        <ele>704.3</ele>
        <time>2016-08-06T13:43:05Z</time>
      </trkpt>
      <trkpt lat="43.39825" lon="2.38063">
        <ele>703.34</ele>
        <time>2016-08-06T13:43:18Z</time>
      </trkpt>
      <trkpt lat="43.3983" lon="2.38075">
        <ele>701.9</ele>
        <time>2016-08-06T13:43:33Z</time>
      </trkpt>
      <trkpt lat="43.39832" lon="2.38084">
        <ele>699.98</ele>
        <time>2016-08-06T13:43:47Z</time>
      </trkpt>
      <trkpt lat="43.39834" lon="2.38095">
        <ele>699.02</ele>
        <time>2016-08-06T13:44:02Z</time>
      </trkpt>
      <trkpt lat="43.39839" lon="2.38106">
        <ele>697.57</ele>
        <time>2016-08-06T13:44:15Z</time>
      </trkpt>
      <trkpt lat="43.39845" lon="2.38112">
        <ele>698.05</ele>
        <time>2016-08-06T13:45:20Z</time>
      </trkpt>
      <trkpt lat="43.39844" lon="2.38115">
        <ele>699.02</ele>
        <time>2016-08-06T13:45:34Z</time>
      </trkpt>
      <trkpt lat="43.39834" lon="2.3811">
        <ele>699.98</ele>
        <time>2016-08-06T13:45:51Z</time>
      </trkpt>
      <trkpt lat="43.39827" lon="2.3812">
        <ele>700.46</ele>
        <time>2016-08-06T13:46:08Z</time>
      </trkpt>
      <trkpt lat="43.39817" lon="2.38135">
        <ele>701.42</ele>
        <time>2016-08-06T13:46:23Z</time>
      </trkpt>
      <trkpt lat="43.39808" lon="2.38147">
        <ele>699.98</ele>
        <time>2016-08-06T13:46:38Z</time>
      </trkpt>
      <trkpt lat="43.39798" lon="2.38156">
        <ele>698.53</ele>
        <time>2016-08-06T13:46:53Z</time>
      </trkpt>
      <trkpt lat="43.39791" lon="2.38164">
        <ele>697.09</ele>
        <time>2016-08-06T13:47:07Z</time>
      </trkpt>
      <trkpt lat="43.39784" lon="2.3817">
        <ele>694.69</ele>
        <time>2016-08-06T13:47:21Z</time>
      </trkpt>
      <trkpt lat="43.39773" lon="2.38176">
        <ele>693.25</ele>
        <time>2016-08-06T13:47:35Z</time>
      </trkpt>
      <trkpt lat="43.39762" lon="2.38183">
        <ele>691.33</ele>
        <time>2016-08-06T13:47:48Z</time>
      </trkpt>
      <trkpt lat="43.39753" lon="2.38186">
        <ele>690.36</ele>
        <time>2016-08-06T13:48:01Z</time>
      </trkpt>
      <trkpt lat="43.39745" lon="2.38195">
        <ele>688.92</ele>
        <time>2016-08-06T13:48:15Z</time>
      </trkpt>
      <trkpt lat="43.39744" lon="2.38195">
        <ele>687.96</ele>
        <time>2016-08-06T13:48:17Z</time>
      </trkpt>
      <trkpt lat="43.39735" lon="2.38202">
        <ele>687.48</ele>
        <time>2016-08-06T13:48:32Z</time>
      </trkpt>
      <trkpt lat="43.39732" lon="2.38209">
        <ele>687</ele>
        <time>2016-08-06T13:48:47Z</time>
      </trkpt>
      <trkpt lat="43.39725" lon="2.38218">
        <ele>687.96</ele>
        <time>2016-08-06T13:49:05Z</time>
      </trkpt>
      <trkpt lat="43.39726" lon="2.38211">
        <ele>688.44</ele>
        <time>2016-08-06T13:49:32Z</time>
      </trkpt>
      <trkpt lat="43.39725" lon="2.3821">
        <ele>687.96</ele>
        <time>2016-08-06T13:50:01Z</time>
      </trkpt>
      <trkpt lat="43.39719" lon="2.38218">
        <ele>687</ele>
        <time>2016-08-06T13:50:15Z</time>
      </trkpt>
      <trkpt lat="43.39707" lon="2.38225">
        <ele>689.4</ele>
        <time>2016-08-06T13:50:30Z</time>
      </trkpt>
      <trkpt lat="43.39697" lon="2.38231">
        <ele>690.36</ele>
        <time>2016-08-06T13:50:44Z</time>
      </trkpt>
      <trkpt lat="43.39686" lon="2.3824">
        <ele>689.88</ele>
        <time>2016-08-06T13:50:59Z</time>
      </trkpt>
      <trkpt lat="43.39672" lon="2.38251">
        <ele>690.36</ele>
        <time>2016-08-06T13:51:14Z</time>
      </trkpt>
      <trkpt lat="43.39658" lon="2.3826">
        <ele>688.44</ele>
        <time>2016-08-06T13:51:30Z</time>
      </trkpt>
      <trkpt lat="43.39644" lon="2.38268">
        <ele>686.04</ele>
        <time>2016-08-06T13:51:47Z</time>
      </trkpt>
      <trkpt lat="43.3963" lon="2.38279">
        <ele>685.08</ele>
        <time>2016-08-06T13:52:02Z</time>
      </trkpt>
      <trkpt lat="43.39622" lon="2.38291">
        <ele>684.6</ele>
        <time>2016-08-06T13:52:17Z</time>
      </trkpt>
      <trkpt lat="43.39615" lon="2.38299">
        <ele>684.12</ele>
        <time>2016-08-06T13:52:33Z</time>
      </trkpt>
      <trkpt lat="43.39614" lon="2.38306">
        <ele>683.63</ele>
        <time>2016-08-06T13:52:39Z</time>
      </trkpt>
      <trkpt lat="43.39612" lon="2.38321">
        <ele>682.19</ele>
        <time>2016-08-06T13:52:55Z</time>
      </trkpt>
      <trkpt lat="43.39605" lon="2.38333">
        <ele>683.63</ele>
        <time>2016-08-06T13:53:11Z</time>
      </trkpt>
      <trkpt lat="43.39594" lon="2.38359">
        <ele>681.71</ele>
        <time>2016-08-06T13:53:30Z</time>
      </trkpt>
      <trkpt lat="43.39591" lon="2.38379">
        <ele>681.23</ele>
        <time>2016-08-06T13:53:47Z</time>
      </trkpt>
      <trkpt lat="43.39591" lon="2.38385">
        <ele>680.75</ele>
        <time>2016-08-06T13:54:03Z</time>
      </trkpt>
      <trkpt lat="43.39594" lon="2.38375">
        <ele>678.35</ele>
        <time>2016-08-06T13:54:18Z</time>
      </trkpt>
      <trkpt lat="43.39596" lon="2.38345">
        <ele>674.98</ele>
        <time>2016-08-06T13:54:37Z</time>
      </trkpt>
      <trkpt lat="43.39583" lon="2.38346">
        <ele>671.62</ele>
        <time>2016-08-06T13:54:50Z</time>
      </trkpt>
      <trkpt lat="43.39574" lon="2.38356">
        <ele>669.7</ele>
        <time>2016-08-06T13:55:04Z</time>
      </trkpt>
      <trkpt lat="43.39567" lon="2.38368">
        <ele>667.77</ele>
        <time>2016-08-06T13:55:20Z</time>
      </trkpt>
      <trkpt lat="43.39553" lon="2.38376">
        <ele>665.85</ele>
        <time>2016-08-06T13:55:36Z</time>
      </trkpt>
      <trkpt lat="43.39544" lon="2.38387">
        <ele>664.41</ele>
        <time>2016-08-06T13:55:49Z</time>
      </trkpt>
      <trkpt lat="43.39533" lon="2.38393">
        <ele>662.49</ele>
        <time>2016-08-06T13:56:01Z</time>
      </trkpt>
      <trkpt lat="43.39521" lon="2.38408">
        <ele>659.6</ele>
        <time>2016-08-06T13:56:18Z</time>
      </trkpt>
      <trkpt lat="43.39512" lon="2.38422">
        <ele>657.2</ele>
        <time>2016-08-06T13:56:31Z</time>
      </trkpt>
      <trkpt lat="43.39503" lon="2.38435">
        <ele>656.24</ele>
        <time>2016-08-06T13:56:45Z</time>
      </trkpt>
      <trkpt lat="43.39488" lon="2.38442">
        <ele>653.35</ele>
        <time>2016-08-06T13:57:02Z</time>
      </trkpt>
      <trkpt lat="43.39481" lon="2.38459">
        <ele>649.99</ele>
        <time>2016-08-06T13:57:19Z</time>
      </trkpt>
      <trkpt lat="43.39474" lon="2.38474">
        <ele>648.55</ele>
        <time>2016-08-06T13:57:35Z</time>
      </trkpt>
      <trkpt lat="43.39466" lon="2.3849">
        <ele>647.1</ele>
        <time>2016-08-06T13:57:50Z</time>
      </trkpt>
      <trkpt lat="43.3946" lon="2.38509">
        <ele>645.18</ele>
        <time>2016-08-06T13:58:07Z</time>
      </trkpt>
      <trkpt lat="43.39455" lon="2.38511">
        <ele>644.22</ele>
        <time>2016-08-06T13:58:23Z</time>
      </trkpt>
      <trkpt lat="43.39453" lon="2.38519">
        <ele>643.26</ele>
        <time>2016-08-06T13:58:38Z</time>
      </trkpt>
      <trkpt lat="43.39447" lon="2.38522">
        <ele>642.3</ele>
        <time>2016-08-06T13:58:52Z</time>
      </trkpt>
      <trkpt lat="43.39442" lon="2.38538">
        <ele>638.93</ele>
        <time>2016-08-06T13:59:08Z</time>
      </trkpt>
      <trkpt lat="43.39437" lon="2.3855">
        <ele>637.49</ele>
        <time>2016-08-06T13:59:22Z</time>
      </trkpt>
      <trkpt lat="43.39429" lon="2.38561">
        <ele>635.09</ele>
        <time>2016-08-06T13:59:38Z</time>
      </trkpt>
      <trkpt lat="43.39425" lon="2.38563">
        <ele>631.72</ele>
        <time>2016-08-06T13:59:54Z</time>
      </trkpt>
      <trkpt lat="43.39412" lon="2.3857">
        <ele>629.8</ele>
        <time>2016-08-06T14:00:11Z</time>
      </trkpt>
      <trkpt lat="43.39397" lon="2.38576">
        <ele>626.44</ele>
        <time>2016-08-06T14:00:26Z</time>
      </trkpt>
      <trkpt lat="43.39387" lon="2.38593">
        <ele>625.96</ele>
        <time>2016-08-06T14:00:45Z</time>
      </trkpt>
      <trkpt lat="43.3938" lon="2.38603">
        <ele>623.55</ele>
        <time>2016-08-06T14:01:03Z</time>
      </trkpt>
      <trkpt lat="43.39374" lon="2.38613">
        <ele>620.19</ele>
        <time>2016-08-06T14:01:16Z</time>
      </trkpt>
      <trkpt lat="43.3936" lon="2.38626">
        <ele>619.23</ele>
        <time>2016-08-06T14:01:33Z</time>
      </trkpt>
      <trkpt lat="43.39347" lon="2.38639">
        <ele>617.78</ele>
        <time>2016-08-06T14:01:49Z</time>
      </trkpt>
      <trkpt lat="43.39328" lon="2.38649">
        <ele>615.38</ele>
        <time>2016-08-06T14:02:11Z</time>
      </trkpt>
      <trkpt lat="43.39317" lon="2.38656">
        <ele>613.94</ele>
        <time>2016-08-06T14:02:29Z</time>
      </trkpt>
      <trkpt lat="43.39305" lon="2.38662">
        <ele>611.06</ele>
        <time>2016-08-06T14:02:47Z</time>
      </trkpt>
      <trkpt lat="43.39295" lon="2.38662">
        <ele>609.13</ele>
        <time>2016-08-06T14:03:02Z</time>
      </trkpt>
      <trkpt lat="43.39282" lon="2.38662">
        <ele>607.21</ele>
        <time>2016-08-06T14:03:20Z</time>
      </trkpt>
      <trkpt lat="43.39275" lon="2.38663">
        <ele>603.85</ele>
        <time>2016-08-06T14:03:35Z</time>
      </trkpt>
      <trkpt lat="43.39267" lon="2.38665">
        <ele>601.92</ele>
        <time>2016-08-06T14:03:50Z</time>
      </trkpt>
      <trkpt lat="43.39256" lon="2.38674">
        <ele>597.12</ele>
        <time>2016-08-06T14:04:47Z</time>
      </trkpt>
      <trkpt lat="43.39257" lon="2.38663">
        <ele>595.19</ele>
        <time>2016-08-06T14:05:06Z</time>
      </trkpt>
      <trkpt lat="43.39257" lon="2.3865">
        <ele>595.19</ele>
        <time>2016-08-06T14:05:23Z</time>
      </trkpt>
      <trkpt lat="43.39254" lon="2.38633">
        <ele>592.31</ele>
        <time>2016-08-06T14:05:39Z</time>
      </trkpt>
      <trkpt lat="43.39243" lon="2.38638">
        <ele>590.39</ele>
        <time>2016-08-06T14:05:53Z</time>
      </trkpt>
      <trkpt lat="43.39231" lon="2.38654">
        <ele>588.95</ele>
        <time>2016-08-06T14:06:06Z</time>
      </trkpt>
      <trkpt lat="43.39218" lon="2.38672">
        <ele>587.02</ele>
        <time>2016-08-06T14:06:22Z</time>
      </trkpt>
      <trkpt lat="43.39208" lon="2.38691">
        <ele>584.14</ele>
        <time>2016-08-06T14:06:38Z</time>
      </trkpt>
      <trkpt lat="43.39202" lon="2.38707">
        <ele>583.66</ele>
        <time>2016-08-06T14:06:53Z</time>
      </trkpt>
      <trkpt lat="43.39193" lon="2.38728">
        <ele>581.73</ele>
        <time>2016-08-06T14:07:08Z</time>
      </trkpt>
      <trkpt lat="43.39186" lon="2.38746">
        <ele>579.81</ele>
        <time>2016-08-06T14:07:24Z</time>
      </trkpt>
      <trkpt lat="43.39181" lon="2.38766">
        <ele>577.41</ele>
        <time>2016-08-06T14:07:40Z</time>
      </trkpt>
      <trkpt lat="43.39177" lon="2.38769">
        <ele>575.97</ele>
        <time>2016-08-06T14:07:52Z</time>
      </trkpt>
      <trkpt lat="43.39173" lon="2.38772">
        <ele>573.08</ele>
        <time>2016-08-06T14:08:07Z</time>
      </trkpt>
      <trkpt lat="43.39162" lon="2.38781">
        <ele>570.68</ele>
        <time>2016-08-06T14:08:24Z</time>
      </trkpt>
      <trkpt lat="43.39153" lon="2.38784">
        <ele>568.28</ele>
        <time>2016-08-06T14:08:37Z</time>
      </trkpt>
      <trkpt lat="43.3914" lon="2.3878">
        <ele>564.91</ele>
        <time>2016-08-06T14:08:53Z</time>
      </trkpt>
      <trkpt lat="43.39129" lon="2.3878">
        <ele>563.47</ele>
        <time>2016-08-06T14:09:06Z</time>
      </trkpt>
      <trkpt lat="43.39117" lon="2.38778">
        <ele>560.59</ele>
        <time>2016-08-06T14:09:19Z</time>
      </trkpt>
      <trkpt lat="43.3911" lon="2.38779">
        <ele>560.11</ele>
        <time>2016-08-06T14:09:32Z</time>
      </trkpt>
      <trkpt lat="43.39097" lon="2.38774">
        <ele>557.7</ele>
        <time>2016-08-06T14:09:48Z</time>
      </trkpt>
      <trkpt lat="43.39085" lon="2.38775">
        <ele>555.3</ele>
        <time>2016-08-06T14:10:02Z</time>
      </trkpt>
      <trkpt lat="43.39068" lon="2.38773">
        <ele>553.86</ele>
        <time>2016-08-06T14:10:15Z</time>
      </trkpt>
      <trkpt lat="43.39047" lon="2.38772">
        <ele>551.45</ele>
        <time>2016-08-06T14:10:33Z</time>
      </trkpt>
      <trkpt lat="43.39037" lon="2.38777">
        <ele>550.97</ele>
        <time>2016-08-06T14:10:47Z</time>
      </trkpt>
      <trkpt lat="43.39024" lon="2.38778">
        <ele>547.61</ele>
        <time>2016-08-06T14:10:59Z</time>
      </trkpt>
      <trkpt lat="43.39018" lon="2.38781">
        <ele>547.13</ele>
        <time>2016-08-06T14:11:04Z</time>
      </trkpt>
      <trkpt lat="43.39007" lon="2.38794">
        <ele>546.65</ele>
        <time>2016-08-06T14:11:18Z</time>
      </trkpt>
      <trkpt lat="43.38998" lon="2.38821">
        <ele>545.2</ele>
        <time>2016-08-06T14:11:35Z</time>
      </trkpt>
      <trkpt lat="43.38994" lon="2.38852">
        <ele>543.76</ele>
        <time>2016-08-06T14:11:48Z</time>
      </trkpt>
      <trkpt lat="43.38993" lon="2.38873">
        <ele>542.32</ele>
        <time>2016-08-06T14:12:01Z</time>
      </trkpt>
      <trkpt lat="43.38994" lon="2.389">
        <ele>541.36</ele>
        <time>2016-08-06T14:12:17Z</time>
      </trkpt>
      <trkpt lat="43.38992" lon="2.38916">
        <ele>540.4</ele>
        <time>2016-08-06T14:12:32Z</time>
      </trkpt>
      <trkpt lat="43.3899" lon="2.38931">
        <ele>538.96</ele>
        <time>2016-08-06T14:12:43Z</time>
      </trkpt>
      <trkpt lat="43.38984" lon="2.38947">
        <ele>538.48</ele>
        <time>2016-08-06T14:12:56Z</time>
      </trkpt>
      <trkpt lat="43.38977" lon="2.38966">
        <ele>537.51</ele>
        <time>2016-08-06T14:13:11Z</time>
      </trkpt>
      <trkpt lat="43.38972" lon="2.38987">
        <ele>537.03</ele>
        <time>2016-08-06T14:13:26Z</time>
      </trkpt>
      <trkpt lat="43.38964" lon="2.39001">
        <ele>535.59</ele>
        <time>2016-08-06T14:13:42Z</time>
      </trkpt>
      <trkpt lat="43.38954" lon="2.39018">
        <ele>532.71</ele>
        <time>2016-08-06T14:13:59Z</time>
      </trkpt>
      <trkpt lat="43.38948" lon="2.39032">
        <ele>530.79</ele>
        <time>2016-08-06T14:14:13Z</time>
      </trkpt>
      <trkpt lat="43.38941" lon="2.39043">
        <ele>529.34</ele>
        <time>2016-08-06T14:14:28Z</time>
      </trkpt>
      <trkpt lat="43.38931" lon="2.39056">
        <ele>526.94</ele>
        <time>2016-08-06T14:14:45Z</time>
      </trkpt>
      <trkpt lat="43.3892" lon="2.39069">
        <ele>524.54</ele>
        <time>2016-08-06T14:15:02Z</time>
      </trkpt>
      <trkpt lat="43.3891" lon="2.39081">
        <ele>522.61</ele>
        <time>2016-08-06T14:15:15Z</time>
      </trkpt>
      <trkpt lat="43.38903" lon="2.39095">
        <ele>521.17</ele>
        <time>2016-08-06T14:15:27Z</time>
      </trkpt>
      <trkpt lat="43.38896" lon="2.39115">
        <ele>519.25</ele>
        <time>2016-08-06T14:15:43Z</time>
      </trkpt>
      <trkpt lat="43.38892" lon="2.39144">
        <ele>517.33</ele>
        <time>2016-08-06T14:15:57Z</time>
      </trkpt>
      <trkpt lat="43.38892" lon="2.39165">
        <ele>515.88</ele>
        <time>2016-08-06T14:16:10Z</time>
      </trkpt>
      <trkpt lat="43.38895" lon="2.39183">
        <ele>515.88</ele>
        <time>2016-08-06T14:16:24Z</time>
      </trkpt>
      <trkpt lat="43.38896" lon="2.39196">
        <ele>515.4</ele>
        <time>2016-08-06T14:16:35Z</time>
      </trkpt>
      <trkpt lat="43.38897" lon="2.39215">
        <ele>513.48</ele>
        <time>2016-08-06T14:16:49Z</time>
      </trkpt>
      <trkpt lat="43.38897" lon="2.39231">
        <ele>510.6</ele>
        <time>2016-08-06T14:17:03Z</time>
      </trkpt>
      <trkpt lat="43.38896" lon="2.39239">
        <ele>511.08</ele>
        <time>2016-08-06T14:17:10Z</time>
      </trkpt>
      <trkpt lat="43.38896" lon="2.39246">
        <ele>510.6</ele>
        <time>2016-08-06T14:17:14Z</time>
      </trkpt>
      <trkpt lat="43.38895" lon="2.39263">
        <ele>508.67</ele>
        <time>2016-08-06T14:17:30Z</time>
      </trkpt>
      <trkpt lat="43.38894" lon="2.39274">
        <ele>505.31</ele>
        <time>2016-08-06T14:17:43Z</time>
      </trkpt>
      <trkpt lat="43.38891" lon="2.39289">
        <ele>502.43</ele>
        <time>2016-08-06T14:17:57Z</time>
      </trkpt>
      <trkpt lat="43.38886" lon="2.39298">
        <ele>499.54</ele>
        <time>2016-08-06T14:18:11Z</time>
      </trkpt>
      <trkpt lat="43.38886" lon="2.393">
        <ele>499.54</ele>
        <time>2016-08-06T14:18:13Z</time>
      </trkpt>
      <trkpt lat="43.38879" lon="2.39312">
        <ele>496.66</ele>
        <time>2016-08-06T14:18:27Z</time>
      </trkpt>
      <trkpt lat="43.3887" lon="2.39325">
        <ele>495.7</ele>
        <time>2016-08-06T14:18:42Z</time>
      </trkpt>
      <trkpt lat="43.38863" lon="2.39339">
        <ele>494.74</ele>
        <time>2016-08-06T14:18:56Z</time>
      </trkpt>
      <trkpt lat="43.38855" lon="2.39354">
        <ele>492.81</ele>
        <time>2016-08-06T14:19:11Z</time>
      </trkpt>
      <trkpt lat="43.3885" lon="2.39362">
        <ele>490.41</ele>
        <time>2016-08-06T14:19:26Z</time>
      </trkpt>
      <trkpt lat="43.38848" lon="2.39367">
        <ele>488.97</ele>
        <time>2016-08-06T14:19:41Z</time>
      </trkpt>
      <trkpt lat="43.38854" lon="2.39376">
        <ele>488.97</ele>
        <time>2016-08-06T14:20:14Z</time>
      </trkpt>
      <trkpt lat="43.38846" lon="2.39375">
        <ele>488.01</ele>
        <time>2016-08-06T14:20:32Z</time>
      </trkpt>
      <trkpt lat="43.38835" lon="2.3938">
        <ele>485.6</ele>
        <time>2016-08-06T14:20:46Z</time>
      </trkpt>
      <trkpt lat="43.38826" lon="2.39383">
        <ele>483.68</ele>
        <time>2016-08-06T14:21:00Z</time>
      </trkpt>
      <trkpt lat="43.38818" lon="2.39391">
        <ele>481.76</ele>
        <time>2016-08-06T14:21:11Z</time>
      </trkpt>
      <trkpt lat="43.38809" lon="2.39409">
        <ele>479.35</ele>
        <time>2016-08-06T14:21:27Z</time>
      </trkpt>
      <trkpt lat="43.38805" lon="2.39427">
        <ele>477.43</ele>
        <time>2016-08-06T14:21:40Z</time>
      </trkpt>
      <trkpt lat="43.388" lon="2.39434">
        <ele>475.51</ele>
        <time>2016-08-06T14:21:48Z</time>
      </trkpt>
      <trkpt lat="43.38791" lon="2.39439">
        <ele>474.55</ele>
        <time>2016-08-06T14:22:00Z</time>
      </trkpt>
      <trkpt lat="43.3878" lon="2.39448">
        <ele>472.14</ele>
        <time>2016-08-06T14:22:15Z</time>
      </trkpt>
      <trkpt lat="43.38771" lon="2.39466">
        <ele>473.11</ele>
        <time>2016-08-06T14:22:30Z</time>
      </trkpt>
      <trkpt lat="43.38764" lon="2.39478">
        <ele>471.66</ele>
        <time>2016-08-06T14:22:40Z</time>
      </trkpt>
      <trkpt lat="43.38762" lon="2.39479">
        <ele>470.22</ele>
        <time>2016-08-06T14:22:43Z</time>
      </trkpt>
      <trkpt lat="43.38753" lon="2.39501">
        <ele>468.78</ele>
        <time>2016-08-06T14:22:59Z</time>
      </trkpt>
      <trkpt lat="43.38745" lon="2.39521">
        <ele>466.86</ele>
        <time>2016-08-06T14:23:14Z</time>
      </trkpt>
      <trkpt lat="43.38744" lon="2.39537">
        <ele>464.93</ele>
        <time>2016-08-06T14:23:28Z</time>
      </trkpt>
      <trkpt lat="43.38744" lon="2.39551">
        <ele>463.49</ele>
        <time>2016-08-06T14:23:41Z</time>
      </trkpt>
      <trkpt lat="43.38748" lon="2.39552">
        <ele>463.01</ele>
        <time>2016-08-06T14:23:56Z</time>
      </trkpt>
      <trkpt lat="43.38748" lon="2.39554">
        <ele>461.57</ele>
        <time>2016-08-06T14:24:01Z</time>
      </trkpt>
      <trkpt lat="43.38748" lon="2.39555">
        <ele>458.21</ele>
        <time>2016-08-06T14:24:03Z</time>
      </trkpt>
      <trkpt lat="43.3875" lon="2.39559">
        <ele>461.57</ele>
        <time>2016-08-06T14:27:12Z</time>
      </trkpt>
      <trkpt lat="43.38745" lon="2.39563">
        <ele>460.13</ele>
        <time>2016-08-06T14:27:25Z</time>
      </trkpt>
      <trkpt lat="43.38741" lon="2.39572">
        <ele>458.21</ele>
        <time>2016-08-06T14:27:39Z</time>
      </trkpt>
      <trkpt lat="43.38736" lon="2.39584">
        <ele>457.24</ele>
        <time>2016-08-06T14:27:55Z</time>
      </trkpt>
      <trkpt lat="43.38731" lon="2.39596">
        <ele>453.88</ele>
        <time>2016-08-06T14:28:09Z</time>
      </trkpt>
      <trkpt lat="43.38723" lon="2.39602">
        <ele>451.96</ele>
        <time>2016-08-06T14:28:23Z</time>
      </trkpt>
      <trkpt lat="43.38715" lon="2.39606">
        <ele>449.55</ele>
        <time>2016-08-06T14:28:35Z</time>
      </trkpt>
      <trkpt lat="43.38707" lon="2.39604">
        <ele>447.15</ele>
        <time>2016-08-06T14:28:52Z</time>
      </trkpt>
      <trkpt lat="43.387" lon="2.39606">
        <ele>447.15</ele>
        <time>2016-08-06T14:29:05Z</time>
      </trkpt>
      <trkpt lat="43.38697" lon="2.39613">
        <ele>446.67</ele>
        <time>2016-08-06T14:29:18Z</time>
      </trkpt>
      <trkpt lat="43.38699" lon="2.39614">
        <ele>446.67</ele>
        <time>2016-08-06T14:29:22Z</time>
      </trkpt>
      <trkpt lat="43.38704" lon="2.39613">
        <ele>446.19</ele>
        <time>2016-08-06T14:29:28Z</time>
      </trkpt>
      <trkpt lat="43.38706" lon="2.39597">
        <ele>447.15</ele>
        <time>2016-08-06T14:29:43Z</time>
      </trkpt>
      <trkpt lat="43.38706" lon="2.39577">
        <ele>447.63</ele>
        <time>2016-08-06T14:29:56Z</time>
      </trkpt>
      <trkpt lat="43.38695" lon="2.39545">
        <ele>449.55</ele>
        <time>2016-08-06T14:30:12Z</time>
      </trkpt>
      <trkpt lat="43.3868" lon="2.39528">
        <ele>449.55</ele>
        <time>2016-08-06T14:30:29Z</time>
      </trkpt>
      <trkpt lat="43.38672" lon="2.39528">
        <ele>450.03</ele>
        <time>2016-08-06T14:30:33Z</time>
      </trkpt>
      <trkpt lat="43.38647" lon="2.39531">
        <ele>448.59</ele>
        <time>2016-08-06T14:30:49Z</time>
      </trkpt>
      <trkpt lat="43.38632" lon="2.39543">
        <ele>447.15</ele>
        <time>2016-08-06T14:31:03Z</time>
      </trkpt>
      <trkpt lat="43.38618" lon="2.39549">
        <ele>445.23</ele>
        <time>2016-08-06T14:31:17Z</time>
      </trkpt>
      <trkpt lat="43.38616" lon="2.39549">
        <ele>444.75</ele>
        <time>2016-08-06T14:31:19Z</time>
      </trkpt>
      <trkpt lat="43.38612" lon="2.39551">
        <ele>445.23</ele>
        <time>2016-08-06T14:31:22Z</time>
      </trkpt>
      <trkpt lat="43.386" lon="2.39561">
        <ele>443.31</ele>
        <time>2016-08-06T14:31:35Z</time>
      </trkpt>
      <trkpt lat="43.38587" lon="2.39564">
        <ele>442.34</ele>
        <time>2016-08-06T14:31:51Z</time>
      </trkpt>
      <trkpt lat="43.38584" lon="2.39564">
        <ele>442.34</ele>
        <time>2016-08-06T14:31:54Z</time>
      </trkpt>
      <trkpt lat="43.38567" lon="2.39566">
        <ele>442.82</ele>
        <time>2016-08-06T14:32:09Z</time>
      </trkpt>
      <trkpt lat="43.38556" lon="2.39568">
        <ele>443.79</ele>
        <time>2016-08-06T14:32:23Z</time>
      </trkpt>
      <trkpt lat="43.38545" lon="2.39567">
        <ele>444.75</ele>
        <time>2016-08-06T14:32:37Z</time>
      </trkpt>
      <trkpt lat="43.38529" lon="2.39567">
        <ele>445.23</ele>
        <time>2016-08-06T14:32:54Z</time>
      </trkpt>
      <trkpt lat="43.38509" lon="2.39561">
        <ele>446.19</ele>
        <time>2016-08-06T14:33:10Z</time>
      </trkpt>
      <trkpt lat="43.38483" lon="2.39557">
        <ele>447.63</ele>
        <time>2016-08-06T14:33:25Z</time>
      </trkpt>
      <trkpt lat="43.38472" lon="2.39562">
        <ele>448.11</ele>
        <time>2016-08-06T14:33:37Z</time>
      </trkpt>
      <trkpt lat="43.38455" lon="2.39564">
        <ele>446.19</ele>
        <time>2016-08-06T14:33:51Z</time>
      </trkpt>
      <trkpt lat="43.38445" lon="2.39568">
        <ele>445.71</ele>
        <time>2016-08-06T14:34:03Z</time>
      </trkpt>
      <trkpt lat="43.3843" lon="2.39578">
        <ele>443.79</ele>
        <time>2016-08-06T14:34:20Z</time>
      </trkpt>
      <trkpt lat="43.38421" lon="2.39581">
        <ele>442.82</ele>
        <time>2016-08-06T14:34:35Z</time>
      </trkpt>
      <trkpt lat="43.38411" lon="2.39589">
        <ele>440.9</ele>
        <time>2016-08-06T14:34:50Z</time>
      </trkpt>
      <trkpt lat="43.38404" lon="2.39595">
        <ele>440.42</ele>
        <time>2016-08-06T14:35:04Z</time>
      </trkpt>
      <trkpt lat="43.38395" lon="2.396">
        <ele>438.5</ele>
        <time>2016-08-06T14:35:17Z</time>
      </trkpt>
      <trkpt lat="43.38386" lon="2.39607">
        <ele>437.06</ele>
        <time>2016-08-06T14:35:29Z</time>
      </trkpt>
      <trkpt lat="43.38384" lon="2.3962">
        <ele>438.02</ele>
        <time>2016-08-06T14:35:38Z</time>
      </trkpt>
      <trkpt lat="43.38379" lon="2.39623">
        <ele>437.54</ele>
        <time>2016-08-06T14:35:48Z</time>
      </trkpt>
      <trkpt lat="43.38369" lon="2.39618">
        <ele>437.06</ele>
        <time>2016-08-06T14:36:02Z</time>
      </trkpt>
      <trkpt lat="43.38357" lon="2.39614">
        <ele>437.06</ele>
        <time>2016-08-06T14:36:17Z</time>
      </trkpt>
      <trkpt lat="43.38348" lon="2.39609">
        <ele>438.02</ele>
        <time>2016-08-06T14:36:26Z</time>
      </trkpt>
      <trkpt lat="43.3834" lon="2.39599">
        <ele>437.54</ele>
        <time>2016-08-06T14:36:40Z</time>
      </trkpt>
      <trkpt lat="43.38327" lon="2.39588">
        <ele>437.54</ele>
        <time>2016-08-06T14:36:55Z</time>
      </trkpt>
      <trkpt lat="43.38319" lon="2.39573">
        <ele>437.54</ele>
        <time>2016-08-06T14:37:08Z</time>
      </trkpt>
      <trkpt lat="43.38311" lon="2.39559">
        <ele>437.54</ele>
        <time>2016-08-06T14:37:21Z</time>
      </trkpt>
      <trkpt lat="43.38303" lon="2.39546">
        <ele>438.02</ele>
        <time>2016-08-06T14:37:35Z</time>
      </trkpt>
      <trkpt lat="43.38298" lon="2.39539">
        <ele>439.46</ele>
        <time>2016-08-06T14:37:42Z</time>
      </trkpt>
      <trkpt lat="43.38278" lon="2.39527">
        <ele>438.02</ele>
        <time>2016-08-06T14:37:59Z</time>
      </trkpt>
      <trkpt lat="43.38275" lon="2.39524">
        <ele>437.06</ele>
        <time>2016-08-06T14:38:03Z</time>
      </trkpt>
      <trkpt lat="43.38261" lon="2.39524">
        <ele>435.13</ele>
        <time>2016-08-06T14:38:18Z</time>
      </trkpt>
      <trkpt lat="43.38259" lon="2.39525">
        <ele>434.65</ele>
        <time>2016-08-06T14:38:20Z</time>
      </trkpt>
      <trkpt lat="43.38249" lon="2.39535">
        <ele>433.69</ele>
        <time>2016-08-06T14:38:36Z</time>
      </trkpt>
      <trkpt lat="43.38242" lon="2.39537">
        <ele>433.69</ele>
        <time>2016-08-06T14:38:52Z</time>
      </trkpt>
      <trkpt lat="43.38243" lon="2.39534">
        <ele>437.06</ele>
        <time>2016-08-06T14:39:05Z</time>
      </trkpt>
      <trkpt lat="43.38246" lon="2.39518">
        <ele>438.5</ele>
        <time>2016-08-06T14:39:21Z</time>
      </trkpt>
      <trkpt lat="43.38242" lon="2.39499">
        <ele>439.94</ele>
        <time>2016-08-06T14:39:37Z</time>
      </trkpt>
      <trkpt lat="43.3823" lon="2.39483">
        <ele>440.9</ele>
        <time>2016-08-06T14:39:52Z</time>
      </trkpt>
      <trkpt lat="43.38221" lon="2.39478">
        <ele>442.82</ele>
        <time>2016-08-06T14:40:04Z</time>
      </trkpt>
      <trkpt lat="43.38208" lon="2.39479">
        <ele>446.19</ele>
        <time>2016-08-06T14:40:17Z</time>
      </trkpt>
      <trkpt lat="43.38197" lon="2.39479">
        <ele>447.63</ele>
        <time>2016-08-06T14:40:35Z</time>
      </trkpt>
      <trkpt lat="43.38189" lon="2.39474">
        <ele>450.03</ele>
        <time>2016-08-06T14:40:48Z</time>
      </trkpt>
      <trkpt lat="43.38183" lon="2.39469">
        <ele>451.96</ele>
        <time>2016-08-06T14:41:03Z</time>
      </trkpt>
      <trkpt lat="43.38175" lon="2.39465">
        <ele>452.44</ele>
        <time>2016-08-06T14:41:16Z</time>
      </trkpt>
      <trkpt lat="43.38168" lon="2.39459">
        <ele>454.36</ele>
        <time>2016-08-06T14:41:22Z</time>
      </trkpt>
      <trkpt lat="43.38151" lon="2.39448">
        <ele>458.21</ele>
        <time>2016-08-06T14:41:37Z</time>
      </trkpt>
      <trkpt lat="43.38141" lon="2.39444">
        <ele>460.13</ele>
        <time>2016-08-06T14:41:50Z</time>
      </trkpt>
      <trkpt lat="43.38135" lon="2.39444">
        <ele>462.53</ele>
        <time>2016-08-06T14:42:05Z</time>
      </trkpt>
      <trkpt lat="43.38126" lon="2.39432">
        <ele>464.45</ele>
        <time>2016-08-06T14:42:22Z</time>
      </trkpt>
      <trkpt lat="43.38127" lon="2.39427">
        <ele>464.45</ele>
        <time>2016-08-06T14:42:38Z</time>
      </trkpt>
      <trkpt lat="43.38126" lon="2.39424">
        <ele>463.49</ele>
        <time>2016-08-06T14:43:11Z</time>
      </trkpt>
      <trkpt lat="43.38123" lon="2.39421">
        <ele>462.53</ele>
        <time>2016-08-06T14:43:46Z</time>
      </trkpt>
      <trkpt lat="43.38125" lon="2.39424">
        <ele>461.09</ele>
        <time>2016-08-06T14:44:24Z</time>
      </trkpt>
      <trkpt lat="43.38121" lon="2.3942">
        <ele>464.45</ele>
        <time>2016-08-06T14:44:52Z</time>
      </trkpt>
      <trkpt lat="43.38121" lon="2.39414">
        <ele>463.01</ele>
        <time>2016-08-06T14:44:59Z</time>
      </trkpt>
      <trkpt lat="43.38122" lon="2.39411">
        <ele>463.97</ele>
        <time>2016-08-06T14:45:07Z</time>
      </trkpt>
      <trkpt lat="43.38118" lon="2.3941">
        <ele>464.45</ele>
        <time>2016-08-06T14:45:29Z</time>
      </trkpt>
      <trkpt lat="43.38113" lon="2.39408">
        <ele>463.97</ele>
        <time>2016-08-06T14:45:43Z</time>
      </trkpt>
      <trkpt lat="43.38098" lon="2.3941">
        <ele>463.49</ele>
        <time>2016-08-06T14:45:57Z</time>
      </trkpt>
      <trkpt lat="43.38094" lon="2.3941">
        <ele>461.57</ele>
        <time>2016-08-06T14:47:15Z</time>
      </trkpt>
      <trkpt lat="43.38086" lon="2.39412">
        <ele>460.61</ele>
        <time>2016-08-06T14:47:38Z</time>
      </trkpt>
      <trkpt lat="43.38073" lon="2.39413">
        <ele>460.13</ele>
        <time>2016-08-06T14:47:53Z</time>
      </trkpt>
      <trkpt lat="43.38062" lon="2.3941">
        <ele>460.61</ele>
        <time>2016-08-06T14:48:07Z</time>
      </trkpt>
      <trkpt lat="43.38058" lon="2.39401">
        <ele>462.05</ele>
        <time>2016-08-06T14:48:19Z</time>
      </trkpt>
      <trkpt lat="43.38056" lon="2.39395">
        <ele>463.01</ele>
        <time>2016-08-06T14:48:35Z</time>
      </trkpt>
      <trkpt lat="43.38054" lon="2.39389">
        <ele>463.49</ele>
        <time>2016-08-06T14:48:40Z</time>
      </trkpt>
      <trkpt lat="43.38047" lon="2.3937">
        <ele>463.49</ele>
        <time>2016-08-06T14:48:55Z</time>
      </trkpt>
      <trkpt lat="43.38045" lon="2.39365">
        <ele>463.97</ele>
        <time>2016-08-06T14:48:58Z</time>
      </trkpt>
      <trkpt lat="43.38029" lon="2.39344">
        <ele>465.42</ele>
        <time>2016-08-06T14:49:14Z</time>
      </trkpt>
      <trkpt lat="43.38015" lon="2.39331">
        <ele>465.9</ele>
        <time>2016-08-06T14:49:30Z</time>
      </trkpt>
      <trkpt lat="43.38012" lon="2.3933">
        <ele>466.38</ele>
        <time>2016-08-06T14:49:34Z</time>
      </trkpt>
      <trkpt lat="43.3801" lon="2.39328">
        <ele>465.9</ele>
        <time>2016-08-06T14:49:36Z</time>
      </trkpt>
      <trkpt lat="43.38002" lon="2.39312">
        <ele>464.93</ele>
        <time>2016-08-06T14:49:54Z</time>
      </trkpt>
      <trkpt lat="43.37995" lon="2.39297">
        <ele>463.97</ele>
        <time>2016-08-06T14:50:08Z</time>
      </trkpt>
      <trkpt lat="43.37987" lon="2.39286">
        <ele>464.93</ele>
        <time>2016-08-06T14:50:20Z</time>
      </trkpt>
      <trkpt lat="43.37986" lon="2.39284">
        <ele>463.49</ele>
        <time>2016-08-06T14:50:22Z</time>
      </trkpt>
      <trkpt lat="43.37981" lon="2.39264">
        <ele>462.53</ele>
        <time>2016-08-06T14:50:40Z</time>
      </trkpt>
      <trkpt lat="43.37973" lon="2.3925">
        <ele>462.53</ele>
        <time>2016-08-06T14:50:54Z</time>
      </trkpt>
      <trkpt lat="43.37961" lon="2.39229">
        <ele>462.05</ele>
        <time>2016-08-06T14:51:11Z</time>
      </trkpt>
      <trkpt lat="43.37946" lon="2.39213">
        <ele>462.05</ele>
        <time>2016-08-06T14:51:26Z</time>
      </trkpt>
      <trkpt lat="43.37937" lon="2.39201">
        <ele>461.09</ele>
        <time>2016-08-06T14:51:44Z</time>
      </trkpt>
      <trkpt lat="43.37937" lon="2.39197">
        <ele>459.65</ele>
        <time>2016-08-06T14:52:01Z</time>
      </trkpt>
      <trkpt lat="43.37938" lon="2.39191">
        <ele>461.09</ele>
        <time>2016-08-06T14:52:14Z</time>
      </trkpt>
      <trkpt lat="43.37938" lon="2.3919">
        <ele>460.61</ele>
        <time>2016-08-06T14:52:15Z</time>
      </trkpt>
      <trkpt lat="43.37942" lon="2.39178">
        <ele>458.69</ele>
        <time>2016-08-06T14:52:29Z</time>
      </trkpt>
      <trkpt lat="43.37944" lon="2.39165">
        <ele>458.69</ele>
        <time>2016-08-06T14:52:41Z</time>
      </trkpt>
      <trkpt lat="43.37949" lon="2.3915">
        <ele>457.24</ele>
        <time>2016-08-06T14:52:52Z</time>
      </trkpt>
      <trkpt lat="43.37949" lon="2.39131">
        <ele>455.8</ele>
        <time>2016-08-06T14:53:05Z</time>
      </trkpt>
      <trkpt lat="43.37948" lon="2.39125">
        <ele>454.84</ele>
        <time>2016-08-06T14:53:11Z</time>
      </trkpt>
      <trkpt lat="43.37948" lon="2.39102">
        <ele>454.84</ele>
        <time>2016-08-06T14:53:29Z</time>
      </trkpt>
      <trkpt lat="43.37948" lon="2.39097">
        <ele>453.4</ele>
        <time>2016-08-06T14:53:33Z</time>
      </trkpt>
      <trkpt lat="43.37943" lon="2.39079">
        <ele>452.44</ele>
        <time>2016-08-06T14:53:46Z</time>
      </trkpt>
      <trkpt lat="43.37943" lon="2.39071">
        <ele>451</ele>
        <time>2016-08-06T14:53:52Z</time>
      </trkpt>
      <trkpt lat="43.37943" lon="2.39064">
        <ele>451.48</ele>
        <time>2016-08-06T14:53:56Z</time>
      </trkpt>
      <trkpt lat="43.37943" lon="2.39048">
        <ele>450.52</ele>
        <time>2016-08-06T14:54:07Z</time>
      </trkpt>
      <trkpt lat="43.37944" lon="2.39043">
        <ele>450.03</ele>
        <time>2016-08-06T14:54:11Z</time>
      </trkpt>
      <trkpt lat="43.37944" lon="2.3904">
        <ele>450.03</ele>
        <time>2016-08-06T14:54:13Z</time>
      </trkpt>
      <trkpt lat="43.37944" lon="2.39036">
        <ele>450.03</ele>
        <time>2016-08-06T14:54:16Z</time>
      </trkpt>
      <trkpt lat="43.37944" lon="2.39032">
        <ele>449.55</ele>
        <time>2016-08-06T14:54:19Z</time>
      </trkpt>
      <trkpt lat="43.37944" lon="2.39011">
        <ele>448.11</ele>
        <time>2016-08-06T14:54:36Z</time>
      </trkpt>
      <trkpt lat="43.37944" lon="2.3901">
        <ele>448.11</ele>
        <time>2016-08-06T14:54:50Z</time>
      </trkpt>
      <trkpt lat="43.37939" lon="2.39008">
        <ele>450.52</ele>
        <time>2016-08-06T14:55:02Z</time>
      </trkpt>
      <trkpt lat="43.3794" lon="2.39009">
        <ele>449.07</ele>
        <time>2016-08-06T14:55:05Z</time>
      </trkpt>
      <trkpt lat="43.37947" lon="2.39008">
        <ele>447.63</ele>
        <time>2016-08-06T14:55:18Z</time>
      </trkpt>
      <trkpt lat="43.37951" lon="2.38997">
        <ele>445.71</ele>
        <time>2016-08-06T14:55:31Z</time>
      </trkpt>
      <trkpt lat="43.37955" lon="2.38979">
        <ele>444.27</ele>
        <time>2016-08-06T14:55:47Z</time>
      </trkpt>
      <trkpt lat="43.37957" lon="2.38966">
        <ele>441.86</ele>
        <time>2016-08-06T14:55:59Z</time>
      </trkpt>
      <trkpt lat="43.37958" lon="2.38948">
        <ele>439.46</ele>
        <time>2016-08-06T14:56:14Z</time>
      </trkpt>
      <trkpt lat="43.37957" lon="2.38933">
        <ele>437.54</ele>
        <time>2016-08-06T14:56:28Z</time>
      </trkpt>
      <trkpt lat="43.37958" lon="2.38917">
        <ele>436.1</ele>
        <time>2016-08-06T14:56:43Z</time>
      </trkpt>
      <trkpt lat="43.37959" lon="2.38898">
        <ele>433.69</ele>
        <time>2016-08-06T14:56:59Z</time>
      </trkpt>
      <trkpt lat="43.37959" lon="2.3889">
        <ele>432.73</ele>
        <time>2016-08-06T14:57:06Z</time>
      </trkpt>
      <trkpt lat="43.37959" lon="2.38886">
        <ele>432.73</ele>
        <time>2016-08-06T14:57:09Z</time>
      </trkpt>
      <trkpt lat="43.37954" lon="2.38864">
        <ele>431.29</ele>
        <time>2016-08-06T14:57:25Z</time>
      </trkpt>
      <trkpt lat="43.3795" lon="2.3885">
        <ele>430.33</ele>
        <time>2016-08-06T14:57:37Z</time>
      </trkpt>
      <trkpt lat="43.37945" lon="2.38831">
        <ele>428.4</ele>
        <time>2016-08-06T14:57:52Z</time>
      </trkpt>
      <trkpt lat="43.37941" lon="2.38816">
        <ele>426</ele>
        <time>2016-08-06T14:58:07Z</time>
      </trkpt>
      <trkpt lat="43.37937" lon="2.38803">
        <ele>423.12</ele>
        <time>2016-08-06T14:58:21Z</time>
      </trkpt>
      <trkpt lat="43.37935" lon="2.38793">
        <ele>420.23</ele>
        <time>2016-08-06T14:58:36Z</time>
      </trkpt>
      <trkpt lat="43.37936" lon="2.38787">
        <ele>417.35</ele>
        <time>2016-08-06T14:58:53Z</time>
      </trkpt>
      <trkpt lat="43.37944" lon="2.38782">
        <ele>414.95</ele>
        <time>2016-08-06T14:59:08Z</time>
      </trkpt>
      <trkpt lat="43.37948" lon="2.38771">
        <ele>412.54</ele>
        <time>2016-08-06T14:59:22Z</time>
      </trkpt>
      <trkpt lat="43.37945" lon="2.3876">
        <ele>411.1</ele>
        <time>2016-08-06T14:59:36Z</time>
      </trkpt>
      <trkpt lat="43.37939" lon="2.38751">
        <ele>409.18</ele>
        <time>2016-08-06T14:59:48Z</time>
      </trkpt>
      <trkpt lat="43.37938" lon="2.38747">
        <ele>407.74</ele>
        <time>2016-08-06T15:00:02Z</time>
      </trkpt>
      <trkpt lat="43.37939" lon="2.38746">
        <ele>406.29</ele>
        <time>2016-08-06T15:00:15Z</time>
      </trkpt>
      <trkpt lat="43.37943" lon="2.38739">
        <ele>404.37</ele>
        <time>2016-08-06T15:00:29Z</time>
      </trkpt>
      <trkpt lat="43.37939" lon="2.38731">
        <ele>401.97</ele>
        <time>2016-08-06T15:00:40Z</time>
      </trkpt>
      <trkpt lat="43.37928" lon="2.38727">
        <ele>401.97</ele>
        <time>2016-08-06T15:00:54Z</time>
      </trkpt>
      <trkpt lat="43.37928" lon="2.38725">
        <ele>400.53</ele>
        <time>2016-08-06T15:01:10Z</time>
      </trkpt>
      <trkpt lat="43.37925" lon="2.3872">
        <ele>400.53</ele>
        <time>2016-08-06T15:01:16Z</time>
      </trkpt>
      <trkpt lat="43.37909" lon="2.38721">
        <ele>398.6</ele>
        <time>2016-08-06T15:01:32Z</time>
      </trkpt>
      <trkpt lat="43.37896" lon="2.38724">
        <ele>397.16</ele>
        <time>2016-08-06T15:01:45Z</time>
      </trkpt>
      <trkpt lat="43.37881" lon="2.38723">
        <ele>394.28</ele>
        <time>2016-08-06T15:01:59Z</time>
      </trkpt>
      <trkpt lat="43.37878" lon="2.38721">
        <ele>394.28</ele>
        <time>2016-08-06T15:02:02Z</time>
      </trkpt>
      <trkpt lat="43.37873" lon="2.38721">
        <ele>393.8</ele>
        <time>2016-08-06T15:02:06Z</time>
      </trkpt>
      <trkpt lat="43.37867" lon="2.38718">
        <ele>391.39</ele>
        <time>2016-08-06T15:02:14Z</time>
      </trkpt>
      <trkpt lat="43.37857" lon="2.38716">
        <ele>390.43</ele>
        <time>2016-08-06T15:02:26Z</time>
      </trkpt>
      <trkpt lat="43.3785" lon="2.38715">
        <ele>388.99</ele>
        <time>2016-08-06T15:02:33Z</time>
      </trkpt>
      <trkpt lat="43.37844" lon="2.38715">
        <ele>388.03</ele>
        <time>2016-08-06T15:02:46Z</time>
      </trkpt>
      <trkpt lat="43.37839" lon="2.38713">
        <ele>386.59</ele>
        <time>2016-08-06T15:02:58Z</time>
      </trkpt>
      <trkpt lat="43.37826" lon="2.38709">
        <ele>385.63</ele>
        <time>2016-08-06T15:03:12Z</time>
      </trkpt>
      <trkpt lat="43.37813" lon="2.38702">
        <ele>384.66</ele>
        <time>2016-08-06T15:03:25Z</time>
      </trkpt>
      <trkpt lat="43.37803" lon="2.38696">
        <ele>383.7</ele>
        <time>2016-08-06T15:03:38Z</time>
      </trkpt>
      <trkpt lat="43.37793" lon="2.38688">
        <ele>380.82</ele>
        <time>2016-08-06T15:03:53Z</time>
      </trkpt>
      <trkpt lat="43.37791" lon="2.38684">
        <ele>379.38</ele>
        <time>2016-08-06T15:03:58Z</time>
      </trkpt>
      <trkpt lat="43.37779" lon="2.38676">
        <ele>376.97</ele>
        <time>2016-08-06T15:04:11Z</time>
      </trkpt>
      <trkpt lat="43.37777" lon="2.38676">
        <ele>377.45</ele>
        <time>2016-08-06T15:04:26Z</time>
      </trkpt>
      <trkpt lat="43.37777" lon="2.38677">
        <ele>377.45</ele>
        <time>2016-08-06T15:04:28Z</time>
      </trkpt>
      <trkpt lat="43.37788" lon="2.38679">
        <ele>377.45</ele>
        <time>2016-08-06T15:04:39Z</time>
      </trkpt>
      <trkpt lat="43.37796" lon="2.38679">
        <ele>377.94</ele>
        <time>2016-08-06T15:04:46Z</time>
      </trkpt>
      <trkpt lat="43.37804" lon="2.38661">
        <ele>377.45</ele>
        <time>2016-08-06T15:05:00Z</time>
      </trkpt>
      <trkpt lat="43.37801" lon="2.38645">
        <ele>377.45</ele>
        <time>2016-08-06T15:05:13Z</time>
      </trkpt>
      <trkpt lat="43.37798" lon="2.38637">
        <ele>377.94</ele>
        <time>2016-08-06T15:05:21Z</time>
      </trkpt>
      <trkpt lat="43.37794" lon="2.38611">
        <ele>378.42</ele>
        <time>2016-08-06T15:05:39Z</time>
      </trkpt>
      <trkpt lat="43.37785" lon="2.3859">
        <ele>378.42</ele>
        <time>2016-08-06T15:05:55Z</time>
      </trkpt>
      <trkpt lat="43.3778" lon="2.38571">
        <ele>377.94</ele>
        <time>2016-08-06T15:06:08Z</time>
      </trkpt>
      <trkpt lat="43.37775" lon="2.38549">
        <ele>378.42</ele>
        <time>2016-08-06T15:06:22Z</time>
      </trkpt>
      <trkpt lat="43.37763" lon="2.38534">
        <ele>377.45</ele>
        <time>2016-08-06T15:06:36Z</time>
      </trkpt>
      <trkpt lat="43.37751" lon="2.38526">
        <ele>376.49</ele>
        <time>2016-08-06T15:06:50Z</time>
      </trkpt>
      <trkpt lat="43.37736" lon="2.38515">
        <ele>376.97</ele>
        <time>2016-08-06T15:07:04Z</time>
      </trkpt>
      <trkpt lat="43.37734" lon="2.38515">
        <ele>376.97</ele>
        <time>2016-08-06T15:07:06Z</time>
      </trkpt>
      <trkpt lat="43.37732" lon="2.38516">
        <ele>376.97</ele>
        <time>2016-08-06T15:07:08Z</time>
      </trkpt>
      <trkpt lat="43.37717" lon="2.38516">
        <ele>376.97</ele>
        <time>2016-08-06T15:07:24Z</time>
      </trkpt>
      <trkpt lat="43.37705" lon="2.38517">
        <ele>377.45</ele>
        <time>2016-08-06T15:07:40Z</time>
      </trkpt>
      <trkpt lat="43.37695" lon="2.38518">
        <ele>376.01</ele>
        <time>2016-08-06T15:07:55Z</time>
      </trkpt>
      <trkpt lat="43.37666" lon="2.38514">
        <ele>373.13</ele>
        <time>2016-08-06T15:08:10Z</time>
      </trkpt>
      <trkpt lat="43.3765" lon="2.38514">
        <ele>372.65</ele>
        <time>2016-08-06T15:08:25Z</time>
      </trkpt>
      <trkpt lat="43.37628" lon="2.3851">
        <ele>371.69</ele>
        <time>2016-08-06T15:08:45Z</time>
      </trkpt>
      <trkpt lat="43.37613" lon="2.38525">
        <ele>371.69</ele>
        <time>2016-08-06T15:09:00Z</time>
      </trkpt>
      <trkpt lat="43.37612" lon="2.38526">
        <ele>371.21</ele>
        <time>2016-08-06T15:09:01Z</time>
      </trkpt>
      <trkpt lat="43.37603" lon="2.3852">
        <ele>370.73</ele>
        <time>2016-08-06T15:09:16Z</time>
      </trkpt>
      <trkpt lat="43.37606" lon="2.3851">
        <ele>369.76</ele>
        <time>2016-08-06T15:09:30Z</time>
      </trkpt>
      <trkpt lat="43.3761" lon="2.38494">
        <ele>368.32</ele>
        <time>2016-08-06T15:09:43Z</time>
      </trkpt>
      <trkpt lat="43.37608" lon="2.38476">
        <ele>365.92</ele>
        <time>2016-08-06T15:09:58Z</time>
      </trkpt>
      <trkpt lat="43.37607" lon="2.38471">
        <ele>365.92</ele>
        <time>2016-08-06T15:10:01Z</time>
      </trkpt>
      <trkpt lat="43.37607" lon="2.38463">
        <ele>365.92</ele>
        <time>2016-08-06T15:10:07Z</time>
      </trkpt>
      <trkpt lat="43.3761" lon="2.38454">
        <ele>365.92</ele>
        <time>2016-08-06T15:10:15Z</time>
      </trkpt>
      <trkpt lat="43.37618" lon="2.3844">
        <ele>366.88</ele>
        <time>2016-08-06T15:10:30Z</time>
      </trkpt>
      <trkpt lat="43.37618" lon="2.38416">
        <ele>367.36</ele>
        <time>2016-08-06T15:10:45Z</time>
      </trkpt>
      <trkpt lat="43.37613" lon="2.38397">
        <ele>368.32</ele>
        <time>2016-08-06T15:10:59Z</time>
      </trkpt>
      <trkpt lat="43.37604" lon="2.3838">
        <ele>370.24</ele>
        <time>2016-08-06T15:11:11Z</time>
      </trkpt>
      <trkpt lat="43.37587" lon="2.38355">
        <ele>368.8</ele>
        <time>2016-08-06T15:11:24Z</time>
      </trkpt>
      <trkpt lat="43.37567" lon="2.38345">
        <ele>367.36</ele>
        <time>2016-08-06T15:11:40Z</time>
      </trkpt>
      <trkpt lat="43.37556" lon="2.38348">
        <ele>366.4</ele>
        <time>2016-08-06T15:11:49Z</time>
      </trkpt>
      <trkpt lat="43.37541" lon="2.38359">
        <ele>365.92</ele>
        <time>2016-08-06T15:12:03Z</time>
      </trkpt>
      <trkpt lat="43.37528" lon="2.38364">
        <ele>364.96</ele>
        <time>2016-08-06T15:12:16Z</time>
      </trkpt>
      <trkpt lat="43.37516" lon="2.38364">
        <ele>365.44</ele>
        <time>2016-08-06T15:12:30Z</time>
      </trkpt>
      <trkpt lat="43.37515" lon="2.38364">
        <ele>364.96</ele>
        <time>2016-08-06T15:12:31Z</time>
      </trkpt>
      <trkpt lat="43.37511" lon="2.38363">
        <ele>364.96</ele>
        <time>2016-08-06T15:12:34Z</time>
      </trkpt>
      <trkpt lat="43.37509" lon="2.38362">
        <ele>364.96</ele>
        <time>2016-08-06T15:12:37Z</time>
      </trkpt>
      <trkpt lat="43.37502" lon="2.38351">
        <ele>365.44</ele>
        <time>2016-08-06T15:12:51Z</time>
      </trkpt>
      <trkpt lat="43.37494" lon="2.38336">
        <ele>364</ele>
        <time>2016-08-06T15:13:04Z</time>
      </trkpt>
      <trkpt lat="43.37488" lon="2.38319">
        <ele>363.52</ele>
        <time>2016-08-06T15:13:18Z</time>
      </trkpt>
      <trkpt lat="43.37486" lon="2.383">
        <ele>362.55</ele>
        <time>2016-08-06T15:13:34Z</time>
      </trkpt>
      <trkpt lat="43.37483" lon="2.38278">
        <ele>363.04</ele>
        <time>2016-08-06T15:13:49Z</time>
      </trkpt>
      <trkpt lat="43.37478" lon="2.38257">
        <ele>363.04</ele>
        <time>2016-08-06T15:14:01Z</time>
      </trkpt>
      <trkpt lat="43.37477" lon="2.38252">
        <ele>362.55</ele>
        <time>2016-08-06T15:14:05Z</time>
      </trkpt>
      <trkpt lat="43.37477" lon="2.38229">
        <ele>363.52</ele>
        <time>2016-08-06T15:14:21Z</time>
      </trkpt>
      <trkpt lat="43.37472" lon="2.38211">
        <ele>364.48</ele>
        <time>2016-08-06T15:14:35Z</time>
      </trkpt>
      <trkpt lat="43.3747" lon="2.38207">
        <ele>364.48</ele>
        <time>2016-08-06T15:14:38Z</time>
      </trkpt>
      <trkpt lat="43.37466" lon="2.38201">
        <ele>364</ele>
        <time>2016-08-06T15:14:44Z</time>
      </trkpt>
      <trkpt lat="43.37459" lon="2.3819">
        <ele>357.75</ele>
        <time>2016-08-06T15:14:57Z</time>
      </trkpt>
      <trkpt lat="43.37459" lon="2.38189">
        <ele>357.75</ele>
        <time>2016-08-06T15:14:58Z</time>
      </trkpt>
      <trkpt lat="43.37457" lon="2.38185">
        <ele>364.48</ele>
        <time>2016-08-06T15:15:03Z</time>
      </trkpt>
      <trkpt lat="43.37457" lon="2.38185">
        <ele>364</ele>
        <time>2016-08-06T15:15:04Z</time>
      </trkpt>
      <trkpt lat="43.37454" lon="2.38184">
        <ele>364.48</ele>
        <time>2016-08-06T15:15:18Z</time>
      </trkpt>
      <trkpt lat="43.3745" lon="2.38171">
        <ele>364</ele>
        <time>2016-08-06T15:15:31Z</time>
      </trkpt>
      <trkpt lat="43.3745" lon="2.38166">
        <ele>363.52</ele>
        <time>2016-08-06T15:15:36Z</time>
      </trkpt>
      <trkpt lat="43.37446" lon="2.38145">
        <ele>363.52</ele>
        <time>2016-08-06T15:15:53Z</time>
      </trkpt>
      <trkpt lat="43.37438" lon="2.38129">
        <ele>362.55</ele>
        <time>2016-08-06T15:16:06Z</time>
      </trkpt>
      <trkpt lat="43.37431" lon="2.38117">
        <ele>361.59</ele>
        <time>2016-08-06T15:16:16Z</time>
      </trkpt>
      <trkpt lat="43.37428" lon="2.38099">
        <ele>360.63</ele>
        <time>2016-08-06T15:16:31Z</time>
      </trkpt>
      <trkpt lat="43.3744" lon="2.38079">
        <ele>358.71</ele>
        <time>2016-08-06T15:16:47Z</time>
      </trkpt>
      <trkpt lat="43.37452" lon="2.3806">
        <ele>357.75</ele>
        <time>2016-08-06T15:17:04Z</time>
      </trkpt>
      <trkpt lat="43.37453" lon="2.38056">
        <ele>357.27</ele>
        <time>2016-08-06T15:17:07Z</time>
      </trkpt>
      <trkpt lat="43.37459" lon="2.38031">
        <ele>356.31</ele>
        <time>2016-08-06T15:17:25Z</time>
      </trkpt>
      <trkpt lat="43.37459" lon="2.38007">
        <ele>355.34</ele>
        <time>2016-08-06T15:17:40Z</time>
      </trkpt>
      <trkpt lat="43.37449" lon="2.37986">
        <ele>355.34</ele>
        <time>2016-08-06T15:17:55Z</time>
      </trkpt>
      <trkpt lat="43.37441" lon="2.37978">
        <ele>351.98</ele>
        <time>2016-08-06T15:18:08Z</time>
      </trkpt>
      <trkpt lat="43.37426" lon="2.37964">
        <ele>351.5</ele>
        <time>2016-08-06T15:18:25Z</time>
      </trkpt>
      <trkpt lat="43.37425" lon="2.3796">
        <ele>350.54</ele>
        <time>2016-08-06T15:18:30Z</time>
      </trkpt>
      <trkpt lat="43.37411" lon="2.37942">
        <ele>350.06</ele>
        <time>2016-08-06T15:18:47Z</time>
      </trkpt>
      <trkpt lat="43.37396" lon="2.37924">
        <ele>348.62</ele>
        <time>2016-08-06T15:19:03Z</time>
      </trkpt>
      <trkpt lat="43.3739" lon="2.37902">
        <ele>347.17</ele>
        <time>2016-08-06T15:19:21Z</time>
      </trkpt>
      <trkpt lat="43.37387" lon="2.37891">
        <ele>346.69</ele>
        <time>2016-08-06T15:19:33Z</time>
      </trkpt>
      <trkpt lat="43.37385" lon="2.37871">
        <ele>345.25</ele>
        <time>2016-08-06T15:19:51Z</time>
      </trkpt>
      <trkpt lat="43.3738" lon="2.37856">
        <ele>343.33</ele>
        <time>2016-08-06T15:20:07Z</time>
      </trkpt>
      <trkpt lat="43.37374" lon="2.37852">
        <ele>343.33</ele>
        <time>2016-08-06T15:20:23Z</time>
      </trkpt>
      <trkpt lat="43.37373" lon="2.37842">
        <ele>344.77</ele>
        <time>2016-08-06T15:20:39Z</time>
      </trkpt>
      <trkpt lat="43.37362" lon="2.37835">
        <ele>345.73</ele>
        <time>2016-08-06T15:20:56Z</time>
      </trkpt>
      <trkpt lat="43.3736" lon="2.37837">
        <ele>345.25</ele>
        <time>2016-08-06T15:21:09Z</time>
      </trkpt>
      <trkpt lat="43.37363" lon="2.37849">
        <ele>343.81</ele>
        <time>2016-08-06T15:21:25Z</time>
      </trkpt>
      <trkpt lat="43.37364" lon="2.37852">
        <ele>342.85</ele>
        <time>2016-08-06T15:21:44Z</time>
      </trkpt>
      <trkpt lat="43.3736" lon="2.37855">
        <ele>342.85</ele>
        <time>2016-08-06T15:22:02Z</time>
      </trkpt>
      <trkpt lat="43.37359" lon="2.37856">
        <ele>342.37</ele>
        <time>2016-08-06T15:22:03Z</time>
      </trkpt>
      <trkpt lat="43.37348" lon="2.37866">
        <ele>341.41</ele>
        <time>2016-08-06T15:22:20Z</time>
      </trkpt>
      <trkpt lat="43.37325" lon="2.37833">
        <ele>334.68</ele>
        <time>2016-08-06T16:05:00Z</time>
      </trkpt>
      <trkpt lat="43.37328" lon="2.37835">
        <ele>335.16</ele>
        <time>2016-08-06T16:05:31Z</time>
      </trkpt>
      <trkpt lat="43.37322" lon="2.37836">
        <ele>335.64</ele>
        <time>2016-08-06T16:05:54Z</time>
      </trkpt>
      <trkpt lat="43.37327" lon="2.3784">
        <ele>335.64</ele>
        <time>2016-08-06T16:06:08Z</time>
      </trkpt>
      <trkpt lat="43.37327" lon="2.37843">
        <ele>335.16</ele>
        <time>2016-08-06T16:06:22Z</time>
      </trkpt>
      <trkpt lat="43.37329" lon="2.37847">
        <ele>334.68</ele>
        <time>2016-08-06T16:06:42Z</time>
      </trkpt>
      <trkpt lat="43.37331" lon="2.37851">
        <ele>334.68</ele>
        <time>2016-08-06T16:07:00Z</time>
      </trkpt>
      <trkpt lat="43.37335" lon="2.37855">
        <ele>335.16</ele>
        <time>2016-08-06T16:07:22Z</time>
      </trkpt>
      <trkpt lat="43.37337" lon="2.37856">
        <ele>336.12</ele>
        <time>2016-08-06T16:07:48Z</time>
      </trkpt>
      <trkpt lat="43.37329" lon="2.37864">
        <ele>332.27</ele>
        <time>2016-08-06T16:10:37Z</time>
      </trkpt>
      <trkpt lat="43.37328" lon="2.37875">
        <ele>332.27</ele>
        <time>2016-08-06T16:10:48Z</time>
      </trkpt>
      <trkpt lat="43.37311" lon="2.37875">
        <ele>331.31</ele>
        <time>2016-08-06T16:11:06Z</time>
      </trkpt>
      <trkpt lat="43.37297" lon="2.3788">
        <ele>331.31</ele>
        <time>2016-08-06T16:11:23Z</time>
      </trkpt>
      <trkpt lat="43.37289" lon="2.3788">
        <ele>331.31</ele>
        <time>2016-08-06T16:11:35Z</time>
      </trkpt>
      <trkpt lat="43.37281" lon="2.37873">
        <ele>331.79</ele>
        <time>2016-08-06T16:11:48Z</time>
      </trkpt>
      <trkpt lat="43.37277" lon="2.37864">
        <ele>331.79</ele>
        <time>2016-08-06T16:12:00Z</time>
      </trkpt>
      <trkpt lat="43.37269" lon="2.37857">
        <ele>331.79</ele>
        <time>2016-08-06T16:12:16Z</time>
      </trkpt>
      <trkpt lat="43.37269" lon="2.37856">
        <ele>332.27</ele>
        <time>2016-08-06T16:12:17Z</time>
      </trkpt>
      <trkpt lat="43.37261" lon="2.37841">
        <ele>331.79</ele>
        <time>2016-08-06T16:12:31Z</time>
      </trkpt>
      <trkpt lat="43.37254" lon="2.37827">
        <ele>331.79</ele>
        <time>2016-08-06T16:12:46Z</time>
      </trkpt>
      <trkpt lat="43.37251" lon="2.37819">
        <ele>331.79</ele>
        <time>2016-08-06T16:12:56Z</time>
      </trkpt>
      <trkpt lat="43.37243" lon="2.378">
        <ele>332.27</ele>
        <time>2016-08-06T16:13:11Z</time>
      </trkpt>
      <trkpt lat="43.37229" lon="2.37792">
        <ele>331.79</ele>
        <time>2016-08-06T16:13:28Z</time>
      </trkpt>
      <trkpt lat="43.37215" lon="2.37786">
        <ele>331.31</ele>
        <time>2016-08-06T16:13:44Z</time>
      </trkpt>
      <trkpt lat="43.37199" lon="2.3779">
        <ele>329.39</ele>
        <time>2016-08-06T16:14:00Z</time>
      </trkpt>
      <trkpt lat="43.37192" lon="2.37791">
        <ele>328.91</ele>
        <time>2016-08-06T16:14:07Z</time>
      </trkpt>
      <trkpt lat="43.37172" lon="2.3779">
        <ele>327.47</ele>
        <time>2016-08-06T16:14:25Z</time>
      </trkpt>
      <trkpt lat="43.37166" lon="2.37784">
        <ele>326.5</ele>
        <time>2016-08-06T16:14:32Z</time>
      </trkpt>
      <trkpt lat="43.37159" lon="2.37774">
        <ele>325.06</ele>
        <time>2016-08-06T16:14:45Z</time>
      </trkpt>
      <trkpt lat="43.37148" lon="2.37766">
        <ele>322.18</ele>
        <time>2016-08-06T16:14:59Z</time>
      </trkpt>
      <trkpt lat="43.37142" lon="2.3776">
        <ele>322.18</ele>
        <time>2016-08-06T16:15:14Z</time>
      </trkpt>
      <trkpt lat="43.37136" lon="2.37752">
        <ele>321.7</ele>
        <time>2016-08-06T16:15:29Z</time>
      </trkpt>
      <trkpt lat="43.37132" lon="2.3775">
        <ele>321.7</ele>
        <time>2016-08-06T16:15:41Z</time>
      </trkpt>
      <trkpt lat="43.37131" lon="2.37751">
        <ele>321.22</ele>
        <time>2016-08-06T16:16:00Z</time>
      </trkpt>
      <trkpt lat="43.37129" lon="2.37748">
        <ele>320.26</ele>
        <time>2016-08-06T16:16:09Z</time>
      </trkpt>
    </trkseg>
  </trk>
</gpx>